Darstellungsparameter: Aktuell verwendete Einstellungen:
Skalierung der Graphiken ... ?
xyx+y,   Skalierungsfaktor:      Skalierung: Modus: x, Faktor: 1
Darstellungszeitraum ... ?
Vom - - bis: - -   Zeitraum: 26.11.2010 - 25.12.2010
Min/Max/Avg-Anzeige ... ?
Zeige MMA aktuell
Zeige MMA Monat
Zeige MMA alles
Zeige --A aktuell
Zeige --A Monat
Zeige --A alles
Keine MMA-Anzeige
MMA:
Average (ber die Originaldaten)
MMA-Basis: 26.11.2010 - 25.12.2010
Quicknavigation für Darstellung... ?
Tage:      1T, 2T, 3T, 5T -1T -2T -3T -5T +1T +2T +3T +5T
Wochen: 1W, 2W, 3W -1W -2W -3W +1W +2W +3W
Monate: 1M, 3M, 6M -1M -3M -6M +1M +3M +6M
Jahre:    1J, 3J, 5J, 10J -1J -3J -5J -10J +1J +3J +5J +10J
Nutze für die Darstellung ... ?
Originaldaten oder Mittelwerte auf ...
Stundenbasis Tagesbasis Wochenbasis
Monatsbasis Jahresbasis      Datenbasis: Original-Daten
Darstellen als:
Statistik (Auto) Statistik J:M      Darstellung:
Zur Graphik,    zurück zur Übersicht aller Sensoren.
 
Tabellarische Datenbersicht: ?
 
Sensor: Nr:Datum:Temp:Abs-Feuchte:Windchill:Wind:
Aussen-T/F 1 26-11-2010 00:02:05 1.4 C 4.53 g/m*3 1.4 C 0 km/h
2 26-11-2010 00:14:05 1.6 C 4.6 g/m*3 1.6 C 0 km/h
3 26-11-2010 00:26:05 1.6 C 4.6 g/m*3 1.6 C 0 km/h
4 26-11-2010 00:38:05 1.4 C 4.48 g/m*3 1.4 C 0 km/h
5 26-11-2010 00:50:05 1 C 4.36 g/m*3 1 C 0 km/h
6 26-11-2010 01:02:05 0.9 C 4.43 g/m*3 0.9 C 0 km/h
7 26-11-2010 01:14:05 1.1 C 4.49 g/m*3 1.1 C 0 km/h
8 26-11-2010 01:26:05 1.1 C 4.55 g/m*3 1.1 C 0 km/h
9 26-11-2010 01:38:05 1.2 C 4.53 g/m*3 1.2 C 0 km/h
10 26-11-2010 01:50:05 1 C 4.46 g/m*3 1 C 0 km/h
11 26-11-2010 02:02:05 1 C 4.46 g/m*3 1 C 0 km/h
12 26-11-2010 02:14:05 1.1 C 4.49 g/m*3 1.1 C 0 km/h
13 26-11-2010 02:26:05 1 C 4.46 g/m*3 1 C 0 km/h
14 26-11-2010 02:38:05 1.1 C 4.49 g/m*3 1.1 C 0 km/h
15 26-11-2010 02:50:06 1.1 C 4.44 g/m*3 1.1 C 0 km/h
16 26-11-2010 03:02:06 1.1 C 4.49 g/m*3 1.1 C 0 km/h
17 26-11-2010 03:14:06 1.2 C 4.47 g/m*3 1.2 C 0 km/h
18 26-11-2010 03:26:06 0.6 C 4.29 g/m*3 0.6 C 0 km/h
19 26-11-2010 03:38:06 0.4 C 4.28 g/m*3 0.4 C 0 km/h
20 26-11-2010 03:50:06 0.4 C 4.33 g/m*3 0.4 C 0 km/h
21 26-11-2010 04:02:06 0.4 C 4.38 g/m*3 0.4 C 0 km/h
22 26-11-2010 04:14:06 0.3 C 4.35 g/m*3 0.3 C 0 km/h
23 26-11-2010 04:26:06 0.3 C 4.4 g/m*3 0.3 C 0 km/h
24 26-11-2010 04:38:06 0.3 C 4.4 g/m*3 0.3 C 0 km/h
25 26-11-2010 04:50:06 0.3 C 4.45 g/m*3 0.3 C 0 km/h
Sensor: Nr:Datum:Temp:Abs-Feuchte:Windchill:Wind:
Aussen-T/F 26 26-11-2010 05:02:06 0.3 C 4.45 g/m*3 0.3 C 0 km/h
27 26-11-2010 05:14:06 0.1 C 4.39 g/m*3 0.1 C 0 km/h
28 26-11-2010 05:26:06 0.2 C 4.47 g/m*3 0.2 C 0 km/h
29 26-11-2010 05:38:06 0.3 C 4.5 g/m*3 0.3 C 0 km/h
30 26-11-2010 05:50:06 0.4 C 4.53 g/m*3 0.4 C 0 km/h
31 26-11-2010 06:02:06 0.4 C 4.53 g/m*3 0.4 C 0 km/h
32 26-11-2010 06:14:06 0.4 C 4.53 g/m*3 0.4 C 0 km/h
33 26-11-2010 06:26:06 0.2 C 4.47 g/m*3 0.2 C 0 km/h
34 26-11-2010 06:38:06 0.1 C 4.44 g/m*3 0.1 C 0 km/h
35 26-11-2010 06:50:07 0 C 4.46 g/m*3 0 C 0 km/h
36 26-11-2010 07:02:03 0 C 4.46 g/m*3 0 C 0 km/h
37 26-11-2010 07:14:03 0 C 4.46 g/m*3 0 C 0 km/h
38 26-11-2010 07:26:03 0 C 4.46 g/m*3 0 C 0 km/h
39 26-11-2010 07:38:03 0 C 4.46 g/m*3 0 C 0 km/h
40 26-11-2010 07:50:01 0 C 4.46 g/m*3 0 C 0 km/h
41 26-11-2010 08:02:02 0 C 4.46 g/m*3 0 C 0 km/h
42 26-11-2010 08:14:02 0 C 4.46 g/m*3 0 C 0 km/h
43 26-11-2010 08:26:01 0 C 4.46 g/m*3 0 C 0 km/h
44 26-11-2010 08:38:01 0.1 C 4.54 g/m*3 0.1 C 0 km/h
45 26-11-2010 08:50:01 0.1 C 4.54 g/m*3 0.1 C 0 km/h
46 26-11-2010 09:02:01 0.1 C 4.54 g/m*3 0.1 C 0 km/h
47 26-11-2010 09:14:01 0.1 C 4.54 g/m*3 0.1 C 0 km/h
48 26-11-2010 09:26:01 0.1 C 4.54 g/m*3 0.1 C 0 km/h
49 26-11-2010 09:38:02 0.2 C 4.57 g/m*3 0.2 C 0 km/h
50 26-11-2010 09:50:02 0.2 C 4.57 g/m*3 0.2 C 0 km/h
Sensor: Nr:Datum:Temp:Abs-Feuchte:Windchill:Wind:
Aussen-T/F 51 26-11-2010 10:02:01 0.4 C 4.63 g/m*3 0.4 C 0 km/h
52 26-11-2010 10:14:01 0.4 C 4.63 g/m*3 0.4 C 0 km/h
53 26-11-2010 10:26:02 0.5 C 4.61 g/m*3 0.5 C 0 km/h
54 26-11-2010 10:38:02 0.7 C 4.68 g/m*3 0.7 C 0 km/h
55 26-11-2010 10:50:01 0.9 C 4.74 g/m*3 0.9 C 0 km/h
56 26-11-2010 11:02:02 1 C 4.67 g/m*3 1 C 0 km/h
57 26-11-2010 11:14:02 1 C 4.62 g/m*3 1 C 0 km/h
58 26-11-2010 11:26:01 1.2 C 4.63 g/m*3 1.2 C 0 km/h
59 26-11-2010 11:38:01 1.2 C 4.58 g/m*3 1.2 C 0 km/h
60 26-11-2010 11:50:01 1.2 C 4.53 g/m*3 1.2 C 0 km/h
61 26-11-2010 12:02:02 1.1 C 4.49 g/m*3 1.1 C 0 km/h
62 26-11-2010 12:14:02 1.1 C 4.49 g/m*3 1.1 C 0 km/h
63 26-11-2010 12:26:01 0.8 C 4.4 g/m*3 0.8 C 0 km/h
64 26-11-2010 12:38:02 0.7 C 4.37 g/m*3 0.7 C 0 km/h
65 26-11-2010 12:50:01 0.5 C 4.31 g/m*3 0.5 C 0 km/h
66 26-11-2010 13:02:02 0.4 C 4.28 g/m*3 0.4 C 0 km/h
67 26-11-2010 13:14:02 0.6 C 4.34 g/m*3 0.6 C 0 km/h
68 26-11-2010 13:26:02 1 C 4.46 g/m*3 1 C 0 km/h
69 26-11-2010 13:38:01 1.3 C 4.5 g/m*3 1.3 C 0 km/h
70 26-11-2010 13:50:01 1.2 C 4.26 g/m*3 1.2 C 0 km/h
71 26-11-2010 14:02:01 1.4 C 4.21 g/m*3 1.4 C 0 km/h
72 26-11-2010 14:14:01 1.5 C 4.19 g/m*3 1.5 C 0 km/h
73 26-11-2010 14:26:02 1.5 C 4.14 g/m*3 1.5 C 0 km/h
74 26-11-2010 14:38:01 1.8 C 4.17 g/m*3 1.8 C 0 km/h
75 26-11-2010 14:50:03 1.8 C 4.17 g/m*3 1.8 C 0 km/h
Sensor: Nr:Datum:Temp:Abs-Feuchte:Windchill:Wind:
Aussen-T/F 76 26-11-2010 15:02:02 1.4 C 3.79 g/m*3 1.4 C 0 km/h
77 26-11-2010 15:14:02 1 C 3.74 g/m*3 1 C 0 km/h
78 26-11-2010 15:26:02 0.9 C 3.81 g/m*3 0.9 C 0 km/h
79 26-11-2010 15:38:02 0.7 C 3.86 g/m*3 0.7 C 0 km/h
80 26-11-2010 15:50:02 0 C 3.78 g/m*3 0 C 0 km/h
81 26-11-2010 16:02:01 -0.8 C 3.71 g/m*3 -0.8 C 0 km/h
82 26-11-2010 16:14:01 -1.1 C 3.73 g/m*3 -1.1 C 0 km/h
83 26-11-2010 16:26:02 -1.6 C 3.68 g/m*3 -1.6 C 0 km/h
84 26-11-2010 16:38:02 -1.8 C 3.68 g/m*3 -1.8 C 0 km/h
85 26-11-2010 16:50:02 -2.1 C 3.64 g/m*3 -2.1 C 0 km/h
86 26-11-2010 17:02:03 -2.2 C 3.66 g/m*3 -2.2 C 0 km/h
87 26-11-2010 17:14:03 -2.4 C 3.61 g/m*3 -2.4 C 0 km/h
88 26-11-2010 17:26:02 -2.5 C 3.62 g/m*3 -2.5 C 0 km/h
89 26-11-2010 17:38:02 -2.5 C 3.62 g/m*3 -2.5 C 0 km/h
90 26-11-2010 17:50:01 -2.2 C 3.74 g/m*3 -2.2 C 0 km/h
91 26-11-2010 18:02:02 -1.5 C 3.93 g/m*3 -1.5 C 0 km/h
92 26-11-2010 18:14:02 -1.3 C 4.03 g/m*3 -1.3 C 0 km/h
93 26-11-2010 18:26:01 -1.3 C 4.03 g/m*3 -1.3 C 0 km/h
94 26-11-2010 18:38:01 -1.4 C 4 g/m*3 -1.4 C 0 km/h
95 26-11-2010 18:50:01 -1.4 C 4 g/m*3 -1.4 C 0 km/h
96 26-11-2010 19:02:02 -1.4 C 4 g/m*3 -1.4 C 0 km/h
97 26-11-2010 19:14:02 -1.4 C 4 g/m*3 -1.4 C 0 km/h
98 26-11-2010 19:26:01 -1.4 C 4 g/m*3 -1.4 C 0 km/h
99 26-11-2010 19:38:01 -1.6 C 3.94 g/m*3 -1.6 C 0 km/h
100 26-11-2010 19:50:02 -1.9 C 3.86 g/m*3 -1.9 C 0 km/h
Sensor: Nr:Datum:Temp:Abs-Feuchte:Windchill:Wind:
Aussen-T/F 101 26-11-2010 20:02:02 -1.8 C 3.89 g/m*3 -1.8 C 0 km/h
102 26-11-2010 20:14:02 -1.9 C 3.86 g/m*3 -1.9 C 0 km/h
103 26-11-2010 20:26:02 -1.7 C 3.92 g/m*3 -1.7 C 0 km/h
104 26-11-2010 20:38:02 -1.9 C 3.86 g/m*3 -1.9 C 0 km/h
105 26-11-2010 20:50:02 -2.5 C 3.7 g/m*3 -2.5 C 0 km/h
106 26-11-2010 21:02:01 -2.2 C 3.78 g/m*3 -2.2 C 0 km/h
107 26-11-2010 21:14:01 -2 C 3.84 g/m*3 -2 C 0 km/h
108 26-11-2010 21:26:02 -2.3 C 3.76 g/m*3 -2.3 C 0 km/h
109 26-11-2010 21:38:02 -2.6 C 3.68 g/m*3 -2.6 C 0 km/h
110 26-11-2010 21:50:02 -2.6 C 3.68 g/m*3 -2.6 C 0 km/h
111 26-11-2010 22:02:02 -3 C 3.57 g/m*3 -3 C 0 km/h
112 26-11-2010 22:14:02 -3.3 C 3.46 g/m*3 -3.3 C 0 km/h
113 26-11-2010 22:26:02 -3.1 C 3.55 g/m*3 -3.1 C 0 km/h
114 26-11-2010 22:38:02 -3.2 C 3.52 g/m*3 -3.2 C 0 km/h
115 26-11-2010 22:50:02 -3.6 C 3.39 g/m*3 -3.6 C 0 km/h
116 26-11-2010 23:03:02 -3.8 C 3.34 g/m*3 -3.8 C 0 km/h
117 26-11-2010 23:15:02 -3.8 C 3.34 g/m*3 -3.8 C 0 km/h
118 26-11-2010 23:27:02 -3.9 C 3.32 g/m*3 -3.9 C 0 km/h
119 26-11-2010 23:39:02 -3.7 C 3.36 g/m*3 -3.7 C 0 km/h
120 26-11-2010 23:51:02 -3.6 C 3.39 g/m*3 -3.6 C 0 km/h
121 27-11-2010 00:03:02 -4 C 3.29 g/m*3 -4 C 0 km/h
122 27-11-2010 00:15:02 -4.1 C 3.27 g/m*3 -4.1 C 0 km/h
123 27-11-2010 00:27:02 -4.2 C 3.25 g/m*3 -4.2 C 0 km/h
124 27-11-2010 00:39:02 -4.1 C 3.27 g/m*3 -4.1 C 0 km/h
125 27-11-2010 00:51:02 -4 C 3.29 g/m*3 -4 C 0 km/h
Sensor: Nr:Datum:Temp:Abs-Feuchte:Windchill:Wind:
Aussen-T/F 126 27-11-2010 01:03:02 -3.1 C 3.51 g/m*3 -3.1 C 0 km/h
127 27-11-2010 01:15:02 -2.7 C 3.61 g/m*3 -2.7 C 0 km/h
128 27-11-2010 01:27:02 -3.7 C 3.36 g/m*3 -3.7 C 0 km/h
129 27-11-2010 01:39:02 -4.3 C 3.19 g/m*3 -4.3 C 0 km/h
130 27-11-2010 01:51:03 -3.9 C 3.28 g/m*3 -3.9 C 0 km/h
131 27-11-2010 02:03:03 -3.9 C 3.28 g/m*3 -3.9 C 0 km/h
132 27-11-2010 02:15:03 -4.1 C 3.2 g/m*3 -4.1 C 0 km/h
133 27-11-2010 02:27:03 -4.5 C 3.11 g/m*3 -4.5 C 0 km/h
134 27-11-2010 02:39:03 -4 C 3.22 g/m*3 -4 C 0 km/h
135 27-11-2010 02:51:03 -3.2 C 3.45 g/m*3 -3.2 C 0 km/h
136 27-11-2010 03:03:03 -2.8 C 3.55 g/m*3 -2.8 C 0 km/h
137 27-11-2010 03:15:03 -2.7 C 3.61 g/m*3 -2.7 C 0 km/h
138 27-11-2010 03:27:03 -2.9 C 3.52 g/m*3 -2.9 C 0 km/h
139 27-11-2010 03:39:03 -3.5 C 3.37 g/m*3 -3.5 C 0 km/h
140 27-11-2010 03:51:03 -3.9 C 3.24 g/m*3 -3.9 C 0 km/h
141 27-11-2010 04:03:03 -4.1 C 3.2 g/m*3 -4.1 C 0 km/h
142 27-11-2010 04:15:03 -4 C 3.22 g/m*3 -4 C 0 km/h
143 27-11-2010 04:27:03 -4.1 C 3.2 g/m*3 -4.1 C 0 km/h
144 27-11-2010 04:39:03 -4 C 3.22 g/m*3 -4 C 0 km/h
145 27-11-2010 04:51:03 -4.4 C 3.13 g/m*3 -4.4 C 0 km/h
146 27-11-2010 05:03:03 -4.5 C 3.11 g/m*3 -4.5 C 0 km/h
147 27-11-2010 05:15:03 -4.7 C 3.03 g/m*3 -4.7 C 0 km/h
148 27-11-2010 05:27:03 -4.4 C 3.13 g/m*3 -4.4 C 0 km/h
149 27-11-2010 05:39:03 -4 C 3.22 g/m*3 -4 C 0 km/h
150 27-11-2010 05:51:03 -3.8 C 3.27 g/m*3 -3.8 C 0 km/h
Sensor: Nr:Datum:Temp:Abs-Feuchte:Windchill:Wind:
Aussen-T/F 151 27-11-2010 06:03:04 -3.7 C 3.29 g/m*3 -3.7 C 0 km/h
152 27-11-2010 06:15:04 -3.4 C 3.4 g/m*3 -3.4 C 0 km/h
153 27-11-2010 06:27:04 -3.4 C 3.4 g/m*3 -3.4 C 0 km/h
154 27-11-2010 06:39:04 -3.5 C 3.34 g/m*3 -3.5 C 0 km/h
155 27-11-2010 06:51:04 -3.6 C 3.31 g/m*3 -3.6 C 0 km/h
156 27-11-2010 07:03:04 -3.8 C 3.27 g/m*3 -3.8 C 0 km/h
157 27-11-2010 07:15:04 -3.4 C 3.36 g/m*3 -3.4 C 0 km/h
158 27-11-2010 07:27:04 -3.5 C 3.34 g/m*3 -3.5 C 0 km/h
159 27-11-2010 07:39:04 -3.6 C 3.31 g/m*3 -3.6 C 0 km/h
160 27-11-2010 07:51:04 -3.4 C 3.36 g/m*3 -3.4 C 0 km/h
161 27-11-2010 08:03:04 -3.5 C 3.34 g/m*3 -3.5 C 0 km/h
162 27-11-2010 08:15:04 -3.4 C 3.36 g/m*3 -3.4 C 0 km/h
163 27-11-2010 08:27:04 -2.9 C 3.52 g/m*3 -2.9 C 0 km/h
164 27-11-2010 08:39:04 -2.6 C 3.6 g/m*3 -2.6 C 0 km/h
165 27-11-2010 08:51:04 -2.6 C 3.6 g/m*3 -2.6 C 0 km/h
166 27-11-2010 09:03:04 -2.3 C 3.67 g/m*3 -2.3 C 0 km/h
167 27-11-2010 09:15:04 -2 C 3.75 g/m*3 -2 C 0 km/h
168 27-11-2010 09:27:04 -1.9 C 3.78 g/m*3 -1.9 C 0 km/h
169 27-11-2010 09:39:04 -1.7 C 3.83 g/m*3 -1.7 C 0 km/h
170 27-11-2010 09:51:04 -1.1 C 4 g/m*3 -1.1 C 0 km/h
171 27-11-2010 10:03:02 -0.8 C 4.13 g/m*3 -0.8 C 0 km/h
172 27-11-2010 10:15:02 -0.8 C 4.08 g/m*3 -0.8 C 0 km/h
173 27-11-2010 10:27:02 -1 C 4.02 g/m*3 -1 C 0 km/h
174 27-11-2010 10:39:01 -1 C 3.98 g/m*3 -1 C 0 km/h
175 27-11-2010 10:51:02 -0.6 C 4.09 g/m*3 -0.6 C 0 km/h
Sensor: Nr:Datum:Temp:Abs-Feuchte:Windchill:Wind:
Aussen-T/F 176 27-11-2010 11:03:01 -0.4 C 4.15 g/m*3 -0.4 C 0 km/h
177 27-11-2010 11:15:02 -0.4 C 4.15 g/m*3 -0.4 C 0 km/h
178 27-11-2010 11:27:02 -0.3 C 4.18 g/m*3 -0.3 C 0 km/h
179 27-11-2010 11:39:01 0 C 4.26 g/m*3 0 C 0 km/h
180 27-11-2010 11:51:02 0.1 C 4.2 g/m*3 0.1 C 0 km/h
181 27-11-2010 12:03:02 0.2 C 4.13 g/m*3 0.2 C 0 km/h
182 27-11-2010 12:15:02 0.3 C 4.06 g/m*3 0.3 C 0 km/h
183 27-11-2010 12:27:02 0.4 C 4.03 g/m*3 0.4 C 0 km/h
184 27-11-2010 12:39:03 0.6 C 3.99 g/m*3 0.6 C 0 km/h
185 27-11-2010 12:51:02 0.4 C 3.79 g/m*3 0.4 C 0 km/h
186 27-11-2010 13:03:02 0.7 C 3.86 g/m*3 0.7 C 0 km/h
187 27-11-2010 13:15:02 0.7 C 3.86 g/m*3 0.7 C 0 km/h
188 27-11-2010 13:27:02 0.7 C 3.92 g/m*3 0.7 C 0 km/h
189 27-11-2010 13:39:02 1 C 4 g/m*3 1 C 0 km/h
190 27-11-2010 13:51:02 1.2 C 3.89 g/m*3 1.2 C 0 km/h
191 27-11-2010 14:03:02 1.4 C 3.95 g/m*3 1.4 C 0 km/h
192 27-11-2010 14:15:02 1.5 C 3.87 g/m*3 1.5 C 0 km/h
193 27-11-2010 14:27:02 1.5 C 3.71 g/m*3 1.5 C 0 km/h
194 27-11-2010 14:39:02 1.7 C 3.7 g/m*3 1.7 C 0 km/h
195 27-11-2010 14:51:01 1.3 C 3.71 g/m*3 1.3 C 0 km/h
196 27-11-2010 15:03:02 1 C 3.74 g/m*3 1 C 0 km/h
197 27-11-2010 15:15:01 1 C 3.84 g/m*3 1 C 0 km/h
198 27-11-2010 15:27:01 0.8 C 3.79 g/m*3 0.8 C 0 km/h
199 27-11-2010 15:39:01 0.7 C 3.81 g/m*3 0.7 C 0 km/h
200 27-11-2010 15:51:01 0.3 C 3.81 g/m*3 0.3 C 0 km/h
Sensor: Nr:Datum:Temp:Abs-Feuchte:Windchill:Wind:
Aussen-T/F 201 27-11-2010 16:03:01 -0.3 C 3.56 g/m*3 -0.3 C 0 km/h
202 27-11-2010 16:15:02 -0.5 C 3.6 g/m*3 -0.5 C 0 km/h
203 27-11-2010 16:27:02 -0.7 C 3.6 g/m*3 -0.7 C 0 km/h
204 27-11-2010 16:39:01 -1 C 3.57 g/m*3 -1 C 0 km/h
205 27-11-2010 16:51:02 -1.1 C 3.59 g/m*3 -1.1 C 0 km/h
206 27-11-2010 17:03:01 -1 C 3.66 g/m*3 -1 C 0 km/h
207 27-11-2010 17:15:02 -0.7 C 3.69 g/m*3 -0.7 C 0 km/h
208 27-11-2010 17:27:02 -0.7 C 3.65 g/m*3 -0.7 C 0 km/h
209 27-11-2010 17:39:01 -0.8 C 3.67 g/m*3 -0.8 C 0 km/h
210 27-11-2010 17:51:02 -1.1 C 3.59 g/m*3 -1.1 C 0 km/h
211 27-11-2010 18:03:02 -1.6 C 3.51 g/m*3 -1.6 C 0 km/h
212 27-11-2010 18:15:02 -1.8 C 3.51 g/m*3 -1.8 C 0 km/h
213 27-11-2010 18:27:02 -1.8 C 3.55 g/m*3 -1.8 C 0 km/h
214 27-11-2010 18:39:02 -1.7 C 3.62 g/m*3 -1.7 C 0 km/h
215 27-11-2010 18:51:02 -1 C 3.8 g/m*3 -1 C 0 km/h
216 27-11-2010 19:03:01 -0.9 C 3.78 g/m*3 -0.9 C 0 km/h
217 27-11-2010 19:15:02 -1 C 3.71 g/m*3 -1 C 0 km/h
218 27-11-2010 19:27:02 -1.1 C 3.73 g/m*3 -1.1 C 0 km/h
219 27-11-2010 19:39:02 -0.9 C 3.78 g/m*3 -0.9 C 0 km/h
220 27-11-2010 19:51:02 -0.7 C 3.78 g/m*3 -0.7 C 0 km/h
221 27-11-2010 20:03:03 -0.7 C 3.78 g/m*3 -0.7 C 0 km/h
222 27-11-2010 20:15:02 -0.7 C 3.74 g/m*3 -0.7 C 0 km/h
223 27-11-2010 20:27:02 -1.2 C 3.52 g/m*3 -1.2 C 0 km/h
224 27-11-2010 20:39:02 -2.2 C 3.33 g/m*3 -2.2 C 0 km/h
225 27-11-2010 20:51:01 -2.7 C 3.25 g/m*3 -2.7 C 0 km/h
Sensor: Nr:Datum:Temp:Abs-Feuchte:Windchill:Wind:
Aussen-T/F 226 27-11-2010 21:03:02 -3 C 3.22 g/m*3 -3 C 0 km/h
227 27-11-2010 21:15:01 -3 C 3.3 g/m*3 -3 C 0 km/h
228 27-11-2010 21:27:01 -3 C 3.3 g/m*3 -3 C 0 km/h
229 27-11-2010 21:39:01 -3.2 C 3.25 g/m*3 -3.2 C 0 km/h
230 27-11-2010 21:51:01 -3.3 C 3.27 g/m*3 -3.3 C 0 km/h
231 27-11-2010 22:03:02 -3.8 C 3.15 g/m*3 -3.8 C 0 km/h
232 27-11-2010 22:15:01 -3.8 C 3.19 g/m*3 -3.8 C 0 km/h
233 27-11-2010 22:27:01 -3.2 C 3.37 g/m*3 -3.2 C 0 km/h
234 27-11-2010 22:40:03 -3.3 C 3.31 g/m*3 -3.3 C 0 km/h
235 27-11-2010 22:52:03 -2.7 C 3.49 g/m*3 -2.7 C 0 km/h
236 27-11-2010 23:04:03 -2.8 C 3.43 g/m*3 -2.8 C 0 km/h
237 27-11-2010 23:16:03 -2.8 C 3.43 g/m*3 -2.8 C 0 km/h
238 27-11-2010 23:28:03 -3 C 3.38 g/m*3 -3 C 0 km/h
239 27-11-2010 23:40:03 -3.6 C 3.2 g/m*3 -3.6 C 0 km/h
240 27-11-2010 23:52:03 -3.9 C 3.13 g/m*3 -3.9 C 0 km/h
241 28-11-2010 00:04:03 -3.9 C 3.17 g/m*3 -3.9 C 0 km/h
242 28-11-2010 00:16:03 -3.8 C 3.19 g/m*3 -3.8 C 0 km/h
243 28-11-2010 00:28:03 -3.7 C 3.21 g/m*3 -3.7 C 0 km/h
244 28-11-2010 00:40:03 -3.8 C 3.19 g/m*3 -3.8 C 0 km/h
245 28-11-2010 00:52:03 -3.6 C 3.24 g/m*3 -3.6 C 0 km/h
246 28-11-2010 01:04:03 -3.4 C 3.32 g/m*3 -3.4 C 0 km/h
247 28-11-2010 01:16:03 -3 C 3.42 g/m*3 -3 C 0 km/h
248 28-11-2010 01:28:03 -2.7 C 3.53 g/m*3 -2.7 C 0 km/h
249 28-11-2010 01:40:03 -2.4 C 3.61 g/m*3 -2.4 C 0 km/h
250 28-11-2010 01:52:03 -2.3 C 3.63 g/m*3 -2.3 C 0 km/h
Sensor: Nr:Datum:Temp:Abs-Feuchte:Windchill:Wind:
Aussen-T/F 251 28-11-2010 02:04:03 -2.1 C 3.64 g/m*3 -2.1 C 0 km/h
252 28-11-2010 02:16:03 -2.2 C 3.62 g/m*3 -2.2 C 0 km/h
253 28-11-2010 02:28:04 -2.1 C 3.64 g/m*3 -2.1 C 0 km/h
254 28-11-2010 02:40:04 -2.1 C 3.6 g/m*3 -2.1 C 0 km/h
255 28-11-2010 02:52:04 -2.4 C 3.52 g/m*3 -2.4 C 0 km/h
256 28-11-2010 03:04:04 -2.6 C 3.43 g/m*3 -2.6 C 0 km/h
257 28-11-2010 03:16:04 -3.3 C 3.23 g/m*3 -3.3 C 0 km/h
258 28-11-2010 03:28:04 -3.8 C 3.12 g/m*3 -3.8 C 0 km/h
259 28-11-2010 03:40:04 -3.6 C 3.16 g/m*3 -3.6 C 0 km/h
260 28-11-2010 03:52:04 -3.7 C 3.18 g/m*3 -3.7 C 0 km/h
261 28-11-2010 04:04:04 -3.2 C 3.33 g/m*3 -3.2 C 0 km/h
262 28-11-2010 04:16:04 -2.8 C 3.43 g/m*3 -2.8 C 0 km/h
263 28-11-2010 04:28:04 -2.5 C 3.5 g/m*3 -2.5 C 0 km/h
264 28-11-2010 04:40:04 -2.4 C 3.52 g/m*3 -2.4 C 0 km/h
265 28-11-2010 04:52:04 -2.3 C 3.55 g/m*3 -2.3 C 0 km/h
266 28-11-2010 05:04:04 -2.3 C 3.55 g/m*3 -2.3 C 0 km/h
267 28-11-2010 05:16:04 -2.6 C 3.48 g/m*3 -2.6 C 0 km/h
268 28-11-2010 05:28:04 -3 C 3.34 g/m*3 -3 C 0 km/h
269 28-11-2010 05:40:04 -3 C 3.34 g/m*3 -3 C 0 km/h
270 28-11-2010 05:52:04 -2.7 C 3.41 g/m*3 -2.7 C 0 km/h
271 28-11-2010 06:04:04 -2.5 C 3.5 g/m*3 -2.5 C 0 km/h
272 28-11-2010 06:16:04 -2.3 C 3.55 g/m*3 -2.3 C 0 km/h
273 28-11-2010 06:28:04 -2.1 C 3.6 g/m*3 -2.1 C 0 km/h
274 28-11-2010 06:40:04 -2 C 3.58 g/m*3 -2 C 0 km/h
275 28-11-2010 06:52:05 -2 C 3.58 g/m*3 -2 C 0 km/h
Sensor: Nr:Datum:Temp:Abs-Feuchte:Windchill:Wind:
Aussen-T/F 276 28-11-2010 07:04:05 -2 C 3.58 g/m*3 -2 C 0 km/h
277 28-11-2010 07:16:05 -1.9 C 3.57 g/m*3 -1.9 C 0 km/h
278 28-11-2010 07:28:05 -1.9 C 3.57 g/m*3 -1.9 C 0 km/h
279 28-11-2010 07:40:05 -1.8 C 3.59 g/m*3 -1.8 C 0 km/h
280 28-11-2010 07:52:05 -1.8 C 3.59 g/m*3 -1.8 C 0 km/h
281 28-11-2010 08:04:05 -1.8 C 3.55 g/m*3 -1.8 C 0 km/h
282 28-11-2010 08:16:05 -1.7 C 3.62 g/m*3 -1.7 C 0 km/h
283 28-11-2010 08:28:05 -1.6 C 3.64 g/m*3 -1.6 C 0 km/h
284 28-11-2010 08:40:05 -1.6 C 3.6 g/m*3 -1.6 C 0 km/h
285 28-11-2010 08:52:05 -1.6 C 3.6 g/m*3 -1.6 C 0 km/h
286 28-11-2010 09:04:05 -1.4 C 3.6 g/m*3 -1.4 C 0 km/h
287 28-11-2010 09:16:05 -1.3 C 3.63 g/m*3 -1.3 C 0 km/h
288 28-11-2010 09:28:05 -1.2 C 3.61 g/m*3 -1.2 C 0 km/h
289 28-11-2010 09:40:03 -1.1 C 3.59 g/m*3 -1.1 C 0 km/h
290 28-11-2010 09:52:01 -0.9 C 3.64 g/m*3 -0.9 C 0 km/h
291 28-11-2010 10:04:02 -0.4 C 3.72 g/m*3 -0.4 C 0 km/h
292 28-11-2010 10:16:02 -0.5 C 3.6 g/m*3 -0.5 C 0 km/h
293 28-11-2010 10:28:02 -0.4 C 3.63 g/m*3 -0.4 C 0 km/h
294 28-11-2010 10:40:02 -0.4 C 3.58 g/m*3 -0.4 C 0 km/h
295 28-11-2010 10:52:02 -0.2 C 3.63 g/m*3 -0.2 C 0 km/h
296 28-11-2010 11:04:01 -0.1 C 3.61 g/m*3 -0.1 C 0 km/h
297 28-11-2010 11:16:02 -0.2 C 3.54 g/m*3 -0.2 C 0 km/h
298 28-11-2010 11:28:02 -0.3 C 3.51 g/m*3 -0.3 C 0 km/h
299 28-11-2010 11:40:01 -0.1 C 3.56 g/m*3 -0.1 C 0 km/h
300 28-11-2010 11:52:02 -0.2 C 3.54 g/m*3 -0.2 C 0 km/h
Sensor: Nr:Datum:Temp:Abs-Feuchte:Windchill:Wind:
Aussen-T/F 301 28-11-2010 12:04:01 0 C 3.59 g/m*3 0 C 0 km/h
302 28-11-2010 12:16:01 0.1 C 3.61 g/m*3 0.1 C 0 km/h
303 28-11-2010 12:28:01 0 C 3.59 g/m*3 0 C 0 km/h
304 28-11-2010 12:40:02 0 C 3.59 g/m*3 0 C 0 km/h
305 28-11-2010 12:52:02 0 C 3.59 g/m*3 0 C 0 km/h
306 28-11-2010 13:04:02 0 C 3.59 g/m*3 0 C 0 km/h
307 28-11-2010 13:16:02 0.1 C 3.61 g/m*3 0.1 C 0 km/h
308 28-11-2010 13:28:02 0.1 C 3.66 g/m*3 0.1 C 0 km/h
309 28-11-2010 13:40:02 0.2 C 3.64 g/m*3 0.2 C 0 km/h
310 28-11-2010 13:52:02 0.3 C 3.66 g/m*3 0.3 C 0 km/h
311 28-11-2010 14:04:02 0.2 C 3.64 g/m*3 0.2 C 0 km/h
312 28-11-2010 14:16:02 0.3 C 3.66 g/m*3 0.3 C 0 km/h
313 28-11-2010 14:28:02 0.5 C 3.71 g/m*3 0.5 C 0 km/h
314 28-11-2010 14:40:02 0.7 C 3.71 g/m*3 0.7 C 0 km/h
315 28-11-2010 14:52:01 0.8 C 3.74 g/m*3 0.8 C 0 km/h
316 28-11-2010 15:04:02 0.7 C 3.71 g/m*3 0.7 C 0 km/h
317 28-11-2010 15:16:01 0.7 C 3.71 g/m*3 0.7 C 0 km/h
318 28-11-2010 15:28:01 0.6 C 3.74 g/m*3 0.6 C 0 km/h
319 28-11-2010 15:40:01 0.5 C 3.71 g/m*3 0.5 C 0 km/h
320 28-11-2010 15:52:01 0.2 C 3.68 g/m*3 0.2 C 0 km/h
321 28-11-2010 16:04:01 0 C 3.68 g/m*3 0 C 0 km/h
322 28-11-2010 16:16:02 -0.3 C 3.65 g/m*3 -0.3 C 0 km/h
323 28-11-2010 16:28:02 -0.6 C 3.63 g/m*3 -0.6 C 0 km/h
324 28-11-2010 16:40:01 -0.5 C 3.7 g/m*3 -0.5 C 0 km/h
325 28-11-2010 16:52:03 -0.3 C 3.75 g/m*3 -0.3 C 0 km/h
Sensor: Nr:Datum:Temp:Abs-Feuchte:Windchill:Wind:
Aussen-T/F 326 28-11-2010 17:04:02 -0.3 C 3.75 g/m*3 -0.3 C 0 km/h
327 28-11-2010 17:16:02 -0.3 C 3.75 g/m*3 -0.3 C 0 km/h
328 28-11-2010 17:28:02 -0.6 C 3.67 g/m*3 -0.6 C 0 km/h
329 28-11-2010 17:40:02 -0.9 C 3.6 g/m*3 -0.9 C 0 km/h
330 28-11-2010 17:52:02 -1.1 C 3.59 g/m*3 -1.1 C 0 km/h
331 28-11-2010 18:04:02 -1.8 C 3.42 g/m*3 -1.8 C 0 km/h
332 28-11-2010 18:16:02 -1.4 C 3.65 g/m*3 -1.4 C 0 km/h
333 28-11-2010 18:28:02 -1 C 3.8 g/m*3 -1 C 0 km/h
334 28-11-2010 18:40:02 -0.7 C 3.88 g/m*3 -0.7 C 0 km/h
335 28-11-2010 18:52:02 -0.6 C 3.81 g/m*3 -0.6 C 0 km/h
336 28-11-2010 19:04:02 -0.6 C 3.76 g/m*3 -0.6 C 0 km/h
337 28-11-2010 19:16:01 -0.6 C 3.76 g/m*3 -0.6 C 0 km/h
338 28-11-2010 19:28:01 -0.8 C 3.67 g/m*3 -0.8 C 0 km/h
339 28-11-2010 19:40:02 -0.8 C 3.67 g/m*3 -0.8 C 0 km/h
340 28-11-2010 19:52:02 -0.7 C 3.65 g/m*3 -0.7 C 0 km/h
341 28-11-2010 20:04:02 -1.1 C 3.55 g/m*3 -1.1 C 0 km/h
342 28-11-2010 20:16:02 -0.9 C 3.6 g/m*3 -0.9 C 0 km/h
343 28-11-2010 20:28:02 -0.7 C 3.6 g/m*3 -0.7 C 0 km/h
344 28-11-2010 20:40:02 -0.6 C 3.53 g/m*3 -0.6 C 0 km/h
345 28-11-2010 20:52:02 -0.7 C 3.46 g/m*3 -0.7 C 0 km/h
346 28-11-2010 21:04:02 -0.7 C 3.46 g/m*3 -0.7 C 0 km/h
347 28-11-2010 21:16:02 -0.9 C 3.46 g/m*3 -0.9 C 0 km/h
348 28-11-2010 21:28:02 -0.9 C 3.46 g/m*3 -0.9 C 0 km/h
349 28-11-2010 21:40:02 -0.9 C 3.46 g/m*3 -0.9 C 0 km/h
350 28-11-2010 21:52:02 -0.9 C 3.46 g/m*3 -0.9 C 0 km/h
Sensor: Nr:Datum:Temp:Abs-Feuchte:Windchill:Wind:
Aussen-T/F 351 28-11-2010 22:04:02 -1 C 3.44 g/m*3 -1 C 0 km/h
352 28-11-2010 22:16:02 -1 C 3.44 g/m*3 -1 C 0 km/h
353 28-11-2010 22:28:02 -1.4 C 3.39 g/m*3 -1.4 C 0 km/h
354 28-11-2010 22:40:03 -2.2 C 3.24 g/m*3 -2.2 C 0 km/h
355 28-11-2010 22:52:02 -2.4 C 3.28 g/m*3 -2.4 C 0 km/h
356 28-11-2010 23:04:01 -2.7 C 3.25 g/m*3 -2.7 C 0 km/h
357 28-11-2010 23:16:02 -2.6 C 3.35 g/m*3 -2.6 C 0 km/h
358 28-11-2010 23:28:02 -2 C 3.54 g/m*3 -2 C 0 km/h
359 28-11-2010 23:40:02 -1.5 C 3.54 g/m*3 -1.5 C 0 km/h
360 28-11-2010 23:52:02 -1.4 C 3.43 g/m*3 -1.4 C 0 km/h
361 29-11-2010 00:04:02 -1.4 C 3.34 g/m*3 -1.4 C 0 km/h
362 29-11-2010 00:16:02 -1.4 C 3.34 g/m*3 -1.4 C 0 km/h
363 29-11-2010 00:28:02 -1.4 C 3.43 g/m*3 -1.4 C 0 km/h
364 29-11-2010 00:40:02 -1.5 C 3.41 g/m*3 -1.5 C 0 km/h
365 29-11-2010 00:52:01 -1.7 C 3.31 g/m*3 -1.7 C 0 km/h
366 29-11-2010 01:04:02 -1.8 C 3.29 g/m*3 -1.8 C 0 km/h
367 29-11-2010 01:16:01 -1.9 C 3.27 g/m*3 -1.9 C 0 km/h
368 29-11-2010 01:28:01 -1.8 C 3.33 g/m*3 -1.8 C 0 km/h
369 29-11-2010 01:40:02 -1.7 C 3.36 g/m*3 -1.7 C 0 km/h
370 29-11-2010 01:52:01 -1.8 C 3.29 g/m*3 -1.8 C 0 km/h
371 29-11-2010 02:04:02 -1.8 C 3.29 g/m*3 -1.8 C 0 km/h
372 29-11-2010 02:16:02 -1.9 C 3.27 g/m*3 -1.9 C 0 km/h
373 29-11-2010 02:28:02 -1.9 C 3.27 g/m*3 -1.9 C 0 km/h
374 29-11-2010 02:40:02 -1.9 C 3.27 g/m*3 -1.9 C 0 km/h
375 29-11-2010 02:52:01 -1.9 C 3.23 g/m*3 -1.9 C 0 km/h
Sensor: Nr:Datum:Temp:Abs-Feuchte:Windchill:Wind:
Aussen-T/F 376 29-11-2010 03:04:01 -2 C 3.2 g/m*3 -2 C 0 km/h
377 29-11-2010 03:16:01 -1.9 C 3.23 g/m*3 -1.9 C 0 km/h
378 29-11-2010 03:28:01 -2 C 3.2 g/m*3 -2 C 0 km/h
379 29-11-2010 03:40:01 -2 C 3.2 g/m*3 -2 C 0 km/h
380 29-11-2010 03:52:01 -2.1 C 3.22 g/m*3 -2.1 C 0 km/h
381 29-11-2010 04:04:01 -2.1 C 3.18 g/m*3 -2.1 C 0 km/h
382 29-11-2010 04:16:02 -2 C 3.25 g/m*3 -2 C 0 km/h
383 29-11-2010 04:28:02 -2 C 3.2 g/m*3 -2 C 0 km/h
384 29-11-2010 04:40:01 -2 C 3.2 g/m*3 -2 C 0 km/h
385 29-11-2010 04:52:01 -1.9 C 3.27 g/m*3 -1.9 C 0 km/h
386 29-11-2010 05:04:01 -1.9 C 3.27 g/m*3 -1.9 C 0 km/h
387 29-11-2010 05:16:02 -1.8 C 3.29 g/m*3 -1.8 C 0 km/h
388 29-11-2010 05:28:02 -1.8 C 3.29 g/m*3 -1.8 C 0 km/h
389 29-11-2010 05:40:01 -1.8 C 3.25 g/m*3 -1.8 C 0 km/h
390 29-11-2010 05:52:02 -1.8 C 3.25 g/m*3 -1.8 C 0 km/h
391 29-11-2010 06:04:01 -1.7 C 3.27 g/m*3 -1.7 C 0 km/h
392 29-11-2010 06:16:01 -1.7 C 3.31 g/m*3 -1.7 C 0 km/h
393 29-11-2010 06:28:01 -1.7 C 3.31 g/m*3 -1.7 C 0 km/h
394 29-11-2010 06:40:01 -1.7 C 3.31 g/m*3 -1.7 C 0 km/h
395 29-11-2010 06:52:01 -1.6 C 3.34 g/m*3 -1.6 C 0 km/h
396 29-11-2010 07:04:01 -1.6 C 3.34 g/m*3 -1.6 C 0 km/h
397 29-11-2010 07:16:01 -1.7 C 3.27 g/m*3 -1.7 C 0 km/h
398 29-11-2010 07:28:01 -1.7 C 3.27 g/m*3 -1.7 C 0 km/h
399 29-11-2010 07:40:02 -1.7 C 3.27 g/m*3 -1.7 C 0 km/h
400 29-11-2010 07:52:01 -1.6 C 3.29 g/m*3 -1.6 C 0 km/h
Sensor: Nr:Datum:Temp:Abs-Feuchte:Windchill:Wind:
Aussen-T/F 401 29-11-2010 08:04:02 -1.7 C 3.27 g/m*3 -1.7 C 0 km/h
402 29-11-2010 08:16:01 -1.6 C 3.34 g/m*3 -1.6 C 0 km/h
403 29-11-2010 08:28:01 -1.7 C 3.31 g/m*3 -1.7 C 0 km/h
404 29-11-2010 08:40:01 -1.6 C 3.34 g/m*3 -1.6 C 0 km/h
405 29-11-2010 08:52:01 -1.4 C 3.39 g/m*3 -1.4 C 0 km/h
406 29-11-2010 09:04:01 -1.4 C 3.34 g/m*3 -1.4 C 0 km/h
407 29-11-2010 09:16:01 -1.4 C 3.3 g/m*3 -1.4 C 0 km/h
408 29-11-2010 09:28:01 -1.4 C 3.3 g/m*3 -1.4 C 0 km/h
409 29-11-2010 09:40:01 -1.4 C 3.25 g/m*3 -1.4 C 0 km/h
410 29-11-2010 09:52:01 -1.3 C 3.32 g/m*3 -1.3 C 0 km/h
411 29-11-2010 10:04:01 -1.2 C 3.39 g/m*3 -1.2 C 0 km/h
412 29-11-2010 10:16:02 -1.3 C 3.36 g/m*3 -1.3 C 0 km/h
413 29-11-2010 10:28:02 -1.3 C 3.36 g/m*3 -1.3 C 0 km/h
414 29-11-2010 10:40:01 -1.4 C 3.34 g/m*3 -1.4 C 0 km/h
415 29-11-2010 10:52:02 -1.3 C 3.41 g/m*3 -1.3 C 0 km/h
416 29-11-2010 11:04:01 -1.2 C 3.43 g/m*3 -1.2 C 0 km/h
417 29-11-2010 11:16:02 -1.2 C 3.43 g/m*3 -1.2 C 0 km/h
418 29-11-2010 11:28:02 -1.2 C 3.43 g/m*3 -1.2 C 0 km/h
419 29-11-2010 11:40:01 -1.2 C 3.48 g/m*3 -1.2 C 0 km/h
420 29-11-2010 11:52:02 -1.3 C 3.45 g/m*3 -1.3 C 0 km/h
421 29-11-2010 12:04:01 -1.3 C 3.45 g/m*3 -1.3 C 0 km/h
422 29-11-2010 12:16:02 -1.3 C 3.5 g/m*3 -1.3 C 0 km/h
423 29-11-2010 12:28:02 -1.2 C 3.52 g/m*3 -1.2 C 0 km/h
424 29-11-2010 12:40:01 -1.1 C 3.55 g/m*3 -1.1 C 0 km/h
425 29-11-2010 12:52:02 -0.8 C 3.58 g/m*3 -0.8 C 0 km/h
Sensor: Nr:Datum:Temp:Abs-Feuchte:Windchill:Wind:
Aussen-T/F 426 29-11-2010 13:04:01 -0.7 C 3.55 g/m*3 -0.7 C 0 km/h
427 29-11-2010 13:16:01 -0.6 C 3.58 g/m*3 -0.6 C 0 km/h
428 29-11-2010 13:28:01 -0.8 C 3.58 g/m*3 -0.8 C 0 km/h
429 29-11-2010 13:40:02 -1.1 C 3.55 g/m*3 -1.1 C 0 km/h
430 29-11-2010 13:52:01 -1 C 3.62 g/m*3 -1 C 0 km/h
431 29-11-2010 14:04:02 -1 C 3.62 g/m*3 -1 C 0 km/h
432 29-11-2010 14:16:01 -1 C 3.66 g/m*3 -1 C 0 km/h
433 29-11-2010 14:28:01 -1 C 3.66 g/m*3 -1 C 0 km/h
434 29-11-2010 14:40:02 -1 C 3.71 g/m*3 -1 C 0 km/h
435 29-11-2010 14:52:01 -1.1 C 3.73 g/m*3 -1.1 C 0 km/h
436 29-11-2010 15:04:02 -1.1 C 3.73 g/m*3 -1.1 C 0 km/h
437 29-11-2010 15:16:01 -1.2 C 3.74 g/m*3 -1.2 C 0 km/h
438 29-11-2010 15:28:01 -1.4 C 3.69 g/m*3 -1.4 C 0 km/h
439 29-11-2010 15:40:01 -1.4 C 3.69 g/m*3 -1.4 C 0 km/h
440 29-11-2010 15:52:01 -1.4 C 3.74 g/m*3 -1.4 C 0 km/h
441 29-11-2010 16:04:01 -1.4 C 3.74 g/m*3 -1.4 C 0 km/h
442 29-11-2010 16:16:02 -1.4 C 3.74 g/m*3 -1.4 C 0 km/h
443 29-11-2010 16:28:02 -1.5 C 3.71 g/m*3 -1.5 C 0 km/h
444 29-11-2010 16:40:01 -1.5 C 3.71 g/m*3 -1.5 C 0 km/h
445 29-11-2010 16:52:01 -1.5 C 3.75 g/m*3 -1.5 C 0 km/h
446 29-11-2010 17:04:01 -1.7 C 3.7 g/m*3 -1.7 C 0 km/h
447 29-11-2010 17:16:02 -1.7 C 3.7 g/m*3 -1.7 C 0 km/h
448 29-11-2010 17:28:02 -1.7 C 3.7 g/m*3 -1.7 C 0 km/h
449 29-11-2010 17:40:01 -1.7 C 3.7 g/m*3 -1.7 C 0 km/h
450 29-11-2010 17:52:02 -1.6 C 3.73 g/m*3 -1.6 C 0 km/h
Sensor: Nr:Datum:Temp:Abs-Feuchte:Windchill:Wind:
Aussen-T/F 451 29-11-2010 18:04:01 -1.6 C 3.77 g/m*3 -1.6 C 0 km/h
452 29-11-2010 18:16:01 -1.7 C 3.75 g/m*3 -1.7 C 0 km/h
453 29-11-2010 18:28:01 -1.7 C 3.75 g/m*3 -1.7 C 0 km/h
454 29-11-2010 18:40:01 -1.7 C 3.75 g/m*3 -1.7 C 0 km/h
455 29-11-2010 18:52:01 -1.7 C 3.75 g/m*3 -1.7 C 0 km/h
456 29-11-2010 19:04:01 -1.7 C 3.75 g/m*3 -1.7 C 0 km/h
457 29-11-2010 19:16:01 -1.7 C 3.75 g/m*3 -1.7 C 0 km/h
458 29-11-2010 19:28:01 -1.7 C 3.75 g/m*3 -1.7 C 0 km/h
459 29-11-2010 19:40:02 -1.7 C 3.75 g/m*3 -1.7 C 0 km/h
460 29-11-2010 19:52:01 -1.7 C 3.75 g/m*3 -1.7 C 0 km/h
461 29-11-2010 20:04:02 -1.7 C 3.75 g/m*3 -1.7 C 0 km/h
462 29-11-2010 20:16:01 -1.7 C 3.79 g/m*3 -1.7 C 0 km/h
463 29-11-2010 20:28:01 -1.6 C 3.81 g/m*3 -1.6 C 0 km/h
464 29-11-2010 20:40:01 -1.6 C 3.81 g/m*3 -1.6 C 0 km/h
465 29-11-2010 20:52:01 -1.6 C 3.81 g/m*3 -1.6 C 0 km/h
466 29-11-2010 21:04:01 -1.6 C 3.81 g/m*3 -1.6 C 0 km/h
467 29-11-2010 21:16:01 -1.6 C 3.81 g/m*3 -1.6 C 0 km/h
468 29-11-2010 21:28:01 -1.7 C 3.79 g/m*3 -1.7 C 0 km/h
469 29-11-2010 21:40:01 -1.7 C 3.79 g/m*3 -1.7 C 0 km/h
470 29-11-2010 21:52:01 -1.7 C 3.79 g/m*3 -1.7 C 0 km/h
471 29-11-2010 22:04:01 -1.7 C 3.79 g/m*3 -1.7 C 0 km/h
472 29-11-2010 22:16:01 -1.7 C 3.79 g/m*3 -1.7 C 0 km/h
473 29-11-2010 22:28:01 -1.9 C 3.74 g/m*3 -1.9 C 0 km/h
474 29-11-2010 22:40:02 -1.8 C 3.76 g/m*3 -1.8 C 0 km/h
475 29-11-2010 22:52:01 -1.8 C 3.76 g/m*3 -1.8 C 0 km/h
Sensor: Nr:Datum:Temp:Abs-Feuchte:Windchill:Wind:
Aussen-T/F 476 29-11-2010 23:04:02 -1.8 C 3.76 g/m*3 -1.8 C 0 km/h
477 29-11-2010 23:16:01 -1.7 C 3.83 g/m*3 -1.7 C 0 km/h
478 29-11-2010 23:28:01 -1.7 C 3.83 g/m*3 -1.7 C 0 km/h
479 29-11-2010 23:40:02 -1.6 C 3.86 g/m*3 -1.6 C 0 km/h
480 29-11-2010 23:52:01 -1.6 C 3.86 g/m*3 -1.6 C 0 km/h
481 30-11-2010 00:04:02 -1.6 C 3.86 g/m*3 -1.6 C 0 km/h
482 30-11-2010 00:16:01 -1.7 C 3.83 g/m*3 -1.7 C 0 km/h
483 30-11-2010 00:28:01 -1.8 C 3.8 g/m*3 -1.8 C 0 km/h
484 30-11-2010 00:40:01 -1.9 C 3.78 g/m*3 -1.9 C 0 km/h
485 30-11-2010 00:52:01 -1.9 C 3.78 g/m*3 -1.9 C 0 km/h
486 30-11-2010 01:04:01 -2 C 3.75 g/m*3 -2 C 0 km/h
487 30-11-2010 01:16:01 -2 C 3.75 g/m*3 -2 C 0 km/h
488 30-11-2010 01:28:01 -2 C 3.75 g/m*3 -2 C 0 km/h
489 30-11-2010 01:40:01 -1.9 C 3.78 g/m*3 -1.9 C 0 km/h
490 30-11-2010 01:52:01 -1.9 C 3.78 g/m*3 -1.9 C 0 km/h
491 30-11-2010 02:04:01 -1.8 C 3.8 g/m*3 -1.8 C 0 km/h
492 30-11-2010 02:16:02 -1.7 C 3.83 g/m*3 -1.7 C 0 km/h
493 30-11-2010 02:28:02 -1.7 C 3.83 g/m*3 -1.7 C 0 km/h
494 30-11-2010 02:40:01 -1.6 C 3.86 g/m*3 -1.6 C 0 km/h
495 30-11-2010 02:53:05 -1.6 C 3.86 g/m*3 -1.6 C 0 km/h
496 30-11-2010 03:05:05 -1.6 C 3.86 g/m*3 -1.6 C 0 km/h
497 30-11-2010 03:17:05 -1.6 C 3.86 g/m*3 -1.6 C 0 km/h
498 30-11-2010 03:29:05 -1.6 C 3.86 g/m*3 -1.6 C 0 km/h
499 30-11-2010 03:41:01 -1.8 C 3.8 g/m*3 -1.8 C 0 km/h
500 30-11-2010 03:53:01 -1.9 C 3.74 g/m*3 -1.9 C 0 km/h
Sensor: Nr:Datum:Temp:Abs-Feuchte:Windchill:Wind:
Aussen-T/F 501 30-11-2010 04:05:02 -2.1 C 3.68 g/m*3 -2.1 C 0 km/h
502 30-11-2010 04:17:02 -2.3 C 3.63 g/m*3 -2.3 C 0 km/h
503 30-11-2010 04:29:02 -2.4 C 3.61 g/m*3 -2.4 C 0 km/h
504 30-11-2010 04:41:02 -2.5 C 3.58 g/m*3 -2.5 C 0 km/h
505 30-11-2010 04:53:02 -2.5 C 3.58 g/m*3 -2.5 C 0 km/h
506 30-11-2010 05:05:01 -2.5 C 3.58 g/m*3 -2.5 C 0 km/h
507 30-11-2010 05:17:02 -2.5 C 3.58 g/m*3 -2.5 C 0 km/h
508 30-11-2010 05:29:03 -2.5 C 3.58 g/m*3 -2.5 C 0 km/h
509 30-11-2010 05:41:01 -2.3 C 3.67 g/m*3 -2.3 C 0 km/h
510 30-11-2010 05:53:02 -2.2 C 3.7 g/m*3 -2.2 C 0 km/h
511 30-11-2010 06:05:02 -2.2 C 3.7 g/m*3 -2.2 C 0 km/h
512 30-11-2010 06:17:02 -2.2 C 3.7 g/m*3 -2.2 C 0 km/h
513 30-11-2010 06:29:02 -2.3 C 3.63 g/m*3 -2.3 C 0 km/h
514 30-11-2010 06:41:03 -2.3 C 3.63 g/m*3 -2.3 C 0 km/h
515 30-11-2010 06:53:02 -2.3 C 3.63 g/m*3 -2.3 C 0 km/h
516 30-11-2010 07:05:02 -2.3 C 3.63 g/m*3 -2.3 C 0 km/h
517 30-11-2010 07:17:01 -2.3 C 3.67 g/m*3 -2.3 C 0 km/h
518 30-11-2010 07:29:01 -2.3 C 3.67 g/m*3 -2.3 C 0 km/h
519 30-11-2010 07:41:02 -2.3 C 3.67 g/m*3 -2.3 C 0 km/h
520 30-11-2010 07:53:02 -2.2 C 3.66 g/m*3 -2.2 C 0 km/h
521 30-11-2010 08:05:02 -2.1 C 3.68 g/m*3 -2.1 C 0 km/h
522 30-11-2010 08:17:01 -2.1 C 3.68 g/m*3 -2.1 C 0 km/h
523 30-11-2010 08:29:01 -2.1 C 3.68 g/m*3 -2.1 C 0 km/h
524 30-11-2010 08:41:02 -2.1 C 3.68 g/m*3 -2.1 C 0 km/h
525 30-11-2010 08:53:02 -2 C 3.58 g/m*3 -2 C 0 km/h
Sensor: Nr:Datum:Temp:Abs-Feuchte:Windchill:Wind:
Aussen-T/F 526 30-11-2010 09:05:02 -2 C 3.58 g/m*3 -2 C 0 km/h
527 30-11-2010 09:17:02 -2 C 3.58 g/m*3 -2 C 0 km/h
528 30-11-2010 09:29:02 -2 C 3.58 g/m*3 -2 C 0 km/h
529 30-11-2010 09:41:02 -2 C 3.58 g/m*3 -2 C 0 km/h
530 30-11-2010 09:53:01 -2 C 3.58 g/m*3 -2 C 0 km/h
531 30-11-2010 10:05:02 -2 C 3.58 g/m*3 -2 C 0 km/h
532 30-11-2010 10:17:02 -2 C 3.58 g/m*3 -2 C 0 km/h
533 30-11-2010 10:29:02 -1.7 C 3.49 g/m*3 -1.7 C 0 km/h
534 30-11-2010 10:41:01 -1.8 C 3.42 g/m*3 -1.8 C 0 km/h
535 30-11-2010 10:53:02 -1.6 C 3.47 g/m*3 -1.6 C 0 km/h
536 30-11-2010 11:05:01 -1.6 C 3.47 g/m*3 -1.6 C 0 km/h
537 30-11-2010 11:17:02 -1.6 C 3.47 g/m*3 -1.6 C 0 km/h
538 30-11-2010 11:29:02 -1.6 C 3.47 g/m*3 -1.6 C 0 km/h
539 30-11-2010 11:41:01 -1.3 C 3.41 g/m*3 -1.3 C 0 km/h
540 30-11-2010 11:53:02 -1.4 C 3.39 g/m*3 -1.4 C 0 km/h
541 30-11-2010 12:05:02 -1.3 C 3.32 g/m*3 -1.3 C 0 km/h
542 30-11-2010 12:17:02 -1.2 C 3.34 g/m*3 -1.2 C 0 km/h
543 30-11-2010 12:29:02 -1.3 C 3.23 g/m*3 -1.3 C 0 km/h
544 30-11-2010 12:41:02 -1.3 C 3.28 g/m*3 -1.3 C 0 km/h
545 30-11-2010 12:53:01 -1.4 C 3.21 g/m*3 -1.4 C 0 km/h
546 30-11-2010 13:05:02 -1.2 C 3.25 g/m*3 -1.2 C 0 km/h
547 30-11-2010 13:17:01 -1.1 C 3.28 g/m*3 -1.1 C 0 km/h
548 30-11-2010 13:29:01 -1 C 3.25 g/m*3 -1 C 0 km/h
549 30-11-2010 13:41:02 -1 C 3.25 g/m*3 -1 C 0 km/h
550 30-11-2010 13:53:01 -1.1 C 3.19 g/m*3 -1.1 C 0 km/h
Sensor: Nr:Datum:Temp:Abs-Feuchte:Windchill:Wind:
Aussen-T/F 551 30-11-2010 14:05:01 -1.2 C 3.17 g/m*3 -1.2 C 0 km/h
552 30-11-2010 14:17:01 -1.3 C 3.19 g/m*3 -1.3 C 0 km/h
553 30-11-2010 14:29:01 -1.4 C 3.21 g/m*3 -1.4 C 0 km/h
554 30-11-2010 14:41:02 -1.3 C 3.23 g/m*3 -1.3 C 0 km/h
555 30-11-2010 14:53:02 -1.4 C 3.21 g/m*3 -1.4 C 0 km/h
556 30-11-2010 15:05:02 -1.4 C 3.21 g/m*3 -1.4 C 0 km/h
557 30-11-2010 15:17:02 -1.5 C 3.23 g/m*3 -1.5 C 0 km/h
558 30-11-2010 15:29:02 -1.5 C 3.23 g/m*3 -1.5 C 0 km/h
559 30-11-2010 15:41:02 -1.5 C 3.23 g/m*3 -1.5 C 0 km/h
560 30-11-2010 15:53:01 -1.5 C 3.23 g/m*3 -1.5 C 0 km/h
561 30-11-2010 16:05:02 -1.5 C 3.23 g/m*3 -1.5 C 0 km/h
562 30-11-2010 16:17:01 -1.5 C 3.23 g/m*3 -1.5 C 0 km/h
563 30-11-2010 16:29:01 -1.5 C 3.23 g/m*3 -1.5 C 0 km/h
564 30-11-2010 16:41:01 -1.5 C 3.23 g/m*3 -1.5 C 0 km/h
565 30-11-2010 16:53:01 -1.5 C 3.23 g/m*3 -1.5 C 0 km/h
566 30-11-2010 17:05:01 -1.5 C 3.23 g/m*3 -1.5 C 0 km/h
567 30-11-2010 17:17:01 -2 C 3.25 g/m*3 -2 C 0 km/h
568 30-11-2010 17:29:01 -1.9 C 3.23 g/m*3 -1.9 C 0 km/h
569 30-11-2010 17:41:01 -2.1 C 3.18 g/m*3 -2.1 C 0 km/h
570 30-11-2010 17:53:01 -2.1 C 3.18 g/m*3 -2.1 C 0 km/h
571 30-11-2010 18:05:01 -2.1 C 3.18 g/m*3 -2.1 C 0 km/h
572 30-11-2010 18:17:02 -2.1 C 3.18 g/m*3 -2.1 C 0 km/h
573 30-11-2010 18:29:02 -2.1 C 3.18 g/m*3 -2.1 C 0 km/h
574 30-11-2010 18:41:01 -2.1 C 3.18 g/m*3 -2.1 C 0 km/h
575 30-11-2010 18:53:03 -2.1 C 3.18 g/m*3 -2.1 C 0 km/h
Sensor: Nr:Datum:Temp:Abs-Feuchte:Windchill:Wind:
Aussen-T/F 576 30-11-2010 19:05:02 -2.1 C 3.18 g/m*3 -2.1 C 0 km/h
577 30-11-2010 19:17:02 -2.1 C 3.18 g/m*3 -2.1 C 0 km/h
578 30-11-2010 19:29:02 -2.1 C 3.18 g/m*3 -2.1 C 0 km/h
579 30-11-2010 19:41:02 -2.1 C 3.18 g/m*3 -2.1 C 0 km/h
580 30-11-2010 19:53:02 -2.1 C 3.14 g/m*3 -2.1 C 0 km/h
581 30-11-2010 20:05:02 -2.1 C 3.14 g/m*3 -2.1 C 0 km/h
582 30-11-2010 20:17:02 -2.2 C 3.12 g/m*3 -2.2 C 0 km/h
583 30-11-2010 20:29:02 -2.3 C 3.1 g/m*3 -2.3 C 0 km/h
584 30-11-2010 20:41:02 -2.4 C 3.07 g/m*3 -2.4 C 0 km/h
585 30-11-2010 20:53:02 -2.3 C 3.14 g/m*3 -2.3 C 0 km/h
586 30-11-2010 21:05:01 -2.4 C 3.07 g/m*3 -2.4 C 0 km/h
587 30-11-2010 21:17:01 -2.4 C 3.07 g/m*3 -2.4 C 0 km/h
588 30-11-2010 21:29:01 -2.4 C 3.07 g/m*3 -2.4 C 0 km/h
589 30-11-2010 21:41:02 -2.4 C 3.03 g/m*3 -2.4 C 0 km/h
590 30-11-2010 21:53:02 -2.4 C 2.99 g/m*3 -2.4 C 0 km/h
591 30-11-2010 22:05:02 -2.5 C 2.97 g/m*3 -2.5 C 0 km/h
592 30-11-2010 22:18:02 -2.6 C 2.95 g/m*3 -2.6 C 0 km/h
593 30-11-2010 22:30:02 -2.6 C 2.95 g/m*3 -2.6 C 0 km/h
594 30-11-2010 22:42:02 -2.6 C 2.91 g/m*3 -2.6 C 0 km/h
595 30-11-2010 22:54:02 -2.6 C 2.91 g/m*3 -2.6 C 0 km/h
596 30-11-2010 23:06:03 -2.6 C 2.87 g/m*3 -2.6 C 0 km/h
597 30-11-2010 23:18:03 -2.7 C 2.85 g/m*3 -2.7 C 0 km/h
598 30-11-2010 23:30:03 -2.8 C 2.83 g/m*3 -2.8 C 0 km/h
599 30-11-2010 23:42:03 -2.8 C 2.83 g/m*3 -2.8 C 0 km/h
600 30-11-2010 23:54:03 -2.9 C 2.77 g/m*3 -2.9 C 0 km/h
Sensor: Nr:Datum:Temp:Abs-Feuchte:Windchill:Wind:
Aussen-T/F 601 01-12-2010 00:06:03 -2.9 C 2.81 g/m*3 -2.9 C 0 km/h
602 01-12-2010 00:18:03 -3 C 2.75 g/m*3 -3 C 0 km/h
603 01-12-2010 00:30:03 -3 C 2.75 g/m*3 -3 C 0 km/h
604 01-12-2010 00:42:03 -3 C 2.75 g/m*3 -3 C 0 km/h
605 01-12-2010 00:54:03 -3.1 C 2.73 g/m*3 -3.1 C 0 km/h
606 01-12-2010 01:06:03 -3.2 C 2.71 g/m*3 -3.2 C 0 km/h
607 01-12-2010 01:18:03 -3.2 C 2.71 g/m*3 -3.2 C 0 km/h
608 01-12-2010 01:30:03 -3.3 C 2.65 g/m*3 -3.3 C 0 km/h
609 01-12-2010 01:42:03 -3.3 C 2.65 g/m*3 -3.3 C 0 km/h
610 01-12-2010 01:54:03 -3.5 C 2.62 g/m*3 -3.5 C 0 km/h
611 01-12-2010 02:06:03 -3.6 C 2.6 g/m*3 -3.6 C 0 km/h
612 01-12-2010 02:18:03 -3.8 C 2.52 g/m*3 -3.8 C 0 km/h
613 01-12-2010 02:30:03 -4 C 2.49 g/m*3 -4 C 0 km/h
614 01-12-2010 02:42:03 -4 C 2.49 g/m*3 -4 C 0 km/h
615 01-12-2010 02:54:03 -4 C 2.45 g/m*3 -4 C 0 km/h
616 01-12-2010 03:06:03 -4.1 C 2.43 g/m*3 -4.1 C 0 km/h
617 01-12-2010 03:18:03 -4.2 C 2.42 g/m*3 -4.2 C 0 km/h
618 01-12-2010 03:30:04 -4.3 C 2.36 g/m*3 -4.3 C 0 km/h
619 01-12-2010 03:42:04 -4.5 C 2.33 g/m*3 -4.5 C 0 km/h
620 01-12-2010 03:54:04 -4.6 C 2.28 g/m*3 -4.6 C 0 km/h
621 01-12-2010 04:06:04 -4.8 C 2.28 g/m*3 -4.8 C 0 km/h
622 01-12-2010 04:18:04 -4.9 C 2.26 g/m*3 -4.9 C 0 km/h
623 01-12-2010 04:30:04 -5 C 2.21 g/m*3 -5 C 0 km/h
624 01-12-2010 04:42:04 -5.1 C 2.2 g/m*3 -5.1 C 0 km/h
625 01-12-2010 04:54:04 -5.2 C 2.22 g/m*3 -5.2 C 0 km/h
Sensor: Nr:Datum:Temp:Abs-Feuchte:Windchill:Wind:
Aussen-T/F 626 01-12-2010 05:06:04 -5.3 C 2.17 g/m*3 -5.3 C 0 km/h
627 01-12-2010 05:18:04 -5.4 C 2.18 g/m*3 -5.4 C 0 km/h
628 01-12-2010 05:30:04 -5.4 C 2.18 g/m*3 -5.4 C 0 km/h
629 01-12-2010 05:42:04 -5.5 C 2.17 g/m*3 -5.5 C 0 km/h
630 01-12-2010 05:54:04 -5.4 C 2.22 g/m*3 -5.4 C 0 km/h
631 01-12-2010 06:06:04 -5.4 C 2.18 g/m*3 -5.4 C 0 km/h
632 01-12-2010 06:18:04 -5.4 C 2.18 g/m*3 -5.4 C 0 km/h
633 01-12-2010 06:30:04 -5.6 C 2.12 g/m*3 -5.6 C 0 km/h
634 01-12-2010 06:42:04 -5.6 C 2.12 g/m*3 -5.6 C 0 km/h
635 01-12-2010 06:54:04 -5.8 C 2.09 g/m*3 -5.8 C 0 km/h
636 01-12-2010 07:06:04 -5.8 C 2.09 g/m*3 -5.8 C 0 km/h
637 01-12-2010 07:18:04 -5.8 C 2.09 g/m*3 -5.8 C 0 km/h
638 01-12-2010 07:30:04 -5.9 C 2.04 g/m*3 -5.9 C 0 km/h
639 01-12-2010 07:42:03 -6 C 2.03 g/m*3 -6 C 0 km/h
640 01-12-2010 07:54:02 -6 C 2.03 g/m*3 -6 C 0 km/h
641 01-12-2010 08:06:02 -6.1 C 1.98 g/m*3 -6.1 C 0 km/h
642 01-12-2010 08:18:02 -6.2 C 1.97 g/m*3 -6.2 C 0 km/h
643 01-12-2010 08:30:02 -6.2 C 1.97 g/m*3 -6.2 C 0 km/h
644 01-12-2010 08:42:02 -6.4 C 1.91 g/m*3 -6.4 C 0 km/h
645 01-12-2010 08:54:01 -6.4 C 1.91 g/m*3 -6.4 C 0 km/h
646 01-12-2010 09:06:02 -6.2 C 1.94 g/m*3 -6.2 C 0 km/h
647 01-12-2010 09:18:01 -6.1 C 1.92 g/m*3 -6.1 C 0 km/h
648 01-12-2010 09:30:01 -6 C 1.9 g/m*3 -6 C 0 km/h
649 01-12-2010 09:42:02 -5.8 C 1.93 g/m*3 -5.8 C 0 km/h
650 01-12-2010 09:54:02 -5.7 C 1.94 g/m*3 -5.7 C 0 km/h
Sensor: Nr:Datum:Temp:Abs-Feuchte:Windchill:Wind:
Aussen-T/F 651 01-12-2010 10:06:02 -5.6 C 1.96 g/m*3 -5.6 C 0 km/h
652 01-12-2010 10:18:01 -5.5 C 1.97 g/m*3 -5.5 C 0 km/h
653 01-12-2010 10:30:01 -5.4 C 1.95 g/m*3 -5.4 C 0 km/h
654 01-12-2010 10:42:02 -5.6 C 1.92 g/m*3 -5.6 C 0 km/h
655 01-12-2010 10:54:01 -5.6 C 1.96 g/m*3 -5.6 C 0 km/h
656 01-12-2010 11:06:02 -5.5 C 1.97 g/m*3 -5.5 C 0 km/h
657 01-12-2010 11:18:02 -5.4 C 1.98 g/m*3 -5.4 C 0 km/h
658 01-12-2010 11:30:02 -5.4 C 1.98 g/m*3 -5.4 C 0 km/h
659 01-12-2010 11:42:02 -5.6 C 1.96 g/m*3 -5.6 C 0 km/h
660 01-12-2010 11:54:02 -5.5 C 1.97 g/m*3 -5.5 C 0 km/h
661 01-12-2010 12:06:01 -5.6 C 1.96 g/m*3 -5.6 C 0 km/h
662 01-12-2010 12:18:02 -5.7 C 1.94 g/m*3 -5.7 C 0 km/h
663 01-12-2010 12:30:03 -5.8 C 1.93 g/m*3 -5.8 C 0 km/h
664 01-12-2010 12:42:01 -6 C 1.9 g/m*3 -6 C 0 km/h
665 01-12-2010 12:54:02 -6 C 1.9 g/m*3 -6 C 0 km/h
666 01-12-2010 13:06:01 -6 C 1.87 g/m*3 -6 C 0 km/h
667 01-12-2010 13:18:01 -6.1 C 1.89 g/m*3 -6.1 C 0 km/h
668 01-12-2010 13:30:01 -6.1 C 1.86 g/m*3 -6.1 C 0 km/h
669 01-12-2010 13:42:02 -6.1 C 1.82 g/m*3 -6.1 C 0 km/h
670 01-12-2010 13:54:02 -6.2 C 1.81 g/m*3 -6.2 C 0 km/h
671 01-12-2010 14:06:02 -6.2 C 1.81 g/m*3 -6.2 C 0 km/h
672 01-12-2010 14:18:02 -6.2 C 1.78 g/m*3 -6.2 C 0 km/h
673 01-12-2010 14:30:02 -6.2 C 1.78 g/m*3 -6.2 C 0 km/h
674 01-12-2010 14:42:02 -6.1 C 1.79 g/m*3 -6.1 C 0 km/h
675 01-12-2010 14:54:02 -6.2 C 1.78 g/m*3 -6.2 C 0 km/h
Sensor: Nr:Datum:Temp:Abs-Feuchte:Windchill:Wind:
Aussen-T/F 676 01-12-2010 15:06:02 -6.2 C 1.78 g/m*3 -6.2 C 0 km/h
677 01-12-2010 15:18:02 -6.2 C 1.78 g/m*3 -6.2 C 0 km/h
678 01-12-2010 15:30:02 -6.3 C 1.77 g/m*3 -6.3 C 0 km/h
679 01-12-2010 15:42:02 -6.3 C 1.8 g/m*3 -6.3 C 0 km/h
680 01-12-2010 15:54:01 -6.4 C 1.78 g/m*3 -6.4 C 0 km/h
681 01-12-2010 16:06:01 -6.5 C 1.74 g/m*3 -6.5 C 0 km/h
682 01-12-2010 16:18:02 -6.6 C 1.73 g/m*3 -6.6 C 0 km/h
683 01-12-2010 16:30:02 -6.6 C 1.76 g/m*3 -6.6 C 0 km/h
684 01-12-2010 16:42:01 -6.6 C 1.76 g/m*3 -6.6 C 0 km/h
685 01-12-2010 16:54:01 -6.6 C 1.76 g/m*3 -6.6 C 0 km/h
686 01-12-2010 17:06:01 -6.6 C 1.79 g/m*3 -6.6 C 0 km/h
687 01-12-2010 17:18:02 -6.6 C 1.79 g/m*3 -6.6 C 0 km/h
688 01-12-2010 17:30:02 -6.6 C 1.79 g/m*3 -6.6 C 0 km/h
689 01-12-2010 17:42:01 -6.6 C 1.79 g/m*3 -6.6 C 0 km/h
690 01-12-2010 17:54:03 -6.5 C 1.83 g/m*3 -6.5 C 0 km/h
691 01-12-2010 18:06:02 -6.5 C 1.83 g/m*3 -6.5 C 0 km/h
692 01-12-2010 18:18:02 -6.5 C 1.83 g/m*3 -6.5 C 0 km/h
693 01-12-2010 18:30:02 -6.6 C 1.79 g/m*3 -6.6 C 0 km/h
694 01-12-2010 18:42:02 -6.5 C 1.83 g/m*3 -6.5 C 0 km/h
695 01-12-2010 18:54:02 -6.6 C 1.82 g/m*3 -6.6 C 0 km/h
696 01-12-2010 19:06:01 -6.6 C 1.82 g/m*3 -6.6 C 0 km/h
697 01-12-2010 19:18:02 -6.5 C 1.8 g/m*3 -6.5 C 0 km/h
698 01-12-2010 19:30:02 -6.6 C 1.82 g/m*3 -6.6 C 0 km/h
699 01-12-2010 19:42:02 -6.6 C 1.82 g/m*3 -6.6 C 0 km/h
700 01-12-2010 19:54:02 -6.6 C 1.79 g/m*3 -6.6 C 0 km/h
Sensor: Nr:Datum:Temp:Abs-Feuchte:Windchill:Wind:
Aussen-T/F 701 01-12-2010 20:06:03 -6.6 C 1.79 g/m*3 -6.6 C 0 km/h
702 01-12-2010 20:18:02 -6.6 C 1.76 g/m*3 -6.6 C 0 km/h
703 01-12-2010 20:30:02 -6.7 C 1.75 g/m*3 -6.7 C 0 km/h
704 01-12-2010 20:42:02 -6.7 C 1.75 g/m*3 -6.7 C 0 km/h
705 01-12-2010 20:54:01 -6.6 C 1.82 g/m*3 -6.6 C 0 km/h
706 01-12-2010 21:06:02 -6.6 C 1.82 g/m*3 -6.6 C 0 km/h
707 01-12-2010 21:18:01 -6.8 C 1.73 g/m*3 -6.8 C 0 km/h
708 01-12-2010 21:30:01 -6.8 C 1.7 g/m*3 -6.8 C 0 km/h
709 01-12-2010 21:42:01 -6.7 C 1.75 g/m*3 -6.7 C 0 km/h
710 01-12-2010 21:54:01 -6.8 C 1.7 g/m*3 -6.8 C 0 km/h
711 01-12-2010 22:06:01 -6.8 C 1.67 g/m*3 -6.8 C 0 km/h
712 01-12-2010 22:18:02 -6.8 C 1.7 g/m*3 -6.8 C 0 km/h
713 01-12-2010 22:30:02 -6.9 C 1.72 g/m*3 -6.9 C 0 km/h
714 01-12-2010 22:42:01 -6.9 C 1.75 g/m*3 -6.9 C 0 km/h
715 01-12-2010 22:54:02 -6.9 C 1.78 g/m*3 -6.9 C 0 km/h
716 01-12-2010 23:06:02 -7 C 1.74 g/m*3 -7 C 0 km/h
717 01-12-2010 23:18:02 -7 C 1.77 g/m*3 -7 C 0 km/h
718 01-12-2010 23:30:02 -7 C 1.8 g/m*3 -7 C 0 km/h
719 01-12-2010 23:42:03 -7.1 C 1.78 g/m*3 -7.1 C 0 km/h
720 01-12-2010 23:54:02 -7.2 C 1.77 g/m*3 -7.2 C 0 km/h
721 02-12-2010 00:06:02 -7.1 C 1.81 g/m*3 -7.1 C 0 km/h
722 02-12-2010 00:18:01 -7.1 C 1.81 g/m*3 -7.1 C 0 km/h
723 02-12-2010 00:30:01 -7.1 C 1.84 g/m*3 -7.1 C 0 km/h
724 02-12-2010 00:42:02 -7.2 C 1.8 g/m*3 -7.2 C 0 km/h
725 02-12-2010 00:54:02 -7.2 C 1.8 g/m*3 -7.2 C 0 km/h
Sensor: Nr:Datum:Temp:Abs-Feuchte:Windchill:Wind:
Aussen-T/F 726 02-12-2010 01:06:02 -7.2 C 1.8 g/m*3 -7.2 C 0 km/h
727 02-12-2010 01:18:02 -7.1 C 1.81 g/m*3 -7.1 C 0 km/h
728 02-12-2010 01:30:02 -7.1 C 1.78 g/m*3 -7.1 C 0 km/h
729 02-12-2010 01:42:02 -7.1 C 1.78 g/m*3 -7.1 C 0 km/h
730 02-12-2010 01:54:02 -7.1 C 1.75 g/m*3 -7.1 C 0 km/h
731 02-12-2010 02:06:02 -7.2 C 1.74 g/m*3 -7.2 C 0 km/h
732 02-12-2010 02:18:03 -7.3 C 1.67 g/m*3 -7.3 C 0 km/h
733 02-12-2010 02:30:03 -7.3 C 1.7 g/m*3 -7.3 C 0 km/h
734 02-12-2010 02:42:02 -7.3 C 1.7 g/m*3 -7.3 C 0 km/h
735 02-12-2010 02:55:04 -7.3 C 1.73 g/m*3 -7.3 C 0 km/h
736 02-12-2010 03:07:04 -7.3 C 1.73 g/m*3 -7.3 C 0 km/h
737 02-12-2010 03:19:04 -7.2 C 1.77 g/m*3 -7.2 C 0 km/h
738 02-12-2010 03:31:01 -7.3 C 1.76 g/m*3 -7.3 C 0 km/h
739 02-12-2010 03:43:01 -7.4 C 1.72 g/m*3 -7.4 C 0 km/h
740 02-12-2010 03:55:01 -7.4 C 1.72 g/m*3 -7.4 C 0 km/h
741 02-12-2010 04:07:01 -7.5 C 1.73 g/m*3 -7.5 C 0 km/h
742 02-12-2010 04:19:01 -7.5 C 1.76 g/m*3 -7.5 C 0 km/h
743 02-12-2010 04:31:01 -7.5 C 1.79 g/m*3 -7.5 C 0 km/h
744 02-12-2010 04:43:01 -7.5 C 1.82 g/m*3 -7.5 C 0 km/h
745 02-12-2010 04:55:01 -7.5 C 1.79 g/m*3 -7.5 C 0 km/h
746 02-12-2010 05:07:01 -7.6 C 1.77 g/m*3 -7.6 C 0 km/h
747 02-12-2010 05:19:02 -7.6 C 1.77 g/m*3 -7.6 C 0 km/h
748 02-12-2010 05:31:01 -7.6 C 1.77 g/m*3 -7.6 C 0 km/h
749 02-12-2010 05:43:01 -7.6 C 1.83 g/m*3 -7.6 C 0 km/h
750 02-12-2010 05:55:03 -7.8 C 1.78 g/m*3 -7.8 C 0 km/h
Sensor: Nr:Datum:Temp:Abs-Feuchte:Windchill:Wind:
Aussen-T/F 751 02-12-2010 06:07:02 -7.8 C 1.8 g/m*3 -7.8 C 0 km/h
752 02-12-2010 06:19:02 -7.7 C 1.85 g/m*3 -7.7 C 0 km/h
753 02-12-2010 06:31:02 -7.8 C 1.83 g/m*3 -7.8 C 0 km/h
754 02-12-2010 06:43:02 -7.8 C 1.83 g/m*3 -7.8 C 0 km/h
755 02-12-2010 06:55:02 -7.7 C 1.87 g/m*3 -7.7 C 0 km/h
756 02-12-2010 07:07:01 -7.7 C 1.9 g/m*3 -7.7 C 0 km/h
757 02-12-2010 07:19:02 -7.7 C 1.9 g/m*3 -7.7 C 0 km/h
758 02-12-2010 07:31:02 -7.8 C 1.86 g/m*3 -7.8 C 0 km/h
759 02-12-2010 07:43:02 -7.7 C 1.9 g/m*3 -7.7 C 0 km/h
760 02-12-2010 07:55:02 -7.7 C 1.9 g/m*3 -7.7 C 0 km/h
761 02-12-2010 08:07:02 -7.7 C 1.9 g/m*3 -7.7 C 0 km/h
762 02-12-2010 08:19:02 -7.7 C 1.87 g/m*3 -7.7 C 0 km/h
763 02-12-2010 08:31:03 -7.7 C 1.87 g/m*3 -7.7 C 0 km/h
764 02-12-2010 08:43:03 -7.8 C 1.83 g/m*3 -7.8 C 0 km/h
765 02-12-2010 08:55:02 -7.6 C 1.86 g/m*3 -7.6 C 0 km/h
766 02-12-2010 09:07:01 -7.4 C 1.92 g/m*3 -7.4 C 0 km/h
767 02-12-2010 09:19:01 -7.1 C 1.96 g/m*3 -7.1 C 0 km/h
768 02-12-2010 09:31:02 -7.2 C 1.94 g/m*3 -7.2 C 0 km/h
769 02-12-2010 09:43:02 -7.1 C 1.96 g/m*3 -7.1 C 0 km/h
770 02-12-2010 09:55:02 -6.7 C 2.02 g/m*3 -6.7 C 0 km/h
771 02-12-2010 10:07:02 -6.5 C 2.02 g/m*3 -6.5 C 0 km/h
772 02-12-2010 10:19:02 -6.3 C 1.98 g/m*3 -6.3 C 0 km/h
773 02-12-2010 10:31:02 -6.1 C 1.98 g/m*3 -6.1 C 0 km/h
774 02-12-2010 10:43:02 -6 C 1.96 g/m*3 -6 C 0 km/h
775 02-12-2010 10:55:02 -5.8 C 2.02 g/m*3 -5.8 C 0 km/h
Sensor: Nr:Datum:Temp:Abs-Feuchte:Windchill:Wind:
Aussen-T/F 776 02-12-2010 11:07:02 -5.8 C 2.02 g/m*3 -5.8 C 0 km/h
777 02-12-2010 11:19:01 -6.1 C 1.95 g/m*3 -6.1 C 0 km/h
778 02-12-2010 11:31:02 -5.2 C 2.11 g/m*3 -5.2 C 0 km/h
779 02-12-2010 11:43:02 -5.6 C 2.02 g/m*3 -5.6 C 0 km/h
780 02-12-2010 11:55:01 -5.4 C 2.05 g/m*3 -5.4 C 0 km/h
781 02-12-2010 12:07:02 -6.2 C 1.97 g/m*3 -6.2 C 0 km/h
782 02-12-2010 12:19:02 -6.2 C 2.03 g/m*3 -6.2 C 0 km/h
783 02-12-2010 12:31:01 -6.1 C 2.04 g/m*3 -6.1 C 0 km/h
784 02-12-2010 12:43:01 -6.1 C 2.08 g/m*3 -6.1 C 0 km/h
785 02-12-2010 12:55:02 -5.8 C 2.15 g/m*3 -5.8 C 0 km/h
786 02-12-2010 13:07:01 -5.8 C 2.12 g/m*3 -5.8 C 0 km/h
787 02-12-2010 13:19:02 -5.7 C 2.14 g/m*3 -5.7 C 0 km/h
788 02-12-2010 13:31:01 -5.3 C 2.2 g/m*3 -5.3 C 0 km/h
789 02-12-2010 13:43:01 -4.5 C 2.26 g/m*3 -4.5 C 0 km/h
790 02-12-2010 13:55:02 -5.2 C 2.05 g/m*3 -5.2 C 0 km/h
791 02-12-2010 14:07:02 -5.1 C 2.13 g/m*3 -5.1 C 0 km/h
792 02-12-2010 14:19:02 -5.6 C 2.12 g/m*3 -5.6 C 0 km/h
793 02-12-2010 14:31:02 -6 C 2.06 g/m*3 -6 C 0 km/h
794 02-12-2010 14:43:02 -6 C 2.15 g/m*3 -6 C 0 km/h
795 02-12-2010 14:55:02 -5.3 C 2.33 g/m*3 -5.3 C 0 km/h
796 02-12-2010 15:07:02 -4.9 C 2.37 g/m*3 -4.9 C 0 km/h
797 02-12-2010 15:19:01 -4.6 C 2.31 g/m*3 -4.6 C 0 km/h
798 02-12-2010 15:31:02 -4.6 C 2.24 g/m*3 -4.6 C 0 km/h
799 02-12-2010 15:43:02 -4.8 C 2.21 g/m*3 -4.8 C 0 km/h
800 02-12-2010 15:55:02 -4.8 C 2.25 g/m*3 -4.8 C 0 km/h
Sensor: Nr:Datum:Temp:Abs-Feuchte:Windchill:Wind:
Aussen-T/F 801 02-12-2010 16:07:02 -4.9 C 2.26 g/m*3 -4.9 C 0 km/h
802 02-12-2010 16:19:01 -5.1 C 2.26 g/m*3 -5.1 C 0 km/h
803 02-12-2010 16:31:02 -5.1 C 2.3 g/m*3 -5.1 C 0 km/h
804 02-12-2010 16:43:02 -5.2 C 2.32 g/m*3 -5.2 C 0 km/h
805 02-12-2010 16:55:02 -5.3 C 2.37 g/m*3 -5.3 C 0 km/h
806 02-12-2010 17:07:02 -5.7 C 2.3 g/m*3 -5.7 C 0 km/h
807 02-12-2010 17:19:02 -6.9 C 2.11 g/m*3 -6.9 C 0 km/h
808 02-12-2010 17:31:02 -7.9 C 2.04 g/m*3 -7.9 C 0 km/h
809 02-12-2010 17:43:02 -8.2 C 2.05 g/m*3 -8.2 C 0 km/h
810 02-12-2010 17:55:01 -8.1 C 2.12 g/m*3 -8.1 C 0 km/h
811 02-12-2010 18:07:02 -8.2 C 2.13 g/m*3 -8.2 C 0 km/h
812 02-12-2010 18:19:02 -8 C 2.19 g/m*3 -8 C 0 km/h
813 02-12-2010 18:31:02 -7.8 C 2.25 g/m*3 -7.8 C 0 km/h
814 02-12-2010 18:43:02 -8.2 C 2.18 g/m*3 -8.2 C 0 km/h
815 02-12-2010 18:55:02 -7.9 C 2.23 g/m*3 -7.9 C 0 km/h
816 02-12-2010 19:07:01 -7.9 C 2.26 g/m*3 -7.9 C 0 km/h
817 02-12-2010 19:19:02 -7.9 C 2.26 g/m*3 -7.9 C 0 km/h
818 02-12-2010 19:31:02 -8.6 C 2.12 g/m*3 -8.6 C 0 km/h
819 02-12-2010 19:43:02 -8.9 C 2.07 g/m*3 -8.9 C 0 km/h
820 02-12-2010 19:55:02 -8.8 C 2.09 g/m*3 -8.8 C 0 km/h
821 02-12-2010 20:07:01 -9.4 C 2 g/m*3 -9.4 C 0 km/h
822 02-12-2010 20:19:01 -9 C 2.06 g/m*3 -9 C 0 km/h
823 02-12-2010 20:31:02 -7.7 C 2.32 g/m*3 -7.7 C 0 km/h
824 02-12-2010 20:43:02 -7.2 C 2.41 g/m*3 -7.2 C 0 km/h
825 02-12-2010 20:55:02 -6.9 C 2.49 g/m*3 -6.9 C 0 km/h
Sensor: Nr:Datum:Temp:Abs-Feuchte:Windchill:Wind:
Aussen-T/F 826 02-12-2010 21:07:02 -6.9 C 2.46 g/m*3 -6.9 C 0 km/h
827 02-12-2010 21:19:02 -7 C 2.44 g/m*3 -7 C 0 km/h
828 02-12-2010 21:31:02 -7.5 C 2.33 g/m*3 -7.5 C 0 km/h
829 02-12-2010 21:43:02 -7.9 C 2.26 g/m*3 -7.9 C 0 km/h
830 02-12-2010 21:55:02 -8.4 C 2.15 g/m*3 -8.4 C 0 km/h
831 02-12-2010 22:07:02 -8.2 C 2.21 g/m*3 -8.2 C 0 km/h
832 02-12-2010 22:20:04 -8.5 C 2.13 g/m*3 -8.5 C 0 km/h
833 02-12-2010 22:32:04 -8.9 C 2.07 g/m*3 -8.9 C 0 km/h
834 02-12-2010 22:44:04 -8.9 C 2.05 g/m*3 -8.9 C 0 km/h
835 02-12-2010 22:56:04 -8.2 C 2.18 g/m*3 -8.2 C 0 km/h
836 02-12-2010 23:08:04 -8.3 C 2.17 g/m*3 -8.3 C 0 km/h
837 02-12-2010 23:20:04 -7.8 C 2.28 g/m*3 -7.8 C 0 km/h
838 02-12-2010 23:32:04 -7.9 C 2.23 g/m*3 -7.9 C 0 km/h
839 02-12-2010 23:44:04 -7.8 C 2.25 g/m*3 -7.8 C 0 km/h
840 02-12-2010 23:56:04 -8 C 2.22 g/m*3 -8 C 0 km/h
841 03-12-2010 00:08:04 -8.5 C 2.11 g/m*3 -8.5 C 0 km/h
842 03-12-2010 00:20:04 -9.5 C 1.93 g/m*3 -9.5 C 0 km/h
843 03-12-2010 00:32:04 -10.1 C 1.82 g/m*3 -10.1 C 0 km/h
844 03-12-2010 00:44:04 -10.7 C 1.72 g/m*3 -10.7 C 0 km/h
845 03-12-2010 00:56:04 -10.6 C 1.73 g/m*3 -10.6 C 0 km/h
846 03-12-2010 01:08:04 -10.4 C 1.76 g/m*3 -10.4 C 0 km/h
847 03-12-2010 01:20:04 -9.8 C 1.89 g/m*3 -9.8 C 0 km/h
848 03-12-2010 01:32:04 -9.7 C 1.9 g/m*3 -9.7 C 0 km/h
849 03-12-2010 01:44:04 -9.3 C 1.99 g/m*3 -9.3 C 0 km/h
850 03-12-2010 01:56:04 -9.1 C 2.02 g/m*3 -9.1 C 0 km/h
Sensor: Nr:Datum:Temp:Abs-Feuchte:Windchill:Wind:
Aussen-T/F 851 03-12-2010 02:08:04 -9.1 C 2.02 g/m*3 -9.1 C 0 km/h
852 03-12-2010 02:20:04 -9 C 2.03 g/m*3 -9 C 0 km/h
853 03-12-2010 02:32:05 -9.1 C 1.99 g/m*3 -9.1 C 0 km/h
854 03-12-2010 02:44:05 -9.1 C 1.99 g/m*3 -9.1 C 0 km/h
855 03-12-2010 02:56:05 -9.3 C 1.96 g/m*3 -9.3 C 0 km/h
856 03-12-2010 03:08:05 -9.2 C 1.98 g/m*3 -9.2 C 0 km/h
857 03-12-2010 03:20:05 -9 C 2.01 g/m*3 -9 C 0 km/h
858 03-12-2010 03:32:05 -8.7 C 2.05 g/m*3 -8.7 C 0 km/h
859 03-12-2010 03:44:05 -8.5 C 2.11 g/m*3 -8.5 C 0 km/h
860 03-12-2010 03:56:05 -8.5 C 2.08 g/m*3 -8.5 C 0 km/h
861 03-12-2010 04:08:05 -8.2 C 2.13 g/m*3 -8.2 C 0 km/h
862 03-12-2010 04:20:05 -8.1 C 2.14 g/m*3 -8.1 C 0 km/h
863 03-12-2010 04:32:05 -7.9 C 2.18 g/m*3 -7.9 C 0 km/h
864 03-12-2010 04:44:05 -8 C 2.16 g/m*3 -8 C 0 km/h
865 03-12-2010 04:56:05 -8.1 C 2.12 g/m*3 -8.1 C 0 km/h
866 03-12-2010 05:08:05 -8.6 C 2.04 g/m*3 -8.6 C 0 km/h
867 03-12-2010 05:20:05 -8.8 C 1.98 g/m*3 -8.8 C 0 km/h
868 03-12-2010 05:32:05 -8.6 C 2.04 g/m*3 -8.6 C 0 km/h
869 03-12-2010 05:44:05 -8.5 C 2.08 g/m*3 -8.5 C 0 km/h
870 03-12-2010 05:56:05 -8.9 C 2 g/m*3 -8.9 C 0 km/h
871 03-12-2010 06:08:05 -9.5 C 1.91 g/m*3 -9.5 C 0 km/h
872 03-12-2010 06:20:05 -9.8 C 1.84 g/m*3 -9.8 C 0 km/h
873 03-12-2010 06:32:06 -9.6 C 1.89 g/m*3 -9.6 C 0 km/h
874 03-12-2010 06:44:06 -9.4 C 1.92 g/m*3 -9.4 C 0 km/h
875 03-12-2010 06:56:06 -9.1 C 1.99 g/m*3 -9.1 C 0 km/h
Sensor: Nr:Datum:Temp:Abs-Feuchte:Windchill:Wind:
Aussen-T/F 876 03-12-2010 07:08:03 -8.7 C 2.08 g/m*3 -8.7 C 0 km/h
877 03-12-2010 07:20:04 -8.7 C 2.08 g/m*3 -8.7 C 0 km/h
878 03-12-2010 07:32:03 -8.9 C 2.02 g/m*3 -8.9 C 0 km/h
879 03-12-2010 07:44:03 -9 C 2.01 g/m*3 -9 C 0 km/h
880 03-12-2010 07:56:02 -9.3 C 1.96 g/m*3 -9.3 C 0 km/h
881 03-12-2010 08:08:02 -9.5 C 1.93 g/m*3 -9.5 C 0 km/h
882 03-12-2010 08:20:02 -9.9 C 1.85 g/m*3 -9.9 C 0 km/h
883 03-12-2010 08:32:03 -10.2 C 1.81 g/m*3 -10.2 C 0 km/h
884 03-12-2010 08:44:03 -10 C 1.84 g/m*3 -10 C 0 km/h
885 03-12-2010 08:56:02 -10 C 1.84 g/m*3 -10 C 0 km/h
886 03-12-2010 09:08:01 -10 C 1.84 g/m*3 -10 C 0 km/h
887 03-12-2010 09:20:02 -9.8 C 1.87 g/m*3 -9.8 C 0 km/h
888 03-12-2010 09:32:02 -10 C 1.81 g/m*3 -10 C 0 km/h
889 03-12-2010 09:44:02 -9.8 C 1.84 g/m*3 -9.8 C 0 km/h
890 03-12-2010 09:56:02 -9.4 C 1.87 g/m*3 -9.4 C 0 km/h
891 03-12-2010 10:08:03 -9.1 C 1.92 g/m*3 -9.1 C 0 km/h
892 03-12-2010 10:20:02 -8.6 C 1.96 g/m*3 -8.6 C 0 km/h
893 03-12-2010 10:32:02 -8.2 C 2.05 g/m*3 -8.2 C 0 km/h
894 03-12-2010 10:44:02 -7.5 C 2.16 g/m*3 -7.5 C 0 km/h
895 03-12-2010 10:56:01 -7.1 C 2.19 g/m*3 -7.1 C 0 km/h
896 03-12-2010 11:08:02 -6.6 C 2.24 g/m*3 -6.6 C 0 km/h
897 03-12-2010 11:20:01 -6.6 C 2.21 g/m*3 -6.6 C 0 km/h
898 03-12-2010 11:32:01 -6.4 C 2.21 g/m*3 -6.4 C 0 km/h
899 03-12-2010 11:44:01 -6.2 C 2.22 g/m*3 -6.2 C 0 km/h
900 03-12-2010 11:56:01 -5.8 C 2.25 g/m*3 -5.8 C 0 km/h
Sensor: Nr:Datum:Temp:Abs-Feuchte:Windchill:Wind:
Aussen-T/F 901 03-12-2010 12:08:01 -5.7 C 2.23 g/m*3 -5.7 C 0 km/h
902 03-12-2010 12:20:02 -5.4 C 2.25 g/m*3 -5.4 C 0 km/h
903 03-12-2010 12:32:01 -4.9 C 2.33 g/m*3 -4.9 C 0 km/h
904 03-12-2010 12:44:01 -4.8 C 2.31 g/m*3 -4.8 C 0 km/h
905 03-12-2010 12:56:02 -5 C 2.28 g/m*3 -5 C 0 km/h
906 03-12-2010 13:08:01 -4.9 C 2.3 g/m*3 -4.9 C 0 km/h
907 03-12-2010 13:20:02 -4.7 C 2.33 g/m*3 -4.7 C 0 km/h
908 03-12-2010 13:32:01 -4.8 C 2.31 g/m*3 -4.8 C 0 km/h
909 03-12-2010 13:44:01 -4.7 C 2.33 g/m*3 -4.7 C 0 km/h
910 03-12-2010 13:56:02 -4.6 C 2.35 g/m*3 -4.6 C 0 km/h
911 03-12-2010 14:08:02 -4.4 C 2.35 g/m*3 -4.4 C 0 km/h
912 03-12-2010 14:20:02 -4.3 C 2.4 g/m*3 -4.3 C 0 km/h
913 03-12-2010 14:32:02 -4.3 C 2.36 g/m*3 -4.3 C 0 km/h
914 03-12-2010 14:44:02 -4.2 C 2.38 g/m*3 -4.2 C 0 km/h
915 03-12-2010 14:56:02 -4.1 C 2.4 g/m*3 -4.1 C 0 km/h
916 03-12-2010 15:08:02 -4.2 C 2.42 g/m*3 -4.2 C 0 km/h
917 03-12-2010 15:20:01 -4.4 C 2.42 g/m*3 -4.4 C 0 km/h
918 03-12-2010 15:32:02 -4.7 C 2.4 g/m*3 -4.7 C 0 km/h
919 03-12-2010 15:44:02 -4.8 C 2.42 g/m*3 -4.8 C 0 km/h
920 03-12-2010 15:56:02 -5.3 C 2.37 g/m*3 -5.3 C 0 km/h
921 03-12-2010 16:08:02 -5.7 C 2.36 g/m*3 -5.7 C 0 km/h
922 03-12-2010 16:20:02 -6.1 C 2.36 g/m*3 -6.1 C 0 km/h
923 03-12-2010 16:32:02 -6.3 C 2.35 g/m*3 -6.3 C 0 km/h
924 03-12-2010 16:44:02 -6.3 C 2.39 g/m*3 -6.3 C 0 km/h
925 03-12-2010 16:56:02 -6.5 C 2.38 g/m*3 -6.5 C 0 km/h
Sensor: Nr:Datum:Temp:Abs-Feuchte:Windchill:Wind:
Aussen-T/F 926 03-12-2010 17:08:02 -6.8 C 2.33 g/m*3 -6.8 C 0 km/h
927 03-12-2010 17:20:02 -6.8 C 2.36 g/m*3 -6.8 C 0 km/h
928 03-12-2010 17:32:02 -7 C 2.33 g/m*3 -7 C 0 km/h
929 03-12-2010 17:44:02 -7 C 2.36 g/m*3 -7 C 0 km/h
930 03-12-2010 17:56:02 -7.3 C 2.3 g/m*3 -7.3 C 0 km/h
931 03-12-2010 18:08:02 -7.4 C 2.29 g/m*3 -7.4 C 0 km/h
932 03-12-2010 18:20:02 -7.3 C 2.3 g/m*3 -7.3 C 0 km/h
933 03-12-2010 18:32:02 -7 C 2.36 g/m*3 -7 C 0 km/h
934 03-12-2010 18:44:02 -6.8 C 2.42 g/m*3 -6.8 C 0 km/h
935 03-12-2010 18:56:02 -6.6 C 2.46 g/m*3 -6.6 C 0 km/h
936 03-12-2010 19:08:02 -6.1 C 2.58 g/m*3 -6.1 C 0 km/h
937 03-12-2010 19:20:02 -5.8 C 2.64 g/m*3 -5.8 C 0 km/h
938 03-12-2010 19:32:01 -5.7 C 2.65 g/m*3 -5.7 C 0 km/h
939 03-12-2010 19:44:01 -5.6 C 2.64 g/m*3 -5.6 C 0 km/h
940 03-12-2010 19:56:02 -5.5 C 2.66 g/m*3 -5.5 C 0 km/h
941 03-12-2010 20:08:01 -5.5 C 2.63 g/m*3 -5.5 C 0 km/h
942 03-12-2010 20:20:02 -5.4 C 2.65 g/m*3 -5.4 C 0 km/h
943 03-12-2010 20:32:02 -5.3 C 2.67 g/m*3 -5.3 C 0 km/h
944 03-12-2010 20:44:02 -5.3 C 2.63 g/m*3 -5.3 C 0 km/h
945 03-12-2010 20:56:02 -5.3 C 2.63 g/m*3 -5.3 C 0 km/h
946 03-12-2010 21:08:03 -5.3 C 2.63 g/m*3 -5.3 C 0 km/h
947 03-12-2010 21:20:02 -5.5 C 2.56 g/m*3 -5.5 C 0 km/h
948 03-12-2010 21:32:02 -6.1 C 2.45 g/m*3 -6.1 C 0 km/h
949 03-12-2010 21:44:02 -6.1 C 2.48 g/m*3 -6.1 C 0 km/h
950 03-12-2010 21:56:01 -5.6 C 2.61 g/m*3 -5.6 C 0 km/h
Sensor: Nr:Datum:Temp:Abs-Feuchte:Windchill:Wind:
Aussen-T/F 951 03-12-2010 22:08:02 -5.9 C 2.55 g/m*3 -5.9 C 0 km/h
952 03-12-2010 22:20:01 -6.5 C 2.41 g/m*3 -6.5 C 0 km/h
953 03-12-2010 22:32:02 -6.9 C 2.37 g/m*3 -6.9 C 0 km/h
954 03-12-2010 22:44:03 -7.2 C 2.32 g/m*3 -7.2 C 0 km/h
955 03-12-2010 22:56:02 -7.4 C 2.32 g/m*3 -7.4 C 0 km/h
956 03-12-2010 23:08:02 -8 C 2.22 g/m*3 -8 C 0 km/h
957 03-12-2010 23:20:01 -8 C 2.22 g/m*3 -8 C 0 km/h
958 03-12-2010 23:32:02 -8.2 C 2.18 g/m*3 -8.2 C 0 km/h
959 03-12-2010 23:44:02 -7.2 C 2.41 g/m*3 -7.2 C 0 km/h
960 03-12-2010 23:56:02 -8.2 C 2.21 g/m*3 -8.2 C 0 km/h
961 04-12-2010 00:08:02 -8.7 C 2.13 g/m*3 -8.7 C 0 km/h
962 04-12-2010 00:20:02 -8.4 C 2.18 g/m*3 -8.4 C 0 km/h
963 04-12-2010 00:32:02 -8.5 C 2.16 g/m*3 -8.5 C 0 km/h
964 04-12-2010 00:44:02 -8.6 C 2.14 g/m*3 -8.6 C 0 km/h
965 04-12-2010 00:56:02 -8.3 C 2.22 g/m*3 -8.3 C 0 km/h
966 04-12-2010 01:08:02 -8.2 C 2.24 g/m*3 -8.2 C 0 km/h
967 04-12-2010 01:20:03 -9.1 C 2.04 g/m*3 -9.1 C 0 km/h
968 04-12-2010 01:32:02 -9.4 C 2 g/m*3 -9.4 C 0 km/h
969 04-12-2010 01:44:02 -9.4 C 2 g/m*3 -9.4 C 0 km/h
970 04-12-2010 01:56:02 -9.4 C 2.02 g/m*3 -9.4 C 0 km/h
971 04-12-2010 02:08:02 -9.6 C 1.97 g/m*3 -9.6 C 0 km/h
972 04-12-2010 02:20:02 -9.4 C 2 g/m*3 -9.4 C 0 km/h
973 04-12-2010 02:32:02 -9 C 2.08 g/m*3 -9 C 0 km/h
974 04-12-2010 02:44:02 -9.1 C 2.04 g/m*3 -9.1 C 0 km/h
975 04-12-2010 02:57:04 -9.2 C 2.03 g/m*3 -9.2 C 0 km/h
Sensor: Nr:Datum:Temp:Abs-Feuchte:Windchill:Wind:
Aussen-T/F 976 04-12-2010 03:09:04 -9.8 C 1.94 g/m*3 -9.8 C 0 km/h
977 04-12-2010 03:21:03 -10.4 C 1.83 g/m*3 -10.4 C 0 km/h
978 04-12-2010 03:33:01 -10.5 C 1.79 g/m*3 -10.5 C 0 km/h
979 04-12-2010 03:45:01 -10 C 1.88 g/m*3 -10 C 0 km/h
980 04-12-2010 03:57:01 -9 C 2.06 g/m*3 -9 C 0 km/h
981 04-12-2010 04:09:02 -8.8 C 2.09 g/m*3 -8.8 C 0 km/h
982 04-12-2010 04:21:02 -8.2 C 2.21 g/m*3 -8.2 C 0 km/h
983 04-12-2010 04:33:01 -8 C 2.24 g/m*3 -8 C 0 km/h
984 04-12-2010 04:45:02 -7.6 C 2.31 g/m*3 -7.6 C 0 km/h
985 04-12-2010 04:57:02 -7.2 C 2.38 g/m*3 -7.2 C 0 km/h
986 04-12-2010 05:09:01 -6.9 C 2.43 g/m*3 -6.9 C 0 km/h
987 04-12-2010 05:21:02 -6.3 C 2.57 g/m*3 -6.3 C 0 km/h
988 04-12-2010 05:33:01 -5.1 C 2.81 g/m*3 -5.1 C 0 km/h
989 04-12-2010 05:45:02 -4.5 C 2.82 g/m*3 -4.5 C 0 km/h
990 04-12-2010 05:57:02 -4.8 C 2.73 g/m*3 -4.8 C 0 km/h
991 04-12-2010 06:09:02 -4.5 C 2.68 g/m*3 -4.5 C 0 km/h
992 04-12-2010 06:21:02 -4.9 C 2.57 g/m*3 -4.9 C 0 km/h
993 04-12-2010 06:33:03 -5 C 2.55 g/m*3 -5 C 0 km/h
994 04-12-2010 06:45:02 -5.3 C 2.53 g/m*3 -5.3 C 0 km/h
995 04-12-2010 06:57:02 -5 C 2.62 g/m*3 -5 C 0 km/h
996 04-12-2010 07:09:02 -5 C 2.62 g/m*3 -5 C 0 km/h
997 04-12-2010 07:21:01 -5.3 C 2.53 g/m*3 -5.3 C 0 km/h
998 04-12-2010 07:33:02 -5.4 C 2.51 g/m*3 -5.4 C 0 km/h
999 04-12-2010 07:45:02 -5.2 C 2.58 g/m*3 -5.2 C 0 km/h
1000 04-12-2010 07:57:02 -4.8 C 2.66 g/m*3 -4.8 C 0 km/h
Sensor: Nr:Datum:Temp:Abs-Feuchte:Windchill:Wind:
Aussen-T/F 1001 04-12-2010 08:09:02 -4.8 C 2.63 g/m*3 -4.8 C 0 km/h
1002 04-12-2010 08:21:02 -4.1 C 2.76 g/m*3 -4.1 C 0 km/h
1003 04-12-2010 08:33:02 -3.8 C 2.71 g/m*3 -3.8 C 0 km/h
1004 04-12-2010 08:45:02 -3.5 C 2.65 g/m*3 -3.5 C 0 km/h
1005 04-12-2010 08:57:02 -3.5 C 2.58 g/m*3 -3.5 C 0 km/h
1006 04-12-2010 09:09:02 -3.3 C 2.61 g/m*3 -3.3 C 0 km/h
1007 04-12-2010 09:21:01 -3.1 C 2.57 g/m*3 -3.1 C 0 km/h
1008 04-12-2010 09:33:02 -3 C 2.59 g/m*3 -3 C 0 km/h
1009 04-12-2010 09:45:01 -2.9 C 2.61 g/m*3 -2.9 C 0 km/h
1010 04-12-2010 09:57:01 -3.2 C 2.52 g/m*3 -3.2 C 0 km/h
1011 04-12-2010 10:09:02 -2.9 C 2.57 g/m*3 -2.9 C 0 km/h
1012 04-12-2010 10:21:02 -2.4 C 2.66 g/m*3 -2.4 C 0 km/h
1013 04-12-2010 10:33:02 -2 C 2.82 g/m*3 -2 C 0 km/h
1014 04-12-2010 10:45:02 -1.8 C 2.69 g/m*3 -1.8 C 0 km/h
1015 04-12-2010 10:57:02 -1.5 C 2.62 g/m*3 -1.5 C 0 km/h
1016 04-12-2010 11:09:01 -1.5 C 2.58 g/m*3 -1.5 C 0 km/h
1017 04-12-2010 11:21:02 -1.3 C 2.43 g/m*3 -1.3 C 0 km/h
1018 04-12-2010 11:33:01 -1.5 C 2.4 g/m*3 -1.5 C 0 km/h
1019 04-12-2010 11:45:02 -1.3 C 2.43 g/m*3 -1.3 C 0 km/h
1020 04-12-2010 11:57:02 -1.3 C 2.39 g/m*3 -1.3 C 0 km/h
1021 04-12-2010 12:09:02 -1 C 2.49 g/m*3 -1 C 0 km/h
1022 04-12-2010 12:21:02 -0.9 C 2.41 g/m*3 -0.9 C 0 km/h
1023 04-12-2010 12:33:03 -0.7 C 2.49 g/m*3 -0.7 C 0 km/h
1024 04-12-2010 12:45:02 -0.8 C 2.43 g/m*3 -0.8 C 0 km/h
1025 04-12-2010 12:57:02 -0.9 C 2.46 g/m*3 -0.9 C 0 km/h
Sensor: Nr:Datum:Temp:Abs-Feuchte:Windchill:Wind:
Aussen-T/F 1026 04-12-2010 13:09:02 -1.3 C 2.39 g/m*3 -1.3 C 0 km/h
1027 04-12-2010 13:21:01 -1.6 C 2.38 g/m*3 -1.6 C 0 km/h
1028 04-12-2010 13:33:02 -1.6 C 2.38 g/m*3 -1.6 C 0 km/h
1029 04-12-2010 13:45:02 -1.3 C 2.43 g/m*3 -1.3 C 0 km/h
1030 04-12-2010 13:57:02 -1.2 C 2.45 g/m*3 -1.2 C 0 km/h
1031 04-12-2010 14:09:02 -1.1 C 2.47 g/m*3 -1.1 C 0 km/h
1032 04-12-2010 14:21:01 -1.1 C 2.47 g/m*3 -1.1 C 0 km/h
1033 04-12-2010 14:33:02 -0.9 C 2.46 g/m*3 -0.9 C 0 km/h
1034 04-12-2010 14:45:01 -1 C 2.49 g/m*3 -1 C 0 km/h
1035 04-12-2010 14:57:01 -0.9 C 2.46 g/m*3 -0.9 C 0 km/h
1036 04-12-2010 15:09:02 -0.9 C 2.5 g/m*3 -0.9 C 0 km/h
1037 04-12-2010 15:21:02 -0.9 C 2.5 g/m*3 -0.9 C 0 km/h
1038 04-12-2010 15:33:02 -0.9 C 2.5 g/m*3 -0.9 C 0 km/h
1039 04-12-2010 15:45:01 -0.9 C 2.5 g/m*3 -0.9 C 0 km/h
1040 04-12-2010 15:57:01 -1 C 2.58 g/m*3 -1 C 0 km/h
1041 04-12-2010 16:09:02 -1.1 C 2.6 g/m*3 -1.1 C 0 km/h
1042 04-12-2010 16:21:02 -1.1 C 2.6 g/m*3 -1.1 C 0 km/h
1043 04-12-2010 16:33:01 -1.3 C 2.66 g/m*3 -1.3 C 0 km/h
1044 04-12-2010 16:45:02 -1.2 C 2.67 g/m*3 -1.2 C 0 km/h
1045 04-12-2010 16:57:02 -1.4 C 2.68 g/m*3 -1.4 C 0 km/h
1046 04-12-2010 17:09:01 -1.2 C 2.72 g/m*3 -1.2 C 0 km/h
1047 04-12-2010 17:21:02 -1 C 2.76 g/m*3 -1 C 0 km/h
1048 04-12-2010 17:33:02 -1 C 2.76 g/m*3 -1 C 0 km/h
1049 04-12-2010 17:45:02 -1.1 C 2.78 g/m*3 -1.1 C 0 km/h
1050 04-12-2010 17:57:03 -1.1 C 2.78 g/m*3 -1.1 C 0 km/h
Sensor: Nr:Datum:Temp:Abs-Feuchte:Windchill:Wind:
Aussen-T/F 1051 04-12-2010 18:09:02 -1.1 C 2.78 g/m*3 -1.1 C 0 km/h
1052 04-12-2010 18:21:02 -1 C 2.8 g/m*3 -1 C 0 km/h
1053 04-12-2010 18:33:02 -0.8 C 2.8 g/m*3 -0.8 C 0 km/h
1054 04-12-2010 18:45:01 -0.8 C 2.8 g/m*3 -0.8 C 0 km/h
1055 04-12-2010 18:57:01 -0.8 C 2.8 g/m*3 -0.8 C 0 km/h
1056 04-12-2010 19:09:02 -0.9 C 2.78 g/m*3 -0.9 C 0 km/h
1057 04-12-2010 19:21:01 -0.8 C 2.8 g/m*3 -0.8 C 0 km/h
1058 04-12-2010 19:33:02 -0.8 C 2.8 g/m*3 -0.8 C 0 km/h
1059 04-12-2010 19:45:01 -1 C 2.8 g/m*3 -1 C 0 km/h
1060 04-12-2010 19:57:01 -1.1 C 2.78 g/m*3 -1.1 C 0 km/h
1061 04-12-2010 20:09:02 -1.1 C 2.83 g/m*3 -1.1 C 0 km/h
1062 04-12-2010 20:21:01 -1.2 C 2.85 g/m*3 -1.2 C 0 km/h
1063 04-12-2010 20:33:02 -0.9 C 2.87 g/m*3 -0.9 C 0 km/h
1064 04-12-2010 20:45:01 -0.7 C 2.91 g/m*3 -0.7 C 0 km/h
1065 04-12-2010 20:57:01 -0.9 C 2.91 g/m*3 -0.9 C 0 km/h
1066 04-12-2010 21:09:02 -1.2 C 2.94 g/m*3 -1.2 C 0 km/h
1067 04-12-2010 21:21:02 -1.1 C 3.01 g/m*3 -1.1 C 0 km/h
1068 04-12-2010 21:33:01 -1 C 3.12 g/m*3 -1 C 0 km/h
1069 04-12-2010 21:45:02 -1.1 C 3.28 g/m*3 -1.1 C 0 km/h
1070 04-12-2010 21:57:02 -1.1 C 3.32 g/m*3 -1.1 C 0 km/h
1071 04-12-2010 22:09:02 -1.3 C 3.32 g/m*3 -1.3 C 0 km/h
1072 04-12-2010 22:21:01 -1.1 C 3.46 g/m*3 -1.1 C 0 km/h
1073 04-12-2010 22:33:02 -1.3 C 3.45 g/m*3 -1.3 C 0 km/h
1074 04-12-2010 22:45:02 -1.1 C 3.55 g/m*3 -1.1 C 0 km/h
1075 04-12-2010 22:57:02 -1.1 C 3.55 g/m*3 -1.1 C 0 km/h
Sensor: Nr:Datum:Temp:Abs-Feuchte:Windchill:Wind:
Aussen-T/F 1076 04-12-2010 23:09:02 -1.3 C 3.5 g/m*3 -1.3 C 0 km/h
1077 04-12-2010 23:21:02 -1.4 C 3.47 g/m*3 -1.4 C 0 km/h
1078 04-12-2010 23:33:02 -1.1 C 3.5 g/m*3 -1.1 C 0 km/h
1079 04-12-2010 23:45:02 -1 C 3.53 g/m*3 -1 C 0 km/h
1080 04-12-2010 23:57:02 -0.8 C 3.53 g/m*3 -0.8 C 0 km/h
1081 05-12-2010 00:09:02 -0.8 C 3.48 g/m*3 -0.8 C 0 km/h
1082 05-12-2010 00:21:02 -0.7 C 3.51 g/m*3 -0.7 C 0 km/h
1083 05-12-2010 00:33:02 -0.5 C 3.51 g/m*3 -0.5 C 0 km/h
1084 05-12-2010 00:45:02 -0.4 C 3.49 g/m*3 -0.4 C 0 km/h
1085 05-12-2010 00:57:02 -0.1 C 3.42 g/m*3 -0.1 C 0 km/h
1086 05-12-2010 01:09:02 -0.1 C 3.42 g/m*3 -0.1 C 0 km/h
1087 05-12-2010 01:21:02 0.3 C 3.26 g/m*3 0.3 C 0 km/h
1088 05-12-2010 01:33:02 0.3 C 3.26 g/m*3 0.3 C 0 km/h
1089 05-12-2010 01:45:02 0.1 C 3.27 g/m*3 0.1 C 0 km/h
1090 05-12-2010 01:57:02 0 C 3.34 g/m*3 0 C 0 km/h
1091 05-12-2010 02:09:02 0 C 3.39 g/m*3 0 C 0 km/h
1092 05-12-2010 02:21:03 0.1 C 3.46 g/m*3 0.1 C 0 km/h
1093 05-12-2010 02:33:02 0 C 3.49 g/m*3 0 C 0 km/h
1094 05-12-2010 02:46:04 0 C 3.54 g/m*3 0 C 0 km/h
1095 05-12-2010 02:58:04 0 C 3.59 g/m*3 0 C 0 km/h
1096 05-12-2010 03:10:04 0 C 3.54 g/m*3 0 C 0 km/h
1097 05-12-2010 03:22:04 0.2 C 3.49 g/m*3 0.2 C 0 km/h
1098 05-12-2010 03:34:02 0.2 C 3.54 g/m*3 0.2 C 0 km/h
1099 05-12-2010 03:46:02 0.1 C 3.51 g/m*3 0.1 C 0 km/h
1100 05-12-2010 03:58:02 0.1 C 3.56 g/m*3 0.1 C 0 km/h
Sensor: Nr:Datum:Temp:Abs-Feuchte:Windchill:Wind:
Aussen-T/F 1101 05-12-2010 04:10:02 0.1 C 3.61 g/m*3 0.1 C 0 km/h
1102 05-12-2010 04:22:02 0.1 C 3.66 g/m*3 0.1 C 0 km/h
1103 05-12-2010 04:34:02 0.1 C 3.66 g/m*3 0.1 C 0 km/h
1104 05-12-2010 04:46:01 0.2 C 3.54 g/m*3 0.2 C 0 km/h
1105 05-12-2010 04:58:01 0.1 C 3.42 g/m*3 0.1 C 0 km/h
1106 05-12-2010 05:10:01 0.3 C 3.36 g/m*3 0.3 C 0 km/h
1107 05-12-2010 05:22:01 -0.1 C 3.32 g/m*3 -0.1 C 0 km/h
1108 05-12-2010 05:34:01 0.1 C 3.27 g/m*3 0.1 C 0 km/h
1109 05-12-2010 05:46:01 0.6 C 3.18 g/m*3 0.6 C 0 km/h
1110 05-12-2010 05:58:01 0.2 C 3.09 g/m*3 0.2 C 0 km/h
1111 05-12-2010 06:10:01 0.2 C 3.14 g/m*3 0.2 C 0 km/h
1112 05-12-2010 06:22:02 0.5 C 3.06 g/m*3 0.5 C 0 km/h
1113 05-12-2010 06:34:01 0.1 C 2.98 g/m*3 0.1 C 0 km/h
1114 05-12-2010 06:46:02 0.2 C 3 g/m*3 0.2 C 0 km/h
1115 05-12-2010 06:58:02 0.1 C 2.93 g/m*3 0.1 C 0 km/h
1116 05-12-2010 07:10:02 -0.2 C 3.01 g/m*3 -0.2 C 0 km/h
1117 05-12-2010 07:22:02 0.2 C 2.95 g/m*3 0.2 C 0 km/h
1118 05-12-2010 07:34:01 0.1 C 2.88 g/m*3 0.1 C 0 km/h
1119 05-12-2010 07:46:02 -0.2 C 2.82 g/m*3 -0.2 C 0 km/h
1120 05-12-2010 07:58:02 -0.3 C 2.89 g/m*3 -0.3 C 0 km/h
1121 05-12-2010 08:10:01 -0.5 C 2.9 g/m*3 -0.5 C 0 km/h
1122 05-12-2010 08:22:01 0.1 C 2.93 g/m*3 0.1 C 0 km/h
1123 05-12-2010 08:34:02 -0.1 C 2.84 g/m*3 -0.1 C 0 km/h
1124 05-12-2010 08:46:02 -0.4 C 2.83 g/m*3 -0.4 C 0 km/h
1125 05-12-2010 08:58:02 -0.7 C 3 g/m*3 -0.7 C 0 km/h
Sensor: Nr:Datum:Temp:Abs-Feuchte:Windchill:Wind:
Aussen-T/F 1126 05-12-2010 09:10:02 -0.6 C 3.02 g/m*3 -0.6 C 0 km/h
1127 05-12-2010 09:22:02 -0.4 C 3.02 g/m*3 -0.4 C 0 km/h
1128 05-12-2010 09:34:02 0 C 2.91 g/m*3 0 C 0 km/h
1129 05-12-2010 09:46:02 0.3 C 2.97 g/m*3 0.3 C 0 km/h
1130 05-12-2010 09:58:02 0.8 C 2.87 g/m*3 0.8 C 0 km/h
1131 05-12-2010 10:10:02 1.2 C 2.74 g/m*3 1.2 C 0 km/h
1132 05-12-2010 10:22:02 1.5 C 2.69 g/m*3 1.5 C 0 km/h
1133 05-12-2010 10:34:02 1.6 C 3.03 g/m*3 1.6 C 0 km/h
1134 05-12-2010 10:46:02 1.9 C 2.81 g/m*3 1.9 C 0 km/h
1135 05-12-2010 10:58:02 2.2 C 2.87 g/m*3 2.2 C 0 km/h
1136 05-12-2010 11:10:02 2.5 C 2.7 g/m*3 2.5 C 0 km/h
1137 05-12-2010 11:22:02 2.3 C 2.78 g/m*3 2.3 C 0 km/h
1138 05-12-2010 11:34:02 2.5 C 2.87 g/m*3 2.5 C 0 km/h
1139 05-12-2010 11:46:01 2.6 C 2.72 g/m*3 2.6 C 0 km/h
1140 05-12-2010 11:58:01 2.8 C 2.76 g/m*3 2.8 C 0 km/h
1141 05-12-2010 12:10:01 2.8 C 2.7 g/m*3 2.8 C 0 km/h
1142 05-12-2010 12:22:02 3 C 2.68 g/m*3 3 C 0 km/h
1143 05-12-2010 12:34:01 3.2 C 2.65 g/m*3 3.2 C 0 km/h
1144 05-12-2010 12:46:02 3.3 C 2.67 g/m*3 3.3 C 0 km/h
1145 05-12-2010 12:58:02 3.2 C 2.65 g/m*3 3.2 C 0 km/h
1146 05-12-2010 13:10:02 3.3 C 2.67 g/m*3 3.3 C 0 km/h
1147 05-12-2010 13:22:03 3.4 C 2.63 g/m*3 3.4 C 0 km/h
1148 05-12-2010 13:34:02 3.4 C 2.57 g/m*3 3.4 C 0 km/h
1149 05-12-2010 13:46:02 3.3 C 2.61 g/m*3 3.3 C 0 km/h
1150 05-12-2010 13:58:02 3.6 C 2.66 g/m*3 3.6 C 0 km/h
Sensor: Nr:Datum:Temp:Abs-Feuchte:Windchill:Wind:
Aussen-T/F 1151 05-12-2010 14:10:02 3.2 C 2.59 g/m*3 3.2 C 0 km/h
1152 05-12-2010 14:22:02 3.3 C 2.61 g/m*3 3.3 C 0 km/h
1153 05-12-2010 14:34:02 3.3 C 2.61 g/m*3 3.3 C 0 km/h
1154 05-12-2010 14:46:02 3.2 C 2.59 g/m*3 3.2 C 0 km/h
1155 05-12-2010 14:58:03 3.2 C 2.59 g/m*3 3.2 C 0 km/h
1156 05-12-2010 15:10:01 2.9 C 2.78 g/m*3 2.9 C 0 km/h
1157 05-12-2010 15:22:02 2.6 C 2.84 g/m*3 2.6 C 0 km/h
1158 05-12-2010 15:34:02 2.1 C 3.08 g/m*3 2.1 C 0 km/h
1159 05-12-2010 15:46:02 1.7 C 3.27 g/m*3 1.7 C 0 km/h
1160 05-12-2010 15:58:02 1.8 C 3.23 g/m*3 1.8 C 0 km/h
1161 05-12-2010 16:10:02 1.5 C 3.28 g/m*3 1.5 C 0 km/h
1162 05-12-2010 16:22:02 1.4 C 3.31 g/m*3 1.4 C 0 km/h
1163 05-12-2010 16:34:02 1.2 C 3.31 g/m*3 1.2 C 0 km/h
1164 05-12-2010 16:46:01 1.1 C 3.24 g/m*3 1.1 C 0 km/h
1165 05-12-2010 16:58:01 1 C 3.27 g/m*3 1 C 0 km/h
1166 05-12-2010 17:10:02 1 C 3.32 g/m*3 1 C 0 km/h
1167 05-12-2010 17:22:01 1.1 C 3.45 g/m*3 1.1 C 0 km/h
1168 05-12-2010 17:34:01 1.7 C 3.38 g/m*3 1.7 C 0 km/h
1169 05-12-2010 17:46:01 1.7 C 3.43 g/m*3 1.7 C 0 km/h
1170 05-12-2010 17:58:01 1.4 C 3.41 g/m*3 1.4 C 0 km/h
1171 05-12-2010 18:10:02 1 C 3.63 g/m*3 1 C 0 km/h
1172 05-12-2010 18:22:02 0.9 C 3.76 g/m*3 0.9 C 0 km/h
1173 05-12-2010 18:34:02 0.8 C 3.79 g/m*3 0.8 C 0 km/h
1174 05-12-2010 18:46:02 0.9 C 3.92 g/m*3 0.9 C 0 km/h
1175 05-12-2010 18:58:02 0.8 C 3.94 g/m*3 0.8 C 0 km/h
Sensor: Nr:Datum:Temp:Abs-Feuchte:Windchill:Wind:
Aussen-T/F 1176 05-12-2010 19:10:02 0.8 C 3.94 g/m*3 0.8 C 0 km/h
1177 05-12-2010 19:22:02 0.9 C 3.92 g/m*3 0.9 C 0 km/h
1178 05-12-2010 19:34:02 0.8 C 3.94 g/m*3 0.8 C 0 km/h
1179 05-12-2010 19:46:01 0.9 C 4.02 g/m*3 0.9 C 0 km/h
1180 05-12-2010 19:58:01 0.9 C 4.02 g/m*3 0.9 C 0 km/h
1181 05-12-2010 20:10:02 0.9 C 4.02 g/m*3 0.9 C 0 km/h
1182 05-12-2010 20:22:01 0.7 C 4.02 g/m*3 0.7 C 0 km/h
1183 05-12-2010 20:34:02 0.6 C 4.09 g/m*3 0.6 C 0 km/h
1184 05-12-2010 20:46:02 0.5 C 4.11 g/m*3 0.5 C 0 km/h
1185 05-12-2010 20:58:02 0.4 C 4.13 g/m*3 0.4 C 0 km/h
1186 05-12-2010 21:10:02 0.3 C 4.16 g/m*3 0.3 C 0 km/h
1187 05-12-2010 21:22:01 0.3 C 4.25 g/m*3 0.3 C 0 km/h
1188 05-12-2010 21:34:02 0.3 C 4.25 g/m*3 0.3 C 0 km/h
1189 05-12-2010 21:46:02 0.3 C 4.3 g/m*3 0.3 C 0 km/h
1190 05-12-2010 21:58:02 0.5 C 4.36 g/m*3 0.5 C 0 km/h
1191 05-12-2010 22:10:02 0.4 C 4.38 g/m*3 0.4 C 0 km/h
1192 05-12-2010 22:22:02 0.4 C 4.33 g/m*3 0.4 C 0 km/h
1193 05-12-2010 22:34:02 0.4 C 4.33 g/m*3 0.4 C 0 km/h
1194 05-12-2010 22:46:02 0.3 C 4.35 g/m*3 0.3 C 0 km/h
1195 05-12-2010 22:58:02 0.3 C 4.35 g/m*3 0.3 C 0 km/h
1196 05-12-2010 23:10:02 0.2 C 4.32 g/m*3 0.2 C 0 km/h
1197 05-12-2010 23:22:02 0.2 C 4.32 g/m*3 0.2 C 0 km/h
1198 05-12-2010 23:34:02 0.2 C 4.32 g/m*3 0.2 C 0 km/h
1199 05-12-2010 23:46:02 0.2 C 4.32 g/m*3 0.2 C 0 km/h
1200 05-12-2010 23:58:02 0.2 C 4.37 g/m*3 0.2 C 0 km/h
Sensor: Nr:Datum:Temp:Abs-Feuchte:Windchill:Wind:
Aussen-T/F 1201 06-12-2010 00:10:01 0.1 C 4.34 g/m*3 0.1 C 0 km/h
1202 06-12-2010 00:22:02 0.1 C 4.34 g/m*3 0.1 C 0 km/h
1203 06-12-2010 00:34:02 0.1 C 4.34 g/m*3 0.1 C 0 km/h
1204 06-12-2010 00:46:02 0.2 C 4.37 g/m*3 0.2 C 0 km/h
1205 06-12-2010 00:58:02 0.1 C 4.34 g/m*3 0.1 C 0 km/h
1206 06-12-2010 01:10:03 0.2 C 4.37 g/m*3 0.2 C 0 km/h
1207 06-12-2010 01:22:02 0.1 C 4.34 g/m*3 0.1 C 0 km/h
1208 06-12-2010 01:34:02 0.1 C 4.39 g/m*3 0.1 C 0 km/h
1209 06-12-2010 01:46:01 0.1 C 4.39 g/m*3 0.1 C 0 km/h
1210 06-12-2010 01:58:01 0.1 C 4.39 g/m*3 0.1 C 0 km/h
1211 06-12-2010 02:10:02 0.1 C 4.39 g/m*3 0.1 C 0 km/h
1212 06-12-2010 02:22:01 0.1 C 4.39 g/m*3 0.1 C 0 km/h
1213 06-12-2010 02:34:01 0.1 C 4.39 g/m*3 0.1 C 0 km/h
1214 06-12-2010 02:47:03 0.1 C 4.39 g/m*3 0.1 C 0 km/h
1215 06-12-2010 02:59:03 0.1 C 4.39 g/m*3 0.1 C 0 km/h
1216 06-12-2010 03:11:04 0.1 C 4.39 g/m*3 0.1 C 0 km/h
1217 06-12-2010 03:23:05 0.1 C 4.34 g/m*3 0.1 C 0 km/h
1218 06-12-2010 03:35:02 0.1 C 4.34 g/m*3 0.1 C 0 km/h
1219 06-12-2010 03:47:02 0.1 C 4.34 g/m*3 0.1 C 0 km/h
1220 06-12-2010 03:59:02 0.1 C 4.34 g/m*3 0.1 C 0 km/h
1221 06-12-2010 04:11:02 0.2 C 4.37 g/m*3 0.2 C 0 km/h
1222 06-12-2010 04:23:02 0.2 C 4.42 g/m*3 0.2 C 0 km/h
1223 06-12-2010 04:35:02 0.1 C 4.39 g/m*3 0.1 C 0 km/h
1224 06-12-2010 04:47:02 0.1 C 4.39 g/m*3 0.1 C 0 km/h
1225 06-12-2010 04:59:02 0.1 C 4.34 g/m*3 0.1 C 0 km/h
Sensor: Nr:Datum:Temp:Abs-Feuchte:Windchill:Wind:
Aussen-T/F 1226 06-12-2010 05:11:02 0 C 4.31 g/m*3 0 C 0 km/h
1227 06-12-2010 05:23:02 0 C 4.31 g/m*3 0 C 0 km/h
1228 06-12-2010 05:35:02 0.1 C 4.34 g/m*3 0.1 C 0 km/h
1229 06-12-2010 05:47:02 0 C 4.31 g/m*3 0 C 0 km/h
1230 06-12-2010 05:59:02 0.1 C 4.39 g/m*3 0.1 C 0 km/h
1231 06-12-2010 06:11:02 0.1 C 4.39 g/m*3 0.1 C 0 km/h
1232 06-12-2010 06:23:02 0 C 4.36 g/m*3 0 C 0 km/h
1233 06-12-2010 06:35:02 0 C 4.36 g/m*3 0 C 0 km/h
1234 06-12-2010 06:47:02 0 C 4.36 g/m*3 0 C 0 km/h
1235 06-12-2010 06:59:02 0 C 4.36 g/m*3 0 C 0 km/h
1236 06-12-2010 07:11:01 0 C 4.36 g/m*3 0 C 0 km/h
1237 06-12-2010 07:23:02 0 C 4.36 g/m*3 0 C 0 km/h
1238 06-12-2010 07:35:01 0 C 4.36 g/m*3 0 C 0 km/h
1239 06-12-2010 07:47:02 0 C 4.31 g/m*3 0 C 0 km/h
1240 06-12-2010 07:59:02 0 C 4.31 g/m*3 0 C 0 km/h
1241 06-12-2010 08:11:02 0 C 4.31 g/m*3 0 C 0 km/h
1242 06-12-2010 08:23:02 0 C 4.31 g/m*3 0 C 0 km/h
1243 06-12-2010 08:35:02 0 C 4.31 g/m*3 0 C 0 km/h
1244 06-12-2010 08:47:02 0.1 C 4.29 g/m*3 0.1 C 0 km/h
1245 06-12-2010 08:59:02 0.2 C 4.32 g/m*3 0.2 C 0 km/h
1246 06-12-2010 09:11:02 0.4 C 4.38 g/m*3 0.4 C 0 km/h
1247 06-12-2010 09:23:01 0.7 C 4.37 g/m*3 0.7 C 0 km/h
1248 06-12-2010 09:35:02 0.9 C 4.43 g/m*3 0.9 C 0 km/h
1249 06-12-2010 09:47:02 1.1 C 4.34 g/m*3 1.1 C 0 km/h
1250 06-12-2010 09:59:02 1.1 C 4.34 g/m*3 1.1 C 0 km/h
Sensor: Nr:Datum:Temp:Abs-Feuchte:Windchill:Wind:
Aussen-T/F 1251 06-12-2010 10:11:02 1.3 C 4.13 g/m*3 1.3 C 0 km/h
1252 06-12-2010 10:23:01 1.4 C 4.05 g/m*3 1.4 C 0 km/h
1253 06-12-2010 10:35:01 1.4 C 4.05 g/m*3 1.4 C 0 km/h
1254 06-12-2010 10:47:03 1.3 C 3.97 g/m*3 1.3 C 0 km/h
1255 06-12-2010 10:59:03 1.5 C 3.97 g/m*3 1.5 C 0 km/h
1256 06-12-2010 11:11:02 1.5 C 3.97 g/m*3 1.5 C 0 km/h
1257 06-12-2010 11:23:02 1.7 C 3.97 g/m*3 1.7 C 0 km/h
1258 06-12-2010 11:35:02 2 C 3.95 g/m*3 2 C 0 km/h
1259 06-12-2010 11:47:02 2 C 3.89 g/m*3 2 C 0 km/h
1260 06-12-2010 11:59:02 2.2 C 3.89 g/m*3 2.2 C 0 km/h
1261 06-12-2010 12:11:01 2.2 C 3.83 g/m*3 2.2 C 0 km/h
1262 06-12-2010 12:23:02 2.5 C 3.79 g/m*3 2.5 C 0 km/h
1263 06-12-2010 12:35:02 2.6 C 3.76 g/m*3 2.6 C 0 km/h
1264 06-12-2010 12:47:02 2.3 C 3.69 g/m*3 2.3 C 0 km/h
1265 06-12-2010 12:59:02 2.4 C 3.71 g/m*3 2.4 C 0 km/h
1266 06-12-2010 13:11:03 2.5 C 3.74 g/m*3 2.5 C 0 km/h
1267 06-12-2010 13:23:02 2.5 C 3.68 g/m*3 2.5 C 0 km/h
1268 06-12-2010 13:35:02 2.6 C 3.7 g/m*3 2.6 C 0 km/h
1269 06-12-2010 13:47:01 2.7 C 3.67 g/m*3 2.7 C 0 km/h
1270 06-12-2010 13:59:01 2.4 C 3.6 g/m*3 2.4 C 0 km/h
1271 06-12-2010 14:11:02 2.1 C 3.58 g/m*3 2.1 C 0 km/h
1272 06-12-2010 14:23:01 2.2 C 3.66 g/m*3 2.2 C 0 km/h
1273 06-12-2010 14:35:01 2 C 3.61 g/m*3 2 C 0 km/h
1274 06-12-2010 14:47:01 1.8 C 3.56 g/m*3 1.8 C 0 km/h
1275 06-12-2010 14:59:01 1.4 C 3.52 g/m*3 1.4 C 0 km/h
Sensor: Nr:Datum:Temp:Abs-Feuchte:Windchill:Wind:
Aussen-T/F 1276 06-12-2010 15:11:02 1.4 C 3.57 g/m*3 1.4 C 0 km/h
1277 06-12-2010 15:23:02 1.2 C 3.58 g/m*3 1.2 C 0 km/h
1278 06-12-2010 15:35:01 1 C 3.63 g/m*3 1 C 0 km/h
1279 06-12-2010 15:47:01 0.8 C 3.74 g/m*3 0.8 C 0 km/h
1280 06-12-2010 15:59:01 0.4 C 3.74 g/m*3 0.4 C 0 km/h
1281 06-12-2010 16:11:01 0 C 3.68 g/m*3 0 C 0 km/h
1282 06-12-2010 16:23:02 -0.2 C 3.68 g/m*3 -0.2 C 0 km/h
1283 06-12-2010 16:35:01 -0.3 C 3.7 g/m*3 -0.3 C 0 km/h
1284 06-12-2010 16:47:03 -0.4 C 3.68 g/m*3 -0.4 C 0 km/h
1285 06-12-2010 16:59:03 -0.4 C 3.72 g/m*3 -0.4 C 0 km/h
1286 06-12-2010 17:11:02 -0.5 C 3.7 g/m*3 -0.5 C 0 km/h
1287 06-12-2010 17:23:02 -0.6 C 3.72 g/m*3 -0.6 C 0 km/h
1288 06-12-2010 17:35:02 -0.7 C 3.74 g/m*3 -0.7 C 0 km/h
1289 06-12-2010 17:47:02 -0.8 C 3.71 g/m*3 -0.8 C 0 km/h
1290 06-12-2010 17:59:03 -0.8 C 3.76 g/m*3 -0.8 C 0 km/h
1291 06-12-2010 18:11:01 -1.1 C 3.68 g/m*3 -1.1 C 0 km/h
1292 06-12-2010 18:23:02 -1 C 3.75 g/m*3 -1 C 0 km/h
1293 06-12-2010 18:35:02 -0.8 C 3.8 g/m*3 -0.8 C 0 km/h
1294 06-12-2010 18:47:02 -0.7 C 3.83 g/m*3 -0.7 C 0 km/h
1295 06-12-2010 18:59:02 -0.9 C 3.73 g/m*3 -0.9 C 0 km/h
1296 06-12-2010 19:11:03 -0.8 C 3.76 g/m*3 -0.8 C 0 km/h
1297 06-12-2010 19:23:02 -0.9 C 3.73 g/m*3 -0.9 C 0 km/h
1298 06-12-2010 19:35:02 -0.8 C 3.76 g/m*3 -0.8 C 0 km/h
1299 06-12-2010 19:47:01 -0.9 C 3.73 g/m*3 -0.9 C 0 km/h
1300 06-12-2010 19:59:01 -0.8 C 3.76 g/m*3 -0.8 C 0 km/h
Sensor: Nr:Datum:Temp:Abs-Feuchte:Windchill:Wind:
Aussen-T/F 1301 06-12-2010 20:11:02 -1 C 3.71 g/m*3 -1 C 0 km/h
1302 06-12-2010 20:23:01 -1.2 C 3.66 g/m*3 -1.2 C 0 km/h
1303 06-12-2010 20:35:02 -1.1 C 3.68 g/m*3 -1.1 C 0 km/h
1304 06-12-2010 20:47:02 -1.2 C 3.66 g/m*3 -1.2 C 0 km/h
1305 06-12-2010 20:59:02 -1.2 C 3.66 g/m*3 -1.2 C 0 km/h
1306 06-12-2010 21:11:02 -1.3 C 3.63 g/m*3 -1.3 C 0 km/h
1307 06-12-2010 21:23:02 -1.3 C 3.63 g/m*3 -1.3 C 0 km/h
1308 06-12-2010 21:36:02 -1.2 C 3.66 g/m*3 -1.2 C 0 km/h
1309 06-12-2010 21:48:02 -1.3 C 3.63 g/m*3 -1.3 C 0 km/h
1310 06-12-2010 22:00:02 -1.5 C 3.58 g/m*3 -1.5 C 0 km/h
1311 06-12-2010 22:12:02 -1.4 C 3.65 g/m*3 -1.4 C 0 km/h
1312 06-12-2010 22:24:02 -1.3 C 3.67 g/m*3 -1.3 C 0 km/h
1313 06-12-2010 22:36:02 -1.1 C 3.73 g/m*3 -1.1 C 0 km/h
1314 06-12-2010 22:48:02 -0.9 C 3.78 g/m*3 -0.9 C 0 km/h
1315 06-12-2010 23:00:02 -0.8 C 3.76 g/m*3 -0.8 C 0 km/h
1316 06-12-2010 23:12:02 -0.6 C 3.81 g/m*3 -0.6 C 0 km/h
1317 06-12-2010 23:24:02 -0.5 C 3.79 g/m*3 -0.5 C 0 km/h
1318 06-12-2010 23:36:03 -0.6 C 3.72 g/m*3 -0.6 C 0 km/h
1319 06-12-2010 23:48:03 -0.9 C 3.64 g/m*3 -0.9 C 0 km/h
1320 07-12-2010 00:00:03 -0.8 C 3.67 g/m*3 -0.8 C 0 km/h
1321 07-12-2010 00:12:03 -0.8 C 3.67 g/m*3 -0.8 C 0 km/h
1322 07-12-2010 00:24:03 -0.9 C 3.64 g/m*3 -0.9 C 0 km/h
1323 07-12-2010 00:36:03 -1.4 C 3.47 g/m*3 -1.4 C 0 km/h
1324 07-12-2010 00:48:03 -1.4 C 3.56 g/m*3 -1.4 C 0 km/h
1325 07-12-2010 01:00:03 -1.4 C 3.6 g/m*3 -1.4 C 0 km/h
Sensor: Nr:Datum:Temp:Abs-Feuchte:Windchill:Wind:
Aussen-T/F 1326 07-12-2010 01:12:03 -1.4 C 3.6 g/m*3 -1.4 C 0 km/h
1327 07-12-2010 01:24:03 -1.4 C 3.6 g/m*3 -1.4 C 0 km/h
1328 07-12-2010 01:36:03 -0.9 C 3.78 g/m*3 -0.9 C 0 km/h
1329 07-12-2010 01:48:03 -0.7 C 3.83 g/m*3 -0.7 C 0 km/h
1330 07-12-2010 02:00:03 -0.6 C 3.81 g/m*3 -0.6 C 0 km/h
1331 07-12-2010 02:12:03 -0.5 C 3.79 g/m*3 -0.5 C 0 km/h
1332 07-12-2010 02:24:03 -0.5 C 3.79 g/m*3 -0.5 C 0 km/h
1333 07-12-2010 02:36:03 -0.6 C 3.72 g/m*3 -0.6 C 0 km/h
1334 07-12-2010 02:48:03 -0.6 C 3.72 g/m*3 -0.6 C 0 km/h
1335 07-12-2010 03:00:03 -0.5 C 3.74 g/m*3 -0.5 C 0 km/h
1336 07-12-2010 03:12:03 -0.5 C 3.74 g/m*3 -0.5 C 0 km/h
1337 07-12-2010 03:24:03 -0.6 C 3.72 g/m*3 -0.6 C 0 km/h
1338 07-12-2010 03:36:03 -0.6 C 3.72 g/m*3 -0.6 C 0 km/h
1339 07-12-2010 03:48:03 -0.6 C 3.72 g/m*3 -0.6 C 0 km/h
1340 07-12-2010 04:00:04 -0.6 C 3.76 g/m*3 -0.6 C 0 km/h
1341 07-12-2010 04:12:04 -0.7 C 3.69 g/m*3 -0.7 C 0 km/h
1342 07-12-2010 04:24:04 -0.7 C 3.69 g/m*3 -0.7 C 0 km/h
1343 07-12-2010 04:36:04 -0.9 C 3.64 g/m*3 -0.9 C 0 km/h
1344 07-12-2010 04:48:04 -0.8 C 3.71 g/m*3 -0.8 C 0 km/h
1345 07-12-2010 05:00:04 -1 C 3.66 g/m*3 -1 C 0 km/h
1346 07-12-2010 05:12:04 -1 C 3.66 g/m*3 -1 C 0 km/h
1347 07-12-2010 05:24:04 -0.9 C 3.69 g/m*3 -0.9 C 0 km/h
1348 07-12-2010 05:36:04 -0.9 C 3.69 g/m*3 -0.9 C 0 km/h
1349 07-12-2010 05:48:04 -0.9 C 3.69 g/m*3 -0.9 C 0 km/h
1350 07-12-2010 06:00:04 -0.8 C 3.71 g/m*3 -0.8 C 0 km/h
Sensor: Nr:Datum:Temp:Abs-Feuchte:Windchill:Wind:
Aussen-T/F 1351 07-12-2010 06:12:04 -0.7 C 3.69 g/m*3 -0.7 C 0 km/h
1352 07-12-2010 06:24:04 -0.7 C 3.69 g/m*3 -0.7 C 0 km/h
1353 07-12-2010 06:36:04 -0.8 C 3.67 g/m*3 -0.8 C 0 km/h
1354 07-12-2010 06:48:04 -0.9 C 3.64 g/m*3 -0.9 C 0 km/h
1355 07-12-2010 07:00:04 -1 C 3.57 g/m*3 -1 C 0 km/h
1356 07-12-2010 07:12:04 -1 C 3.57 g/m*3 -1 C 0 km/h
1357 07-12-2010 07:24:01 -1 C 3.57 g/m*3 -1 C 0 km/h
1358 07-12-2010 07:36:02 -1 C 3.57 g/m*3 -1 C 0 km/h
1359 07-12-2010 07:48:02 -1 C 3.57 g/m*3 -1 C 0 km/h
1360 07-12-2010 08:00:02 -1 C 3.57 g/m*3 -1 C 0 km/h
1361 07-12-2010 08:12:02 -0.9 C 3.6 g/m*3 -0.9 C 0 km/h
1362 07-12-2010 08:24:02 -0.9 C 3.6 g/m*3 -0.9 C 0 km/h
1363 07-12-2010 08:36:02 -0.8 C 3.62 g/m*3 -0.8 C 0 km/h
1364 07-12-2010 08:48:02 -0.6 C 3.63 g/m*3 -0.6 C 0 km/h
1365 07-12-2010 09:00:02 -0.6 C 3.63 g/m*3 -0.6 C 0 km/h
1366 07-12-2010 09:12:02 -0.5 C 3.65 g/m*3 -0.5 C 0 km/h
1367 07-12-2010 09:24:02 -0.5 C 3.56 g/m*3 -0.5 C 0 km/h
1368 07-12-2010 09:36:02 -0.3 C 3.61 g/m*3 -0.3 C 0 km/h
1369 07-12-2010 09:48:02 -0.1 C 3.61 g/m*3 -0.1 C 0 km/h
1370 07-12-2010 10:00:02 0.2 C 3.64 g/m*3 0.2 C 0 km/h
1371 07-12-2010 10:12:01 0.1 C 3.56 g/m*3 0.1 C 0 km/h
1372 07-12-2010 10:24:02 0.1 C 3.61 g/m*3 0.1 C 0 km/h
1373 07-12-2010 10:36:02 0.3 C 3.61 g/m*3 0.3 C 0 km/h
1374 07-12-2010 10:48:01 0.2 C 3.59 g/m*3 0.2 C 0 km/h
1375 07-12-2010 11:00:02 0.2 C 3.59 g/m*3 0.2 C 0 km/h
Sensor: Nr:Datum:Temp:Abs-Feuchte:Windchill:Wind:
Aussen-T/F 1376 07-12-2010 11:12:01 0.5 C 3.61 g/m*3 0.5 C 0 km/h
1377 07-12-2010 11:24:01 0.3 C 3.51 g/m*3 0.3 C 0 km/h
1378 07-12-2010 11:36:02 0.8 C 3.69 g/m*3 0.8 C 0 km/h
1379 07-12-2010 11:48:02 1 C 3.63 g/m*3 1 C 0 km/h
1380 07-12-2010 12:00:02 1 C 3.63 g/m*3 1 C 0 km/h
1381 07-12-2010 12:12:02 0.7 C 3.56 g/m*3 0.7 C 0 km/h
1382 07-12-2010 12:24:02 1 C 3.63 g/m*3 1 C 0 km/h
1383 07-12-2010 12:36:02 1.3 C 3.66 g/m*3 1.3 C 0 km/h
1384 07-12-2010 12:48:02 1.6 C 3.68 g/m*3 1.6 C 0 km/h
1385 07-12-2010 13:00:02 2.1 C 3.58 g/m*3 2.1 C 0 km/h
1386 07-12-2010 13:12:02 1.2 C 3.58 g/m*3 1.2 C 0 km/h
1387 07-12-2010 13:24:02 1.5 C 3.71 g/m*3 1.5 C 0 km/h
1388 07-12-2010 13:36:02 1.2 C 3.58 g/m*3 1.2 C 0 km/h
1389 07-12-2010 13:48:02 1.2 C 3.58 g/m*3 1.2 C 0 km/h
1390 07-12-2010 14:00:02 1.2 C 3.58 g/m*3 1.2 C 0 km/h
1391 07-12-2010 14:12:02 1.2 C 3.63 g/m*3 1.2 C 0 km/h
1392 07-12-2010 14:24:02 1.3 C 3.71 g/m*3 1.3 C 0 km/h
1393 07-12-2010 14:36:02 0.9 C 3.71 g/m*3 0.9 C 0 km/h
1394 07-12-2010 14:48:02 0.7 C 3.71 g/m*3 0.7 C 0 km/h
1395 07-12-2010 15:00:02 0.7 C 3.76 g/m*3 0.7 C 0 km/h
1396 07-12-2010 15:12:02 0.6 C 3.74 g/m*3 0.6 C 0 km/h
1397 07-12-2010 15:24:02 0.4 C 3.79 g/m*3 0.4 C 0 km/h
1398 07-12-2010 15:36:02 0.2 C 3.83 g/m*3 0.2 C 0 km/h
1399 07-12-2010 15:48:02 0.1 C 3.9 g/m*3 0.1 C 0 km/h
1400 07-12-2010 16:00:02 0 C 3.97 g/m*3 0 C 0 km/h
Sensor: Nr:Datum:Temp:Abs-Feuchte:Windchill:Wind:
Aussen-T/F 1401 07-12-2010 16:12:01 -0.2 C 4.01 g/m*3 -0.2 C 0 km/h
1402 07-12-2010 16:24:02 -0.3 C 4.03 g/m*3 -0.3 C 0 km/h
1403 07-12-2010 16:36:02 -0.3 C 4.13 g/m*3 -0.3 C 0 km/h
1404 07-12-2010 16:48:02 -0.3 C 4.13 g/m*3 -0.3 C 0 km/h
1405 07-12-2010 17:00:02 -0.3 C 4.18 g/m*3 -0.3 C 0 km/h
1406 07-12-2010 17:12:03 -0.3 C 4.18 g/m*3 -0.3 C 0 km/h
1407 07-12-2010 17:24:02 -0.3 C 4.22 g/m*3 -0.3 C 0 km/h
1408 07-12-2010 17:36:02 -0.3 C 4.22 g/m*3 -0.3 C 0 km/h
1409 07-12-2010 17:48:01 -0.3 C 4.22 g/m*3 -0.3 C 0 km/h
1410 07-12-2010 18:00:01 -0.3 C 4.22 g/m*3 -0.3 C 0 km/h
1411 07-12-2010 18:12:02 -0.3 C 4.22 g/m*3 -0.3 C 0 km/h
1412 07-12-2010 18:24:01 -0.3 C 4.27 g/m*3 -0.3 C 0 km/h
1413 07-12-2010 18:36:02 -0.2 C 4.3 g/m*3 -0.2 C 0 km/h
1414 07-12-2010 18:48:01 -0.2 C 4.3 g/m*3 -0.2 C 0 km/h
1415 07-12-2010 19:00:01 -0.2 C 4.3 g/m*3 -0.2 C 0 km/h
1416 07-12-2010 19:12:02 -0.2 C 4.3 g/m*3 -0.2 C 0 km/h
1417 07-12-2010 19:24:02 -0.2 C 4.3 g/m*3 -0.2 C 0 km/h
1418 07-12-2010 19:36:01 -0.2 C 4.3 g/m*3 -0.2 C 0 km/h
1419 07-12-2010 19:48:02 -0.2 C 4.35 g/m*3 -0.2 C 0 km/h
1420 07-12-2010 20:00:02 -0.1 C 4.38 g/m*3 -0.1 C 0 km/h
1421 07-12-2010 20:12:01 -0.2 C 4.35 g/m*3 -0.2 C 0 km/h
1422 07-12-2010 20:24:02 -0.2 C 4.35 g/m*3 -0.2 C 0 km/h
1423 07-12-2010 20:36:01 -0.2 C 4.35 g/m*3 -0.2 C 0 km/h
1424 07-12-2010 20:48:02 -0.1 C 4.38 g/m*3 -0.1 C 0 km/h
1425 07-12-2010 21:00:02 -0.2 C 4.35 g/m*3 -0.2 C 0 km/h
Sensor: Nr:Datum:Temp:Abs-Feuchte:Windchill:Wind:
Aussen-T/F 1426 07-12-2010 21:12:01 -0.2 C 4.35 g/m*3 -0.2 C 0 km/h
1427 07-12-2010 21:24:01 -0.2 C 4.35 g/m*3 -0.2 C 0 km/h
1428 07-12-2010 21:36:01 -0.2 C 4.35 g/m*3 -0.2 C 0 km/h
1429 07-12-2010 21:48:02 -0.2 C 4.4 g/m*3 -0.2 C 0 km/h
1430 07-12-2010 22:00:03 -0.1 C 4.43 g/m*3 -0.1 C 0 km/h
1431 07-12-2010 22:12:02 -0.2 C 4.4 g/m*3 -0.2 C 0 km/h
1432 07-12-2010 22:25:02 -0.2 C 4.4 g/m*3 -0.2 C 0 km/h
1433 07-12-2010 22:37:02 -0.2 C 4.4 g/m*3 -0.2 C 0 km/h
1434 07-12-2010 22:49:02 -0.2 C 4.4 g/m*3 -0.2 C 0 km/h
1435 07-12-2010 23:01:02 -0.2 C 4.4 g/m*3 -0.2 C 0 km/h
1436 07-12-2010 23:13:02 -0.2 C 4.4 g/m*3 -0.2 C 0 km/h
1437 07-12-2010 23:25:02 -0.2 C 4.4 g/m*3 -0.2 C 0 km/h
1438 07-12-2010 23:37:02 -0.2 C 4.4 g/m*3 -0.2 C 0 km/h
1439 07-12-2010 23:49:02 -0.2 C 4.4 g/m*3 -0.2 C 0 km/h
1440 08-12-2010 00:01:02 -0.2 C 4.4 g/m*3 -0.2 C 0 km/h
1441 08-12-2010 00:13:02 -0.2 C 4.4 g/m*3 -0.2 C 0 km/h
1442 08-12-2010 00:25:02 -0.2 C 4.4 g/m*3 -0.2 C 0 km/h
1443 08-12-2010 00:37:02 -0.2 C 4.4 g/m*3 -0.2 C 0 km/h
1444 08-12-2010 00:49:02 -0.2 C 4.4 g/m*3 -0.2 C 0 km/h
1445 08-12-2010 01:01:02 -0.2 C 4.4 g/m*3 -0.2 C 0 km/h
1446 08-12-2010 01:13:02 -0.2 C 4.4 g/m*3 -0.2 C 0 km/h
1447 08-12-2010 01:25:02 -0.2 C 4.4 g/m*3 -0.2 C 0 km/h
1448 08-12-2010 01:37:03 -0.2 C 4.4 g/m*3 -0.2 C 0 km/h
1449 08-12-2010 01:49:03 -0.2 C 4.4 g/m*3 -0.2 C 0 km/h
1450 08-12-2010 02:01:03 -0.2 C 4.4 g/m*3 -0.2 C 0 km/h
Sensor: Nr:Datum:Temp:Abs-Feuchte:Windchill:Wind:
Aussen-T/F 1451 08-12-2010 02:13:03 -0.1 C 4.43 g/m*3 -0.1 C 0 km/h
1452 08-12-2010 02:25:03 -0.1 C 4.43 g/m*3 -0.1 C 0 km/h
1453 08-12-2010 02:37:03 -0.2 C 4.4 g/m*3 -0.2 C 0 km/h
1454 08-12-2010 02:49:03 -0.2 C 4.4 g/m*3 -0.2 C 0 km/h
1455 08-12-2010 03:01:03 -0.2 C 4.4 g/m*3 -0.2 C 0 km/h
1456 08-12-2010 03:13:03 -0.2 C 4.4 g/m*3 -0.2 C 0 km/h
1457 08-12-2010 03:25:03 -0.2 C 4.4 g/m*3 -0.2 C 0 km/h
1458 08-12-2010 03:37:03 -0.2 C 4.4 g/m*3 -0.2 C 0 km/h
1459 08-12-2010 03:49:03 -0.1 C 4.43 g/m*3 -0.1 C 0 km/h
1460 08-12-2010 04:01:03 -0.1 C 4.43 g/m*3 -0.1 C 0 km/h
1461 08-12-2010 04:13:03 -0.1 C 4.43 g/m*3 -0.1 C 0 km/h
1462 08-12-2010 04:25:03 -0.1 C 4.43 g/m*3 -0.1 C 0 km/h
1463 08-12-2010 04:37:03 -0.1 C 4.43 g/m*3 -0.1 C 0 km/h
1464 08-12-2010 04:49:03 0 C 4.46 g/m*3 0 C 0 km/h
1465 08-12-2010 05:01:03 -0.1 C 4.43 g/m*3 -0.1 C 0 km/h
1466 08-12-2010 05:13:03 0 C 4.46 g/m*3 0 C 0 km/h
1467 08-12-2010 05:25:03 -0.1 C 4.47 g/m*3 -0.1 C 0 km/h
1468 08-12-2010 05:37:03 -0.1 C 4.47 g/m*3 -0.1 C 0 km/h
1469 08-12-2010 05:49:03 -0.1 C 4.47 g/m*3 -0.1 C 0 km/h
1470 08-12-2010 06:01:04 -0.1 C 4.47 g/m*3 -0.1 C 0 km/h
1471 08-12-2010 06:13:04 0 C 4.51 g/m*3 0 C 0 km/h
1472 08-12-2010 06:25:04 -0.1 C 4.47 g/m*3 -0.1 C 0 km/h
1473 08-12-2010 06:37:04 0 C 4.51 g/m*3 0 C 0 km/h
1474 08-12-2010 06:49:04 -0.1 C 4.47 g/m*3 -0.1 C 0 km/h
1475 08-12-2010 07:01:04 0 C 4.51 g/m*3 0 C 0 km/h
Sensor: Nr:Datum:Temp:Abs-Feuchte:Windchill:Wind:
Aussen-T/F 1476 08-12-2010 07:13:04 -0.1 C 4.47 g/m*3 -0.1 C 0 km/h
1477 08-12-2010 07:25:04 0 C 4.51 g/m*3 0 C 0 km/h
1478 08-12-2010 07:37:04 0 C 4.51 g/m*3 0 C 0 km/h
1479 08-12-2010 07:49:04 0 C 4.51 g/m*3 0 C 0 km/h
1480 08-12-2010 08:01:04 0 C 4.51 g/m*3 0 C 0 km/h
1481 08-12-2010 08:13:04 0 C 4.51 g/m*3 0 C 0 km/h
1482 08-12-2010 08:25:04 0 C 4.51 g/m*3 0 C 0 km/h
1483 08-12-2010 08:37:04 0 C 4.51 g/m*3 0 C 0 km/h
1484 08-12-2010 08:49:04 0 C 4.51 g/m*3 0 C 0 km/h
1485 08-12-2010 09:01:01 0.1 C 4.54 g/m*3 0.1 C 0 km/h
1486 08-12-2010 09:13:01 0.1 C 4.54 g/m*3 0.1 C 0 km/h
1487 08-12-2010 09:25:02 0.1 C 4.54 g/m*3 0.1 C 0 km/h
1488 08-12-2010 09:37:01 0.1 C 4.54 g/m*3 0.1 C 0 km/h
1489 08-12-2010 09:49:02 0 C 4.51 g/m*3 0 C 0 km/h
1490 08-12-2010 10:01:02 0.1 C 4.54 g/m*3 0.1 C 0 km/h
1491 08-12-2010 10:13:02 0.1 C 4.54 g/m*3 0.1 C 0 km/h
1492 08-12-2010 10:25:02 0.2 C 4.57 g/m*3 0.2 C 0 km/h
1493 08-12-2010 10:37:02 0.2 C 4.57 g/m*3 0.2 C 0 km/h
1494 08-12-2010 10:49:02 0.3 C 4.6 g/m*3 0.3 C 0 km/h
1495 08-12-2010 11:01:02 0.3 C 4.65 g/m*3 0.3 C 0 km/h
1496 08-12-2010 11:13:02 0.3 C 4.65 g/m*3 0.3 C 0 km/h
1497 08-12-2010 11:25:01 0.4 C 4.63 g/m*3 0.4 C 0 km/h
1498 08-12-2010 11:37:02 0.3 C 4.6 g/m*3 0.3 C 0 km/h
1499 08-12-2010 11:49:02 0.4 C 4.63 g/m*3 0.4 C 0 km/h
1500 08-12-2010 12:01:02 0.5 C 4.66 g/m*3 0.5 C 0 km/h
Sensor: Nr:Datum:Temp:Abs-Feuchte:Windchill:Wind:
Aussen-T/F 1501 08-12-2010 12:13:02 0.6 C 4.7 g/m*3 0.6 C 0 km/h
1502 08-12-2010 12:25:02 0.5 C 4.66 g/m*3 0.5 C 0 km/h
1503 08-12-2010 12:37:02 0.6 C 4.7 g/m*3 0.6 C 0 km/h
1504 08-12-2010 12:49:02 0.6 C 4.65 g/m*3 0.6 C 0 km/h
1505 08-12-2010 13:01:02 0.5 C 4.61 g/m*3 0.5 C 0 km/h
1506 08-12-2010 13:13:02 0.6 C 4.6 g/m*3 0.6 C 0 km/h
1507 08-12-2010 13:25:02 0.7 C 4.63 g/m*3 0.7 C 0 km/h
1508 08-12-2010 13:37:02 0.7 C 4.58 g/m*3 0.7 C 0 km/h
1509 08-12-2010 13:49:01 0.6 C 4.49 g/m*3 0.6 C 0 km/h
1510 08-12-2010 14:01:01 0.6 C 4.49 g/m*3 0.6 C 0 km/h
1511 08-12-2010 14:13:01 0.4 C 4.43 g/m*3 0.4 C 0 km/h
1512 08-12-2010 14:25:01 0.4 C 4.43 g/m*3 0.4 C 0 km/h
1513 08-12-2010 14:37:01 0.4 C 4.43 g/m*3 0.4 C 0 km/h
1514 08-12-2010 14:49:01 0.3 C 4.4 g/m*3 0.3 C 0 km/h
1515 08-12-2010 15:01:01 0.2 C 4.37 g/m*3 0.2 C 0 km/h
1516 08-12-2010 15:13:01 0 C 4.31 g/m*3 0 C 0 km/h
1517 08-12-2010 15:25:02 -0.1 C 4.28 g/m*3 -0.1 C 0 km/h
1518 08-12-2010 15:37:01 -0.2 C 4.25 g/m*3 -0.2 C 0 km/h
1519 08-12-2010 15:49:03 -0.3 C 4.22 g/m*3 -0.3 C 0 km/h
1520 08-12-2010 16:01:02 -0.3 C 4.22 g/m*3 -0.3 C 0 km/h
1521 08-12-2010 16:13:02 -0.3 C 4.27 g/m*3 -0.3 C 0 km/h
1522 08-12-2010 16:25:03 -0.3 C 4.27 g/m*3 -0.3 C 0 km/h
1523 08-12-2010 16:37:02 -0.3 C 4.27 g/m*3 -0.3 C 0 km/h
1524 08-12-2010 16:49:02 -0.3 C 4.27 g/m*3 -0.3 C 0 km/h
1525 08-12-2010 17:01:02 -0.3 C 4.27 g/m*3 -0.3 C 0 km/h
Sensor: Nr:Datum:Temp:Abs-Feuchte:Windchill:Wind:
Aussen-T/F 1526 08-12-2010 17:13:02 -0.3 C 4.27 g/m*3 -0.3 C 0 km/h
1527 08-12-2010 17:25:02 -0.3 C 4.27 g/m*3 -0.3 C 0 km/h
1528 08-12-2010 17:37:02 -0.3 C 4.27 g/m*3 -0.3 C 0 km/h
1529 08-12-2010 17:49:02 -0.6 C 4.14 g/m*3 -0.6 C 0 km/h
1530 08-12-2010 18:01:01 -0.7 C 4.11 g/m*3 -0.7 C 0 km/h
1531 08-12-2010 18:13:01 -0.7 C 4.11 g/m*3 -0.7 C 0 km/h
1532 08-12-2010 18:25:01 -0.7 C 4.11 g/m*3 -0.7 C 0 km/h
1533 08-12-2010 18:37:02 -0.8 C 4.08 g/m*3 -0.8 C 0 km/h
1534 08-12-2010 18:49:02 -0.8 C 4.08 g/m*3 -0.8 C 0 km/h
1535 08-12-2010 19:01:02 -0.8 C 4.08 g/m*3 -0.8 C 0 km/h
1536 08-12-2010 19:13:02 -0.8 C 4.08 g/m*3 -0.8 C 0 km/h
1537 08-12-2010 19:25:02 -1 C 4.02 g/m*3 -1 C 0 km/h
1538 08-12-2010 19:37:02 -1 C 4.02 g/m*3 -1 C 0 km/h
1539 08-12-2010 19:49:01 -1 C 4.07 g/m*3 -1 C 0 km/h
1540 08-12-2010 20:01:01 -1 C 4.07 g/m*3 -1 C 0 km/h
1541 08-12-2010 20:13:01 -1 C 4.02 g/m*3 -1 C 0 km/h
1542 08-12-2010 20:25:01 -1.1 C 4 g/m*3 -1.1 C 0 km/h
1543 08-12-2010 20:37:02 -1.1 C 4 g/m*3 -1.1 C 0 km/h
1544 08-12-2010 20:49:02 -1.1 C 4 g/m*3 -1.1 C 0 km/h
1545 08-12-2010 21:01:02 -1.2 C 3.97 g/m*3 -1.2 C 0 km/h
1546 08-12-2010 21:13:02 -1.2 C 3.97 g/m*3 -1.2 C 0 km/h
1547 08-12-2010 21:25:02 -1.2 C 3.97 g/m*3 -1.2 C 0 km/h
1548 08-12-2010 21:37:02 -1.3 C 3.9 g/m*3 -1.3 C 0 km/h
1549 08-12-2010 21:49:02 -1.3 C 3.9 g/m*3 -1.3 C 0 km/h
1550 08-12-2010 22:01:02 -1.4 C 3.87 g/m*3 -1.4 C 0 km/h
Sensor: Nr:Datum:Temp:Abs-Feuchte:Windchill:Wind:
Aussen-T/F 1551 08-12-2010 22:13:02 -1.4 C 3.82 g/m*3 -1.4 C 0 km/h
1552 08-12-2010 22:25:02 -1.4 C 3.82 g/m*3 -1.4 C 0 km/h
1553 08-12-2010 22:38:04 -1.5 C 3.8 g/m*3 -1.5 C 0 km/h
1554 08-12-2010 22:50:04 -1.5 C 3.8 g/m*3 -1.5 C 0 km/h
1555 08-12-2010 23:02:04 -1.3 C 3.81 g/m*3 -1.3 C 0 km/h
1556 08-12-2010 23:14:04 -1.3 C 3.76 g/m*3 -1.3 C 0 km/h
1557 08-12-2010 23:26:04 -1.3 C 3.72 g/m*3 -1.3 C 0 km/h
1558 08-12-2010 23:38:04 -1.3 C 3.72 g/m*3 -1.3 C 0 km/h
1559 08-12-2010 23:50:04 -1.3 C 3.67 g/m*3 -1.3 C 0 km/h
1560 09-12-2010 00:02:04 -1.3 C 3.67 g/m*3 -1.3 C 0 km/h
1561 09-12-2010 00:14:04 -1.3 C 3.67 g/m*3 -1.3 C 0 km/h
1562 09-12-2010 00:26:04 -1.3 C 3.67 g/m*3 -1.3 C 0 km/h
1563 09-12-2010 00:38:04 -1.3 C 3.63 g/m*3 -1.3 C 0 km/h
1564 09-12-2010 00:50:05 -1.4 C 3.56 g/m*3 -1.4 C 0 km/h
1565 09-12-2010 01:02:05 -1.4 C 3.56 g/m*3 -1.4 C 0 km/h
1566 09-12-2010 01:14:05 -1.5 C 3.58 g/m*3 -1.5 C 0 km/h
1567 09-12-2010 01:26:05 -1.5 C 3.58 g/m*3 -1.5 C 0 km/h
1568 09-12-2010 01:38:05 -1.6 C 3.55 g/m*3 -1.6 C 0 km/h
1569 09-12-2010 01:50:05 -1.6 C 3.51 g/m*3 -1.6 C 0 km/h
1570 09-12-2010 02:02:05 -1.7 C 3.53 g/m*3 -1.7 C 0 km/h
1571 09-12-2010 02:14:05 -1.7 C 3.49 g/m*3 -1.7 C 0 km/h
1572 09-12-2010 02:26:05 -1.8 C 3.51 g/m*3 -1.8 C 0 km/h
1573 09-12-2010 02:38:05 -1.7 C 3.62 g/m*3 -1.7 C 0 km/h
1574 09-12-2010 02:50:05 -1.8 C 3.63 g/m*3 -1.8 C 0 km/h
1575 09-12-2010 03:02:05 -1.7 C 3.7 g/m*3 -1.7 C 0 km/h
Sensor: Nr:Datum:Temp:Abs-Feuchte:Windchill:Wind:
Aussen-T/F 1576 09-12-2010 03:14:05 -1.7 C 3.7 g/m*3 -1.7 C 0 km/h
1577 09-12-2010 03:26:05 -1.7 C 3.7 g/m*3 -1.7 C 0 km/h
1578 09-12-2010 03:38:05 -1.7 C 3.7 g/m*3 -1.7 C 0 km/h
1579 09-12-2010 03:50:05 -1.7 C 3.66 g/m*3 -1.7 C 0 km/h
1580 09-12-2010 04:02:05 -1.6 C 3.68 g/m*3 -1.6 C 0 km/h
1581 09-12-2010 04:14:05 -1.4 C 3.78 g/m*3 -1.4 C 0 km/h
1582 09-12-2010 04:26:05 -1.6 C 3.73 g/m*3 -1.6 C 0 km/h
1583 09-12-2010 04:38:05 -1.7 C 3.7 g/m*3 -1.7 C 0 km/h
1584 09-12-2010 04:50:05 -1.8 C 3.72 g/m*3 -1.8 C 0 km/h
1585 09-12-2010 05:02:05 -1.9 C 3.69 g/m*3 -1.9 C 0 km/h
1586 09-12-2010 05:14:05 -1.2 C 3.88 g/m*3 -1.2 C 0 km/h
1587 09-12-2010 05:26:06 -0.8 C 3.9 g/m*3 -0.8 C 0 km/h
1588 09-12-2010 05:38:06 -0.7 C 3.88 g/m*3 -0.7 C 0 km/h
1589 09-12-2010 05:50:06 -0.6 C 3.86 g/m*3 -0.6 C 0 km/h
1590 09-12-2010 06:02:06 -0.7 C 3.83 g/m*3 -0.7 C 0 km/h
1591 09-12-2010 06:14:06 -0.5 C 3.88 g/m*3 -0.5 C 0 km/h
1592 09-12-2010 06:26:06 -0.3 C 3.94 g/m*3 -0.3 C 0 km/h
1593 09-12-2010 06:38:06 -0.3 C 3.94 g/m*3 -0.3 C 0 km/h
1594 09-12-2010 06:50:06 -0.3 C 3.89 g/m*3 -0.3 C 0 km/h
1595 09-12-2010 07:02:06 -0.3 C 3.94 g/m*3 -0.3 C 0 km/h
1596 09-12-2010 07:14:06 -0.3 C 3.94 g/m*3 -0.3 C 0 km/h
1597 09-12-2010 07:26:06 -0.3 C 3.94 g/m*3 -0.3 C 0 km/h
1598 09-12-2010 07:38:03 -0.3 C 3.94 g/m*3 -0.3 C 0 km/h
1599 09-12-2010 07:50:02 -0.2 C 4.01 g/m*3 -0.2 C 0 km/h
1600 09-12-2010 08:02:02 -0.3 C 3.99 g/m*3 -0.3 C 0 km/h
Sensor: Nr:Datum:Temp:Abs-Feuchte:Windchill:Wind:
Aussen-T/F 1601 09-12-2010 08:14:02 -0.2 C 3.97 g/m*3 -0.2 C 0 km/h
1602 09-12-2010 08:26:01 -0.3 C 3.94 g/m*3 -0.3 C 0 km/h
1603 09-12-2010 08:38:02 -0.5 C 3.84 g/m*3 -0.5 C 0 km/h
1604 09-12-2010 08:50:02 -0.6 C 3.81 g/m*3 -0.6 C 0 km/h
1605 09-12-2010 09:02:02 -0.3 C 3.89 g/m*3 -0.3 C 0 km/h
1606 09-12-2010 09:14:02 -0.2 C 3.92 g/m*3 -0.2 C 0 km/h
1607 09-12-2010 09:26:02 0 C 3.92 g/m*3 0 C 0 km/h
1608 09-12-2010 09:38:02 0.2 C 3.98 g/m*3 0.2 C 0 km/h
1609 09-12-2010 09:50:02 -0.1 C 3.95 g/m*3 -0.1 C 0 km/h
1610 09-12-2010 10:02:02 0.1 C 4.05 g/m*3 0.1 C 0 km/h
1611 09-12-2010 10:14:02 0.2 C 4.03 g/m*3 0.2 C 0 km/h
1612 09-12-2010 10:26:02 0.3 C 4.01 g/m*3 0.3 C 0 km/h
1613 09-12-2010 10:38:02 0.6 C 3.99 g/m*3 0.6 C 0 km/h
1614 09-12-2010 10:50:02 0.4 C 3.93 g/m*3 0.4 C 0 km/h
1615 09-12-2010 11:02:02 0.7 C 4.02 g/m*3 0.7 C 0 km/h
1616 09-12-2010 11:14:02 0.7 C 4.02 g/m*3 0.7 C 0 km/h
1617 09-12-2010 11:26:02 0.7 C 4.07 g/m*3 0.7 C 0 km/h
1618 09-12-2010 11:38:02 1 C 4.1 g/m*3 1 C 0 km/h
1619 09-12-2010 11:50:02 0.9 C 4.12 g/m*3 0.9 C 0 km/h
1620 09-12-2010 12:02:02 1.4 C 4.21 g/m*3 1.4 C 0 km/h
1621 09-12-2010 12:14:02 2.2 C 4.22 g/m*3 2.2 C 0 km/h
1622 09-12-2010 12:26:02 2.4 C 4.11 g/m*3 2.4 C 0 km/h
1623 09-12-2010 12:38:01 2.7 C 3.96 g/m*3 2.7 C 0 km/h
1624 09-12-2010 12:50:02 2.2 C 3.83 g/m*3 2.2 C 0 km/h
1625 09-12-2010 13:02:01 1.7 C 4.03 g/m*3 1.7 C 0 km/h
Sensor: Nr:Datum:Temp:Abs-Feuchte:Windchill:Wind:
Aussen-T/F 1626 09-12-2010 13:14:01 1.5 C 4.19 g/m*3 1.5 C 0 km/h
1627 09-12-2010 13:26:01 1.6 C 4.22 g/m*3 1.6 C 0 km/h
1628 09-12-2010 13:38:02 2 C 4.17 g/m*3 2 C 0 km/h
1629 09-12-2010 13:50:02 1.9 C 3.92 g/m*3 1.9 C 0 km/h
1630 09-12-2010 14:02:02 2.3 C 3.91 g/m*3 2.3 C 0 km/h
1631 09-12-2010 14:14:02 2.2 C 3.89 g/m*3 2.2 C 0 km/h
1632 09-12-2010 14:26:02 2.1 C 3.86 g/m*3 2.1 C 0 km/h
1633 09-12-2010 14:38:02 2 C 4 g/m*3 2 C 0 km/h
1634 09-12-2010 14:50:02 2 C 3.95 g/m*3 2 C 0 km/h
1635 09-12-2010 15:02:02 1.6 C 3.95 g/m*3 1.6 C 0 km/h
1636 09-12-2010 15:14:02 1.4 C 3.89 g/m*3 1.4 C 0 km/h
1637 09-12-2010 15:26:02 2 C 3.72 g/m*3 2 C 0 km/h
1638 09-12-2010 15:38:02 2 C 3.61 g/m*3 2 C 0 km/h
1639 09-12-2010 15:50:02 2.2 C 3.55 g/m*3 2.2 C 0 km/h
1640 09-12-2010 16:02:02 1.9 C 3.53 g/m*3 1.9 C 0 km/h
1641 09-12-2010 16:14:02 1.7 C 3.59 g/m*3 1.7 C 0 km/h
1642 09-12-2010 16:26:03 0.9 C 3.61 g/m*3 0.9 C 0 km/h
1643 09-12-2010 16:38:02 1.6 C 3.79 g/m*3 1.6 C 0 km/h
1644 09-12-2010 16:50:02 1.5 C 3.76 g/m*3 1.5 C 0 km/h
1645 09-12-2010 17:02:02 1.6 C 3.79 g/m*3 1.6 C 0 km/h
1646 09-12-2010 17:14:02 1.5 C 3.81 g/m*3 1.5 C 0 km/h
1647 09-12-2010 17:26:02 1.5 C 3.92 g/m*3 1.5 C 0 km/h
1648 09-12-2010 17:38:02 1.5 C 3.97 g/m*3 1.5 C 0 km/h
1649 09-12-2010 17:50:02 1.4 C 3.95 g/m*3 1.4 C 0 km/h
1650 09-12-2010 18:02:01 1.7 C 4.03 g/m*3 1.7 C 0 km/h
Sensor: Nr:Datum:Temp:Abs-Feuchte:Windchill:Wind:
Aussen-T/F 1651 09-12-2010 18:14:01 1.5 C 3.97 g/m*3 1.5 C 0 km/h
1652 09-12-2010 18:26:02 1.7 C 4.08 g/m*3 1.7 C 0 km/h
1653 09-12-2010 18:38:02 1.5 C 4.03 g/m*3 1.5 C 0 km/h
1654 09-12-2010 18:50:02 2 C 4.06 g/m*3 2 C 0 km/h
1655 09-12-2010 19:02:03 2 C 3.89 g/m*3 2 C 0 km/h
1656 09-12-2010 19:14:03 2.3 C 3.91 g/m*3 2.3 C 0 km/h
1657 09-12-2010 19:26:02 2.2 C 3.89 g/m*3 2.2 C 0 km/h
1658 09-12-2010 19:38:02 2.2 C 3.89 g/m*3 2.2 C 0 km/h
1659 09-12-2010 19:50:01 2.1 C 3.92 g/m*3 2.1 C 0 km/h
1660 09-12-2010 20:02:02 2 C 3.95 g/m*3 2 C 0 km/h
1661 09-12-2010 20:14:02 2.5 C 4.02 g/m*3 2.5 C 0 km/h
1662 09-12-2010 20:26:01 2.6 C 3.99 g/m*3 2.6 C 0 km/h
1663 09-12-2010 20:39:03 2.7 C 4.02 g/m*3 2.7 C 0 km/h
1664 09-12-2010 20:51:03 2.4 C 4 g/m*3 2.4 C 0 km/h
1665 09-12-2010 21:03:03 2.6 C 4.11 g/m*3 2.6 C 0 km/h
1666 09-12-2010 21:15:03 2.6 C 4.05 g/m*3 2.6 C 0 km/h
1667 09-12-2010 21:27:03 2.6 C 4.05 g/m*3 2.6 C 0 km/h
1668 09-12-2010 21:39:03 2.6 C 3.99 g/m*3 2.6 C 0 km/h
1669 09-12-2010 21:51:03 2.5 C 4.08 g/m*3 2.5 C 0 km/h
1670 09-12-2010 22:03:03 2.8 C 4.11 g/m*3 2.8 C 0 km/h
1671 09-12-2010 22:15:03 2.7 C 4.08 g/m*3 2.7 C 0 km/h
1672 09-12-2010 22:27:03 2.4 C 4.11 g/m*3 2.4 C 0 km/h
1673 09-12-2010 22:39:04 2.4 C 4.17 g/m*3 2.4 C 0 km/h
1674 09-12-2010 22:51:04 1.9 C 4.3 g/m*3 1.9 C 0 km/h
1675 09-12-2010 23:03:04 1.6 C 4.33 g/m*3 1.6 C 0 km/h
Sensor: Nr:Datum:Temp:Abs-Feuchte:Windchill:Wind:
Aussen-T/F 1676 09-12-2010 23:15:04 1.4 C 4.37 g/m*3 1.4 C 0 km/h
1677 09-12-2010 23:27:04 1.4 C 4.43 g/m*3 1.4 C 0 km/h
1678 09-12-2010 23:39:04 1.6 C 4.54 g/m*3 1.6 C 0 km/h
1679 09-12-2010 23:51:04 1.5 C 4.46 g/m*3 1.5 C 0 km/h
1680 10-12-2010 00:03:04 1.6 C 4.49 g/m*3 1.6 C 0 km/h
1681 10-12-2010 00:15:04 1.6 C 4.43 g/m*3 1.6 C 0 km/h
1682 10-12-2010 00:27:04 2 C 4.45 g/m*3 2 C 0 km/h
1683 10-12-2010 00:39:04 2.1 C 4.36 g/m*3 2.1 C 0 km/h
1684 10-12-2010 00:51:04 2.2 C 4.34 g/m*3 2.2 C 0 km/h
1685 10-12-2010 01:03:04 2.1 C 4.36 g/m*3 2.1 C 0 km/h
1686 10-12-2010 01:15:04 1.9 C 4.36 g/m*3 1.9 C 0 km/h
1687 10-12-2010 01:27:04 2 C 4.39 g/m*3 2 C 0 km/h
1688 10-12-2010 01:39:04 2.1 C 4.36 g/m*3 2.1 C 0 km/h
1689 10-12-2010 01:51:04 2.1 C 4.31 g/m*3 2.1 C 0 km/h
1690 10-12-2010 02:03:04 2.3 C 4.2 g/m*3 2.3 C 0 km/h
1691 10-12-2010 02:15:04 1.8 C 4.17 g/m*3 1.8 C 0 km/h
1692 10-12-2010 02:27:04 1.4 C 4.16 g/m*3 1.4 C 0 km/h
1693 10-12-2010 02:39:04 1.6 C 4.38 g/m*3 1.6 C 0 km/h
1694 10-12-2010 02:51:04 1.4 C 4.37 g/m*3 1.4 C 0 km/h
1695 10-12-2010 03:03:05 1 C 4.31 g/m*3 1 C 0 km/h
1696 10-12-2010 03:15:05 1.3 C 4.5 g/m*3 1.3 C 0 km/h
1697 10-12-2010 03:27:05 1.2 C 4.53 g/m*3 1.2 C 0 km/h
1698 10-12-2010 03:39:05 1.3 C 4.61 g/m*3 1.3 C 0 km/h
1699 10-12-2010 03:51:05 1.4 C 4.64 g/m*3 1.4 C 0 km/h
1700 10-12-2010 04:03:05 1.4 C 4.69 g/m*3 1.4 C 0 km/h
Sensor: Nr:Datum:Temp:Abs-Feuchte:Windchill:Wind:
Aussen-T/F 1701 10-12-2010 04:15:05 1.2 C 4.63 g/m*3 1.2 C 0 km/h
1702 10-12-2010 04:27:05 1.4 C 4.69 g/m*3 1.4 C 0 km/h
1703 10-12-2010 04:39:05 2 C 4.89 g/m*3 2 C 0 km/h
1704 10-12-2010 04:51:05 2.5 C 5.06 g/m*3 2.5 C 0 km/h
1705 10-12-2010 05:03:05 2.8 C 5.04 g/m*3 2.8 C 0 km/h
1706 10-12-2010 05:15:05 2.6 C 4.86 g/m*3 2.6 C 0 km/h
1707 10-12-2010 05:27:05 2.4 C 4.8 g/m*3 2.4 C 0 km/h
1708 10-12-2010 05:39:05 2.4 C 4.85 g/m*3 2.4 C 0 km/h
1709 10-12-2010 05:51:05 2.4 C 4.8 g/m*3 2.4 C 0 km/h
1710 10-12-2010 06:03:05 2.2 C 4.79 g/m*3 2.2 C 0 km/h
1711 10-12-2010 06:15:05 2.1 C 4.76 g/m*3 2.1 C 0 km/h
1712 10-12-2010 06:27:05 2 C 4.72 g/m*3 2 C 0 km/h
1713 10-12-2010 06:39:05 1.5 C 4.67 g/m*3 1.5 C 0 km/h
1714 10-12-2010 06:51:05 1.4 C 4.69 g/m*3 1.4 C 0 km/h
1715 10-12-2010 07:03:05 1.2 C 4.63 g/m*3 1.2 C 0 km/h
1716 10-12-2010 07:15:02 1.1 C 4.65 g/m*3 1.1 C 0 km/h
1717 10-12-2010 07:27:03 1.1 C 4.65 g/m*3 1.1 C 0 km/h
1718 10-12-2010 07:39:02 0.5 C 4.46 g/m*3 0.5 C 0 km/h
1719 10-12-2010 07:51:03 -0.1 C 4.28 g/m*3 -0.1 C 0 km/h
1720 10-12-2010 08:03:02 -0.2 C 4.3 g/m*3 -0.2 C 0 km/h
1721 10-12-2010 08:15:02 -0.4 C 4.24 g/m*3 -0.4 C 0 km/h
1722 10-12-2010 08:27:02 -0.3 C 4.27 g/m*3 -0.3 C 0 km/h
1723 10-12-2010 08:39:02 -0.3 C 4.32 g/m*3 -0.3 C 0 km/h
1724 10-12-2010 08:51:02 -0.4 C 4.29 g/m*3 -0.4 C 0 km/h
1725 10-12-2010 09:03:02 -0.6 C 4.23 g/m*3 -0.6 C 0 km/h
Sensor: Nr:Datum:Temp:Abs-Feuchte:Windchill:Wind:
Aussen-T/F 1726 10-12-2010 09:15:02 -0.7 C 4.2 g/m*3 -0.7 C 0 km/h
1727 10-12-2010 09:27:02 -0.6 C 4.23 g/m*3 -0.6 C 0 km/h
1728 10-12-2010 09:39:02 0 C 4.41 g/m*3 0 C 0 km/h
1729 10-12-2010 09:51:02 -0.1 C 4.43 g/m*3 -0.1 C 0 km/h
1730 10-12-2010 10:03:01 -0.3 C 4.32 g/m*3 -0.3 C 0 km/h
1731 10-12-2010 10:15:01 0 C 4.41 g/m*3 0 C 0 km/h
1732 10-12-2010 10:27:02 0 C 4.41 g/m*3 0 C 0 km/h
1733 10-12-2010 10:39:01 0.2 C 4.52 g/m*3 0.2 C 0 km/h
1734 10-12-2010 10:51:03 0.4 C 4.58 g/m*3 0.4 C 0 km/h
1735 10-12-2010 11:03:02 0.2 C 4.47 g/m*3 0.2 C 0 km/h
1736 10-12-2010 11:15:02 1.1 C 4.76 g/m*3 1.1 C 0 km/h
1737 10-12-2010 11:27:02 1.6 C 4.92 g/m*3 1.6 C 0 km/h
1738 10-12-2010 11:39:02 2 C 5 g/m*3 2 C 0 km/h
1739 10-12-2010 11:51:02 2 C 4.95 g/m*3 2 C 0 km/h
1740 10-12-2010 12:03:01 2.3 C 5.05 g/m*3 2.3 C 0 km/h
1741 10-12-2010 12:15:02 2.2 C 4.96 g/m*3 2.2 C 0 km/h
1742 10-12-2010 12:27:02 2.4 C 5.02 g/m*3 2.4 C 0 km/h
1743 10-12-2010 12:39:02 2.3 C 4.93 g/m*3 2.3 C 0 km/h
1744 10-12-2010 12:51:02 2 C 4.78 g/m*3 2 C 0 km/h
1745 10-12-2010 13:03:03 2.6 C 4.98 g/m*3 2.6 C 0 km/h
1746 10-12-2010 13:15:02 2.7 C 4.95 g/m*3 2.7 C 0 km/h
1747 10-12-2010 13:27:02 3 C 4.88 g/m*3 3 C 0 km/h
1748 10-12-2010 13:39:02 3.4 C 4.95 g/m*3 3.4 C 0 km/h
1749 10-12-2010 13:51:01 3.1 C 4.73 g/m*3 3.1 C 0 km/h
1750 10-12-2010 14:03:02 3.1 C 4.67 g/m*3 3.1 C 0 km/h
Sensor: Nr:Datum:Temp:Abs-Feuchte:Windchill:Wind:
Aussen-T/F 1751 10-12-2010 14:15:01 3.1 C 4.67 g/m*3 3.1 C 0 km/h
1752 10-12-2010 14:27:01 2.9 C 4.67 g/m*3 2.9 C 0 km/h
1753 10-12-2010 14:39:01 2.7 C 4.66 g/m*3 2.7 C 0 km/h
1754 10-12-2010 14:51:01 2.3 C 4.59 g/m*3 2.3 C 0 km/h
1755 10-12-2010 15:03:01 2.2 C 4.62 g/m*3 2.2 C 0 km/h
1756 10-12-2010 15:15:02 1.8 C 4.6 g/m*3 1.8 C 0 km/h
1757 10-12-2010 15:27:02 1.8 C 4.66 g/m*3 1.8 C 0 km/h
1758 10-12-2010 15:39:01 1.6 C 4.65 g/m*3 1.6 C 0 km/h
1759 10-12-2010 15:51:02 1.5 C 4.67 g/m*3 1.5 C 0 km/h
1760 10-12-2010 16:03:01 1.5 C 4.73 g/m*3 1.5 C 0 km/h
1761 10-12-2010 16:15:01 1.5 C 4.78 g/m*3 1.5 C 0 km/h
1762 10-12-2010 16:27:02 1.4 C 4.75 g/m*3 1.4 C 0 km/h
1763 10-12-2010 16:39:01 1.6 C 4.87 g/m*3 1.6 C 0 km/h
1764 10-12-2010 16:51:02 1.7 C 4.9 g/m*3 1.7 C 0 km/h
1765 10-12-2010 17:03:01 1.9 C 4.97 g/m*3 1.9 C 0 km/h
1766 10-12-2010 17:15:02 1.6 C 4.87 g/m*3 1.6 C 0 km/h
1767 10-12-2010 17:27:02 1.6 C 4.87 g/m*3 1.6 C 0 km/h
1768 10-12-2010 17:39:02 2.3 C 5.1 g/m*3 2.3 C 0 km/h
1769 10-12-2010 17:51:01 1.8 C 4.93 g/m*3 1.8 C 0 km/h
1770 10-12-2010 18:03:02 1.7 C 4.9 g/m*3 1.7 C 0 km/h
1771 10-12-2010 18:15:01 2 C 5 g/m*3 2 C 0 km/h
1772 10-12-2010 18:27:01 2.2 C 5.01 g/m*3 2.2 C 0 km/h
1773 10-12-2010 18:39:02 1.8 C 4.88 g/m*3 1.8 C 0 km/h
1774 10-12-2010 18:51:02 1.6 C 4.87 g/m*3 1.6 C 0 km/h
1775 10-12-2010 19:03:02 2 C 4.95 g/m*3 2 C 0 km/h
Sensor: Nr:Datum:Temp:Abs-Feuchte:Windchill:Wind:
Aussen-T/F 1776 10-12-2010 19:15:01 2.2 C 5.01 g/m*3 2.2 C 0 km/h
1777 10-12-2010 19:27:01 2.5 C 5.06 g/m*3 2.5 C 0 km/h
1778 10-12-2010 19:39:02 2.3 C 4.93 g/m*3 2.3 C 0 km/h
1779 10-12-2010 19:51:02 2.4 C 4.91 g/m*3 2.4 C 0 km/h
1780 10-12-2010 20:03:02 2.4 C 4.91 g/m*3 2.4 C 0 km/h
1781 10-12-2010 20:15:01 2.7 C 5.01 g/m*3 2.7 C 0 km/h
1782 10-12-2010 20:27:01 2.8 C 4.99 g/m*3 2.8 C 0 km/h
1783 10-12-2010 20:39:02 2.5 C 4.83 g/m*3 2.5 C 0 km/h
1784 10-12-2010 20:51:01 2.6 C 4.92 g/m*3 2.6 C 0 km/h
1785 10-12-2010 21:03:02 2.5 C 4.89 g/m*3 2.5 C 0 km/h
1786 10-12-2010 21:15:02 2.5 C 4.83 g/m*3 2.5 C 0 km/h
1787 10-12-2010 21:27:02 2.4 C 4.8 g/m*3 2.4 C 0 km/h
1788 10-12-2010 21:39:02 2.6 C 4.86 g/m*3 2.6 C 0 km/h
1789 10-12-2010 21:51:02 2.5 C 4.89 g/m*3 2.5 C 0 km/h
1790 10-12-2010 22:03:02 2.5 C 4.89 g/m*3 2.5 C 0 km/h
1791 10-12-2010 22:15:01 2.6 C 4.86 g/m*3 2.6 C 0 km/h
1792 10-12-2010 22:27:01 2.4 C 4.85 g/m*3 2.4 C 0 km/h
1793 10-12-2010 22:39:02 2.5 C 4.89 g/m*3 2.5 C 0 km/h
1794 10-12-2010 22:51:01 2.6 C 4.86 g/m*3 2.6 C 0 km/h
1795 10-12-2010 23:03:02 2.4 C 4.8 g/m*3 2.4 C 0 km/h
1796 10-12-2010 23:15:02 2.3 C 4.82 g/m*3 2.3 C 0 km/h
1797 10-12-2010 23:27:02 2.1 C 4.87 g/m*3 2.1 C 0 km/h
1798 10-12-2010 23:39:02 2.2 C 4.9 g/m*3 2.2 C 0 km/h
1799 10-12-2010 23:51:01 2.2 C 4.9 g/m*3 2.2 C 0 km/h
1800 11-12-2010 00:03:02 2.2 C 4.96 g/m*3 2.2 C 0 km/h
Sensor: Nr:Datum:Temp:Abs-Feuchte:Windchill:Wind:
Aussen-T/F 1801 11-12-2010 00:15:02 2.3 C 4.99 g/m*3 2.3 C 0 km/h
1802 11-12-2010 00:27:02 2.1 C 4.92 g/m*3 2.1 C 0 km/h
1803 11-12-2010 00:39:01 2.2 C 5.01 g/m*3 2.2 C 0 km/h
1804 11-12-2010 00:51:02 2.1 C 4.98 g/m*3 2.1 C 0 km/h
1805 11-12-2010 01:03:01 2.3 C 5.05 g/m*3 2.3 C 0 km/h
1806 11-12-2010 01:15:02 2.4 C 5.08 g/m*3 2.4 C 0 km/h
1807 11-12-2010 01:27:03 2.5 C 5.12 g/m*3 2.5 C 0 km/h
1808 11-12-2010 01:39:01 2.5 C 5.06 g/m*3 2.5 C 0 km/h
1809 11-12-2010 01:51:02 2.6 C 5.09 g/m*3 2.6 C 0 km/h
1810 11-12-2010 02:03:02 2.7 C 5.13 g/m*3 2.7 C 0 km/h
1811 11-12-2010 02:15:02 2.8 C 5.16 g/m*3 2.8 C 0 km/h
1812 11-12-2010 02:27:02 2.8 C 5.16 g/m*3 2.8 C 0 km/h
1813 11-12-2010 02:39:03 2.6 C 5.09 g/m*3 2.6 C 0 km/h
1814 11-12-2010 02:51:01 2.7 C 5.13 g/m*3 2.7 C 0 km/h
1815 11-12-2010 03:03:01 2.6 C 5.09 g/m*3 2.6 C 0 km/h
1816 11-12-2010 03:15:02 2.7 C 5.13 g/m*3 2.7 C 0 km/h
1817 11-12-2010 03:27:02 2.3 C 4.99 g/m*3 2.3 C 0 km/h
1818 11-12-2010 03:39:02 2.3 C 5.05 g/m*3 2.3 C 0 km/h
1819 11-12-2010 03:51:02 2.8 C 5.22 g/m*3 2.8 C 0 km/h
1820 11-12-2010 04:03:01 3.3 C 5.34 g/m*3 3.3 C 0 km/h
1821 11-12-2010 04:15:01 3 C 5.17 g/m*3 3 C 0 km/h
1822 11-12-2010 04:27:01 3 C 5.17 g/m*3 3 C 0 km/h
1823 11-12-2010 04:39:02 3.5 C 5.29 g/m*3 3.5 C 0 km/h
1824 11-12-2010 04:51:01 3.5 C 5.23 g/m*3 3.5 C 0 km/h
1825 11-12-2010 05:03:02 4 C 5.28 g/m*3 4 C 0 km/h
Sensor: Nr:Datum:Temp:Abs-Feuchte:Windchill:Wind:
Aussen-T/F 1826 11-12-2010 05:15:01 4 C 5.21 g/m*3 4 C 0 km/h
1827 11-12-2010 05:27:01 3.8 C 5.14 g/m*3 3.8 C 0 km/h
1828 11-12-2010 05:39:02 3.8 C 5.14 g/m*3 3.8 C 0 km/h
1829 11-12-2010 05:51:01 3.7 C 5.17 g/m*3 3.7 C 0 km/h
1830 11-12-2010 06:03:02 3.6 C 5.2 g/m*3 3.6 C 0 km/h
1831 11-12-2010 06:15:01 3.1 C 5.03 g/m*3 3.1 C 0 km/h
1832 11-12-2010 06:27:01 3.4 C 5.19 g/m*3 3.4 C 0 km/h
1833 11-12-2010 06:39:01 3.4 C 5.19 g/m*3 3.4 C 0 km/h
1834 11-12-2010 06:51:01 3.3 C 5.16 g/m*3 3.3 C 0 km/h
1835 11-12-2010 07:03:01 3.6 C 5.32 g/m*3 3.6 C 0 km/h
1836 11-12-2010 07:15:01 3.9 C 5.31 g/m*3 3.9 C 0 km/h
1837 11-12-2010 07:27:01 4.5 C 5.26 g/m*3 4.5 C 0 km/h
1838 11-12-2010 07:39:01 4.5 C 5.13 g/m*3 4.5 C 0 km/h
1839 11-12-2010 07:51:01 4.2 C 5.03 g/m*3 4.2 C 0 km/h
1840 11-12-2010 08:03:01 4.6 C 5.16 g/m*3 4.6 C 0 km/h
1841 11-12-2010 08:15:02 4.7 C 5.06 g/m*3 4.7 C 0 km/h
1842 11-12-2010 08:27:02 5 C 4.96 g/m*3 5 C 0 km/h
1843 11-12-2010 08:39:01 5.1 C 4.92 g/m*3 5.1 C 0 km/h
1844 11-12-2010 08:51:02 4.9 C 4.93 g/m*3 4.9 C 0 km/h
1845 11-12-2010 09:03:01 4.5 C 4.86 g/m*3 4.5 C 0 km/h
1846 11-12-2010 09:15:02 4.3 C 4.99 g/m*3 4.3 C 0 km/h
1847 11-12-2010 09:27:02 4 C 4.9 g/m*3 4 C 0 km/h
1848 11-12-2010 09:39:01 4 C 5.15 g/m*3 4 C 0 km/h
1849 11-12-2010 09:51:02 4 C 5.28 g/m*3 4 C 0 km/h
1850 11-12-2010 10:03:01 3.9 C 5.37 g/m*3 3.9 C 0 km/h
Sensor: Nr:Datum:Temp:Abs-Feuchte:Windchill:Wind:
Aussen-T/F 1851 11-12-2010 10:15:01 4 C 5.4 g/m*3 4 C 0 km/h
1852 11-12-2010 10:27:01 4 C 5.4 g/m*3 4 C 0 km/h
1853 11-12-2010 10:39:02 3.8 C 5.33 g/m*3 3.8 C 0 km/h
1854 11-12-2010 10:51:01 3.8 C 5.4 g/m*3 3.8 C 0 km/h
1855 11-12-2010 11:03:02 4.1 C 5.38 g/m*3 4.1 C 0 km/h
1856 11-12-2010 11:15:01 4.2 C 5.35 g/m*3 4.2 C 0 km/h
1857 11-12-2010 11:27:01 4.5 C 5.39 g/m*3 4.5 C 0 km/h
1858 11-12-2010 11:39:02 4.4 C 5.35 g/m*3 4.4 C 0 km/h
1859 11-12-2010 11:51:01 4.3 C 5.38 g/m*3 4.3 C 0 km/h
1860 11-12-2010 12:03:02 4.3 C 5.45 g/m*3 4.3 C 0 km/h
1861 11-12-2010 12:15:01 4.4 C 5.55 g/m*3 4.4 C 0 km/h
1862 11-12-2010 12:27:01 4.6 C 5.62 g/m*3 4.6 C 0 km/h
1863 11-12-2010 12:39:01 4.6 C 5.62 g/m*3 4.6 C 0 km/h
1864 11-12-2010 12:51:01 4.8 C 5.57 g/m*3 4.8 C 0 km/h
1865 11-12-2010 13:03:01 4.8 C 5.5 g/m*3 4.8 C 0 km/h
1866 11-12-2010 13:15:01 4.8 C 5.43 g/m*3 4.8 C 0 km/h
1867 11-12-2010 13:27:01 4.8 C 5.36 g/m*3 4.8 C 0 km/h
1868 11-12-2010 13:39:01 4.9 C 5.33 g/m*3 4.9 C 0 km/h
1869 11-12-2010 13:51:01 5 C 5.3 g/m*3 5 C 0 km/h
1870 11-12-2010 14:03:01 4.8 C 5.3 g/m*3 4.8 C 0 km/h
1871 11-12-2010 14:15:02 4.9 C 5.33 g/m*3 4.9 C 0 km/h
1872 11-12-2010 14:27:02 4.8 C 5.3 g/m*3 4.8 C 0 km/h
1873 11-12-2010 14:39:01 4.9 C 5.33 g/m*3 4.9 C 0 km/h
1874 11-12-2010 14:51:02 5.1 C 5.27 g/m*3 5.1 C 0 km/h
1875 11-12-2010 15:03:01 5.1 C 5.27 g/m*3 5.1 C 0 km/h
Sensor: Nr:Datum:Temp:Abs-Feuchte:Windchill:Wind:
Aussen-T/F 1876 11-12-2010 15:15:02 5.1 C 5.2 g/m*3 5.1 C 0 km/h
1877 11-12-2010 15:27:02 5.2 C 5.16 g/m*3 5.2 C 0 km/h
1878 11-12-2010 15:39:01 5.1 C 5.13 g/m*3 5.1 C 0 km/h
1879 11-12-2010 15:51:02 4.8 C 5.16 g/m*3 4.8 C 0 km/h
1880 11-12-2010 16:03:01 4.7 C 5.2 g/m*3 4.7 C 0 km/h
1881 11-12-2010 16:15:01 4.6 C 5.23 g/m*3 4.6 C 0 km/h
1882 11-12-2010 16:27:01 5.1 C 5.27 g/m*3 5.1 C 0 km/h
1883 11-12-2010 16:39:02 5.1 C 5.27 g/m*3 5.1 C 0 km/h
1884 11-12-2010 16:51:01 5 C 5.23 g/m*3 5 C 0 km/h
1885 11-12-2010 17:03:02 5 C 5.16 g/m*3 5 C 0 km/h
1886 11-12-2010 17:15:01 5.4 C 5.23 g/m*3 5.4 C 0 km/h
1887 11-12-2010 17:27:01 5.5 C 5.2 g/m*3 5.5 C 0 km/h
1888 11-12-2010 17:39:02 5.1 C 5.2 g/m*3 5.1 C 0 km/h
1889 11-12-2010 17:51:01 4.8 C 5.3 g/m*3 4.8 C 0 km/h
1890 11-12-2010 18:03:02 4.7 C 5.26 g/m*3 4.7 C 0 km/h
1891 11-12-2010 18:15:01 4.4 C 5.16 g/m*3 4.4 C 0 km/h
1892 11-12-2010 18:27:01 4.2 C 5.15 g/m*3 4.2 C 0 km/h
1893 11-12-2010 18:39:01 3.9 C 5.24 g/m*3 3.9 C 0 km/h
1894 11-12-2010 18:51:01 3.9 C 5.24 g/m*3 3.9 C 0 km/h
1895 11-12-2010 19:03:01 4.1 C 5.25 g/m*3 4.1 C 0 km/h
1896 11-12-2010 19:15:02 4.2 C 5.22 g/m*3 4.2 C 0 km/h
1897 11-12-2010 19:27:02 4 C 5.15 g/m*3 4 C 0 km/h
1898 11-12-2010 19:39:01 4.4 C 5.22 g/m*3 4.4 C 0 km/h
1899 11-12-2010 19:51:01 4.6 C 5.16 g/m*3 4.6 C 0 km/h
1900 11-12-2010 20:03:01 4.5 C 5.06 g/m*3 4.5 C 0 km/h
Sensor: Nr:Datum:Temp:Abs-Feuchte:Windchill:Wind:
Aussen-T/F 1901 11-12-2010 20:15:02 4.4 C 5.03 g/m*3 4.4 C 0 km/h
1902 11-12-2010 20:27:02 5.4 C 5.02 g/m*3 5.4 C 0 km/h
1903 11-12-2010 20:39:01 5 C 4.89 g/m*3 5 C 0 km/h
1904 11-12-2010 20:51:02 4.8 C 5.03 g/m*3 4.8 C 0 km/h
1905 11-12-2010 21:03:01 4.9 C 5.06 g/m*3 4.9 C 0 km/h
1906 11-12-2010 21:15:01 4.8 C 5.03 g/m*3 4.8 C 0 km/h
1907 11-12-2010 21:27:02 4.1 C 4.99 g/m*3 4.1 C 0 km/h
1908 11-12-2010 21:39:01 4 C 5.02 g/m*3 4 C 0 km/h
1909 11-12-2010 21:51:02 4.2 C 5.09 g/m*3 4.2 C 0 km/h
1910 11-12-2010 22:03:01 4.5 C 5.13 g/m*3 4.5 C 0 km/h
1911 11-12-2010 22:15:01 4.2 C 5.03 g/m*3 4.2 C 0 km/h
1912 11-12-2010 22:27:01 4.5 C 5.13 g/m*3 4.5 C 0 km/h
1913 11-12-2010 22:40:19 4.4 C 4.96 g/m*3 4.4 C 0 km/h
1914 11-12-2010 22:52:19 3.9 C 4.93 g/m*3 3.9 C 0 km/h
1915 11-12-2010 23:04:19 4.6 C 5.03 g/m*3 4.6 C 0 km/h
1916 11-12-2010 23:16:20 4.8 C 4.9 g/m*3 4.8 C 0 km/h
1917 11-12-2010 23:28:20 4.8 C 4.9 g/m*3 4.8 C 0 km/h
1918 11-12-2010 23:40:20 4.5 C 4.8 g/m*3 4.5 C 0 km/h
1919 11-12-2010 23:52:20 4.6 C 4.83 g/m*3 4.6 C 0 km/h
1920 12-12-2010 00:04:20 4.6 C 4.83 g/m*3 4.6 C 0 km/h
1921 12-12-2010 00:16:20 4.4 C 4.96 g/m*3 4.4 C 0 km/h
1922 12-12-2010 00:28:20 4.2 C 4.96 g/m*3 4.2 C 0 km/h
1923 12-12-2010 00:40:20 4.1 C 5.06 g/m*3 4.1 C 0 km/h
1924 12-12-2010 00:52:20 4 C 5.02 g/m*3 4 C 0 km/h
1925 12-12-2010 01:04:20 4.3 C 5.06 g/m*3 4.3 C 0 km/h
Sensor: Nr:Datum:Temp:Abs-Feuchte:Windchill:Wind:
Aussen-T/F 1926 12-12-2010 01:16:20 4.7 C 4.86 g/m*3 4.7 C 0 km/h
1927 12-12-2010 01:28:20 4.8 C 4.83 g/m*3 4.8 C 0 km/h
1928 12-12-2010 01:40:20 5 C 4.76 g/m*3 5 C 0 km/h
1929 12-12-2010 01:52:20 5.4 C 4.67 g/m*3 5.4 C 0 km/h
1930 12-12-2010 02:04:20 5.3 C 4.64 g/m*3 5.3 C 0 km/h
1931 12-12-2010 02:16:20 5.3 C 4.57 g/m*3 5.3 C 0 km/h
1932 12-12-2010 02:28:20 4.6 C 4.57 g/m*3 4.6 C 0 km/h
1933 12-12-2010 02:40:21 4.2 C 4.51 g/m*3 4.2 C 0 km/h
1934 12-12-2010 02:52:21 4.7 C 4.6 g/m*3 4.7 C 0 km/h
1935 12-12-2010 03:04:21 4.8 C 4.56 g/m*3 4.8 C 0 km/h
1936 12-12-2010 03:16:21 4.7 C 4.46 g/m*3 4.7 C 0 km/h
1937 12-12-2010 03:28:21 4.2 C 4.57 g/m*3 4.2 C 0 km/h
1938 12-12-2010 03:40:21 3.7 C 4.8 g/m*3 3.7 C 0 km/h
1939 12-12-2010 03:52:21 3.6 C 4.89 g/m*3 3.6 C 0 km/h
1940 12-12-2010 04:04:21 3.5 C 5.04 g/m*3 3.5 C 0 km/h
1941 12-12-2010 04:16:21 3.5 C 5.1 g/m*3 3.5 C 0 km/h
1942 12-12-2010 04:28:21 3.6 C 5.2 g/m*3 3.6 C 0 km/h
1943 12-12-2010 04:40:21 3.8 C 5.27 g/m*3 3.8 C 0 km/h
1944 12-12-2010 04:52:21 4 C 5.28 g/m*3 4 C 0 km/h
1945 12-12-2010 05:04:21 4 C 5.28 g/m*3 4 C 0 km/h
1946 12-12-2010 05:16:21 3.2 C 4.94 g/m*3 3.2 C 0 km/h
1947 12-12-2010 05:28:21 3.2 C 5.06 g/m*3 3.2 C 0 km/h
1948 12-12-2010 05:40:21 3.6 C 5.26 g/m*3 3.6 C 0 km/h
1949 12-12-2010 05:52:21 3.2 C 5 g/m*3 3.2 C 0 km/h
1950 12-12-2010 06:04:21 2.8 C 4.93 g/m*3 2.8 C 0 km/h
Sensor: Nr:Datum:Temp:Abs-Feuchte:Windchill:Wind:
Aussen-T/F 1951 12-12-2010 06:16:21 2.5 C 4.89 g/m*3 2.5 C 0 km/h
1952 12-12-2010 06:28:21 2.9 C 5.14 g/m*3 2.9 C 0 km/h
1953 12-12-2010 06:40:22 3.5 C 5.29 g/m*3 3.5 C 0 km/h
1954 12-12-2010 06:52:22 3.5 C 5.1 g/m*3 3.5 C 0 km/h
1955 12-12-2010 07:04:22 3.6 C 5.01 g/m*3 3.6 C 0 km/h
1956 12-12-2010 07:16:22 3.8 C 5.02 g/m*3 3.8 C 0 km/h
1957 12-12-2010 07:28:22 4 C 4.9 g/m*3 4 C 0 km/h
1958 12-12-2010 07:40:22 3.9 C 4.86 g/m*3 3.9 C 0 km/h
1959 12-12-2010 07:52:22 4 C 4.83 g/m*3 4 C 0 km/h
1960 12-12-2010 08:04:22 4 C 4.83 g/m*3 4 C 0 km/h
1961 12-12-2010 08:16:22 3.8 C 4.83 g/m*3 3.8 C 0 km/h
1962 12-12-2010 08:28:22 3.5 C 4.8 g/m*3 3.5 C 0 km/h
1963 12-12-2010 08:40:04 3.4 C 4.95 g/m*3 3.4 C 0 km/h
1964 12-12-2010 08:52:02 3.4 C 4.95 g/m*3 3.4 C 0 km/h
1965 12-12-2010 09:04:02 3.4 C 4.95 g/m*3 3.4 C 0 km/h
1966 12-12-2010 09:16:02 3.5 C 4.98 g/m*3 3.5 C 0 km/h
1967 12-12-2010 09:28:02 3.9 C 4.99 g/m*3 3.9 C 0 km/h
1968 12-12-2010 09:40:03 3.9 C 4.93 g/m*3 3.9 C 0 km/h
1969 12-12-2010 09:52:02 3.8 C 4.96 g/m*3 3.8 C 0 km/h
1970 12-12-2010 10:04:01 3.8 C 4.89 g/m*3 3.8 C 0 km/h
1971 12-12-2010 10:16:02 3.8 C 4.96 g/m*3 3.8 C 0 km/h
1972 12-12-2010 10:28:02 3.9 C 5.05 g/m*3 3.9 C 0 km/h
1973 12-12-2010 10:40:02 4 C 5.09 g/m*3 4 C 0 km/h
1974 12-12-2010 10:52:02 3.8 C 5.14 g/m*3 3.8 C 0 km/h
1975 12-12-2010 11:04:03 4.1 C 5.18 g/m*3 4.1 C 0 km/h
Sensor: Nr:Datum:Temp:Abs-Feuchte:Windchill:Wind:
Aussen-T/F 1976 12-12-2010 11:16:02 4.1 C 5.12 g/m*3 4.1 C 0 km/h
1977 12-12-2010 11:28:02 4.3 C 5.12 g/m*3 4.3 C 0 km/h
1978 12-12-2010 11:40:02 4.1 C 5.12 g/m*3 4.1 C 0 km/h
1979 12-12-2010 11:52:02 4 C 5.15 g/m*3 4 C 0 km/h
1980 12-12-2010 12:04:02 4 C 5.21 g/m*3 4 C 0 km/h
1981 12-12-2010 12:16:01 4.3 C 5.38 g/m*3 4.3 C 0 km/h
1982 12-12-2010 12:28:01 4.6 C 5.43 g/m*3 4.6 C 0 km/h
1983 12-12-2010 12:40:02 4.7 C 5.33 g/m*3 4.7 C 0 km/h
1984 12-12-2010 12:52:02 4.9 C 5.33 g/m*3 4.9 C 0 km/h
1985 12-12-2010 13:04:02 4.7 C 5.2 g/m*3 4.7 C 0 km/h
1986 12-12-2010 13:16:01 5.1 C 5.2 g/m*3 5.1 C 0 km/h
1987 12-12-2010 13:28:01 4.6 C 5.1 g/m*3 4.6 C 0 km/h
1988 12-12-2010 13:40:02 4.8 C 5.23 g/m*3 4.8 C 0 km/h
1989 12-12-2010 13:52:02 4.9 C 5.13 g/m*3 4.9 C 0 km/h
1990 12-12-2010 14:04:02 4.5 C 5 g/m*3 4.5 C 0 km/h
1991 12-12-2010 14:16:01 3.6 C 4.89 g/m*3 3.6 C 0 km/h
1992 12-12-2010 14:28:01 3.1 C 4.85 g/m*3 3.1 C 0 km/h
1993 12-12-2010 14:40:02 2.9 C 4.96 g/m*3 2.9 C 0 km/h
1994 12-12-2010 14:52:02 3.2 C 5.06 g/m*3 3.2 C 0 km/h
1995 12-12-2010 15:04:02 3.2 C 5.12 g/m*3 3.2 C 0 km/h
1996 12-12-2010 15:16:02 3.2 C 5.18 g/m*3 3.2 C 0 km/h
1997 12-12-2010 15:28:02 3.1 C 5.21 g/m*3 3.1 C 0 km/h
1998 12-12-2010 15:40:02 3.1 C 5.27 g/m*3 3.1 C 0 km/h
1999 12-12-2010 15:52:02 2.9 C 5.26 g/m*3 2.9 C 0 km/h
2000 12-12-2010 16:04:02 2.7 C 5.13 g/m*3 2.7 C 0 km/h
Sensor: Nr:Datum:Temp:Abs-Feuchte:Windchill:Wind:
Aussen-T/F 2001 12-12-2010 16:16:02 2.7 C 5.13 g/m*3 2.7 C 0 km/h
2002 12-12-2010 16:28:03 2.6 C 5.09 g/m*3 2.6 C 0 km/h
2003 12-12-2010 16:40:01 2.7 C 5.13 g/m*3 2.7 C 0 km/h
2004 12-12-2010 16:52:02 2.8 C 5.1 g/m*3 2.8 C 0 km/h
2005 12-12-2010 17:04:01 2.8 C 4.99 g/m*3 2.8 C 0 km/h
2006 12-12-2010 17:16:01 2.7 C 4.78 g/m*3 2.7 C 0 km/h
2007 12-12-2010 17:28:01 2.4 C 4.51 g/m*3 2.4 C 0 km/h
2008 12-12-2010 17:40:02 2.3 C 4.42 g/m*3 2.3 C 0 km/h
2009 12-12-2010 17:52:02 2.2 C 4.39 g/m*3 2.2 C 0 km/h
2010 12-12-2010 18:04:02 2.1 C 4.36 g/m*3 2.1 C 0 km/h
2011 12-12-2010 18:16:02 2 C 4.28 g/m*3 2 C 0 km/h
2012 12-12-2010 18:28:02 1.8 C 4.22 g/m*3 1.8 C 0 km/h
2013 12-12-2010 18:40:02 1.7 C 3.97 g/m*3 1.7 C 0 km/h
2014 12-12-2010 18:52:01 1.7 C 3.92 g/m*3 1.7 C 0 km/h
2015 12-12-2010 19:04:02 1.6 C 3.95 g/m*3 1.6 C 0 km/h
2016 12-12-2010 19:16:01 1.4 C 3.95 g/m*3 1.4 C 0 km/h
2017 12-12-2010 19:28:01 1.4 C 3.95 g/m*3 1.4 C 0 km/h
2018 12-12-2010 19:40:01 1.3 C 3.87 g/m*3 1.3 C 0 km/h
2019 12-12-2010 19:52:01 1.2 C 3.84 g/m*3 1.2 C 0 km/h
2020 12-12-2010 20:04:01 1.4 C 3.57 g/m*3 1.4 C 0 km/h
2021 12-12-2010 20:16:02 1.4 C 3.52 g/m*3 1.4 C 0 km/h
2022 12-12-2010 20:28:02 1.1 C 3.5 g/m*3 1.1 C 0 km/h
2023 12-12-2010 20:40:01 1 C 3.63 g/m*3 1 C 0 km/h
2024 12-12-2010 20:52:02 1 C 3.58 g/m*3 1 C 0 km/h
2025 12-12-2010 21:04:02 0.9 C 3.56 g/m*3 0.9 C 0 km/h
Sensor: Nr:Datum:Temp:Abs-Feuchte:Windchill:Wind:
Aussen-T/F 2026 12-12-2010 21:16:02 0.8 C 3.43 g/m*3 0.8 C 0 km/h
2027 12-12-2010 21:28:02 0.8 C 3.38 g/m*3 0.8 C 0 km/h
2028 12-12-2010 21:40:02 0.7 C 3.2 g/m*3 0.7 C 0 km/h
2029 12-12-2010 21:52:02 0.6 C 3.18 g/m*3 0.6 C 0 km/h
2030 12-12-2010 22:04:02 0.5 C 3.21 g/m*3 0.5 C 0 km/h
2031 12-12-2010 22:16:02 0.5 C 3.16 g/m*3 0.5 C 0 km/h
2032 12-12-2010 22:28:02 0.4 C 3.19 g/m*3 0.4 C 0 km/h
2033 12-12-2010 22:40:02 0.3 C 3.22 g/m*3 0.3 C 0 km/h
2034 12-12-2010 22:53:03 0.3 C 3.12 g/m*3 0.3 C 0 km/h
2035 12-12-2010 23:05:03 0.1 C 2.78 g/m*3 0.1 C 0 km/h
2036 12-12-2010 23:17:03 0.1 C 2.78 g/m*3 0.1 C 0 km/h
2037 12-12-2010 23:29:03 0 C 2.71 g/m*3 0 C 0 km/h
2038 12-12-2010 23:41:03 -0.2 C 2.72 g/m*3 -0.2 C 0 km/h
2039 12-12-2010 23:53:04 -0.2 C 2.68 g/m*3 -0.2 C 0 km/h
2040 13-12-2010 00:05:04 -0.4 C 2.59 g/m*3 -0.4 C 0 km/h
2041 13-12-2010 00:17:04 -0.4 C 2.59 g/m*3 -0.4 C 0 km/h
2042 13-12-2010 00:29:04 -0.5 C 2.53 g/m*3 -0.5 C 0 km/h
2043 13-12-2010 00:41:04 -0.6 C 2.37 g/m*3 -0.6 C 0 km/h
2044 13-12-2010 00:53:04 -0.7 C 2.4 g/m*3 -0.7 C 0 km/h
2045 13-12-2010 01:05:04 -0.7 C 2.35 g/m*3 -0.7 C 0 km/h
2046 13-12-2010 01:17:04 -0.7 C 2.45 g/m*3 -0.7 C 0 km/h
2047 13-12-2010 01:29:04 -0.9 C 2.46 g/m*3 -0.9 C 0 km/h
2048 13-12-2010 01:41:04 -0.9 C 2.46 g/m*3 -0.9 C 0 km/h
2049 13-12-2010 01:53:04 -1 C 2.53 g/m*3 -1 C 0 km/h
2050 13-12-2010 02:05:04 -1.3 C 2.35 g/m*3 -1.3 C 0 km/h
Sensor: Nr:Datum:Temp:Abs-Feuchte:Windchill:Wind:
Aussen-T/F 2051 13-12-2010 02:17:04 -2.1 C 2.26 g/m*3 -2.1 C 0 km/h
2052 13-12-2010 02:29:04 -2.4 C 2.29 g/m*3 -2.4 C 0 km/h
2053 13-12-2010 02:41:04 -2.7 C 2.29 g/m*3 -2.7 C 0 km/h
2054 13-12-2010 02:53:04 -2.9 C 2.29 g/m*3 -2.9 C 0 km/h
2055 13-12-2010 03:05:04 -2.9 C 2.29 g/m*3 -2.9 C 0 km/h
2056 13-12-2010 03:17:04 -3.4 C 2.25 g/m*3 -3.4 C 0 km/h
2057 13-12-2010 03:29:04 -3.6 C 2.26 g/m*3 -3.6 C 0 km/h
2058 13-12-2010 03:41:04 -3.8 C 2.26 g/m*3 -3.8 C 0 km/h
2059 13-12-2010 03:53:05 -3.8 C 2.26 g/m*3 -3.8 C 0 km/h
2060 13-12-2010 04:05:05 -4.1 C 2.25 g/m*3 -4.1 C 0 km/h
2061 13-12-2010 04:17:05 -4.2 C 2.31 g/m*3 -4.2 C 0 km/h
2062 13-12-2010 04:29:05 -4.1 C 2.32 g/m*3 -4.1 C 0 km/h
2063 13-12-2010 04:41:05 -4.4 C 2.28 g/m*3 -4.4 C 0 km/h
2064 13-12-2010 04:53:05 -4.2 C 2.31 g/m*3 -4.2 C 0 km/h
2065 13-12-2010 05:05:05 -4.7 C 2.26 g/m*3 -4.7 C 0 km/h
2066 13-12-2010 05:17:05 -5.2 C 2.25 g/m*3 -5.2 C 0 km/h
2067 13-12-2010 05:29:05 -6 C 2.19 g/m*3 -6 C 0 km/h
2068 13-12-2010 05:41:05 -6.5 C 2.17 g/m*3 -6.5 C 0 km/h
2069 13-12-2010 05:53:05 -6.6 C 2.24 g/m*3 -6.6 C 0 km/h
2070 13-12-2010 06:05:05 -6.2 C 2.31 g/m*3 -6.2 C 0 km/h
2071 13-12-2010 06:17:05 -6.3 C 2.32 g/m*3 -6.3 C 0 km/h
2072 13-12-2010 06:29:05 -7 C 2.18 g/m*3 -7 C 0 km/h
2073 13-12-2010 06:41:05 -7.5 C 2.13 g/m*3 -7.5 C 0 km/h
2074 13-12-2010 06:53:05 -7.7 C 2.13 g/m*3 -7.7 C 0 km/h
2075 13-12-2010 07:05:05 -7.2 C 2.23 g/m*3 -7.2 C 0 km/h
Sensor: Nr:Datum:Temp:Abs-Feuchte:Windchill:Wind:
Aussen-T/F 2076 13-12-2010 07:17:05 -6.8 C 2.3 g/m*3 -6.8 C 0 km/h
2077 13-12-2010 07:29:05 -7.2 C 2.2 g/m*3 -7.2 C 0 km/h
2078 13-12-2010 07:41:02 -7.3 C 2.19 g/m*3 -7.3 C 0 km/h
2079 13-12-2010 07:53:02 -7.5 C 2.19 g/m*3 -7.5 C 0 km/h
2080 13-12-2010 08:05:01 -6.9 C 2.31 g/m*3 -6.9 C 0 km/h
2081 13-12-2010 08:17:02 -7.2 C 2.26 g/m*3 -7.2 C 0 km/h
2082 13-12-2010 08:29:02 -7.3 C 2.25 g/m*3 -7.3 C 0 km/h
2083 13-12-2010 08:41:01 -7.3 C 2.25 g/m*3 -7.3 C 0 km/h
2084 13-12-2010 08:53:02 -7.2 C 2.29 g/m*3 -7.2 C 0 km/h
2085 13-12-2010 09:05:02 -7.3 C 2.25 g/m*3 -7.3 C 0 km/h
2086 13-12-2010 09:17:02 -7.4 C 2.23 g/m*3 -7.4 C 0 km/h
2087 13-12-2010 09:29:02 -7.3 C 2.25 g/m*3 -7.3 C 0 km/h
2088 13-12-2010 09:41:02 -6.8 C 2.36 g/m*3 -6.8 C 0 km/h
2089 13-12-2010 09:53:01 -6.8 C 2.36 g/m*3 -6.8 C 0 km/h
2090 13-12-2010 10:05:02 -7.1 C 2.31 g/m*3 -7.1 C 0 km/h
2091 13-12-2010 10:17:01 -7 C 2.33 g/m*3 -7 C 0 km/h
2092 13-12-2010 10:29:01 -6.6 C 2.39 g/m*3 -6.6 C 0 km/h
2093 13-12-2010 10:41:02 -6.6 C 2.39 g/m*3 -6.6 C 0 km/h
2094 13-12-2010 10:53:02 -5.8 C 2.57 g/m*3 -5.8 C 0 km/h
2095 13-12-2010 11:05:02 -4.9 C 2.71 g/m*3 -4.9 C 0 km/h
2096 13-12-2010 11:17:01 -4.4 C 2.7 g/m*3 -4.4 C 0 km/h
2097 13-12-2010 11:29:01 -4 C 2.6 g/m*3 -4 C 0 km/h
2098 13-12-2010 11:41:02 -3.5 C 2.58 g/m*3 -3.5 C 0 km/h
2099 13-12-2010 11:53:01 -3.2 C 2.56 g/m*3 -3.2 C 0 km/h
2100 13-12-2010 12:05:02 -2.8 C 2.59 g/m*3 -2.8 C 0 km/h
Sensor: Nr:Datum:Temp:Abs-Feuchte:Windchill:Wind:
Aussen-T/F 2101 13-12-2010 12:17:02 -2.8 C 2.51 g/m*3 -2.8 C 0 km/h
2102 13-12-2010 12:29:02 -2.9 C 2.49 g/m*3 -2.9 C 0 km/h
2103 13-12-2010 12:41:01 -2.8 C 2.51 g/m*3 -2.8 C 0 km/h
2104 13-12-2010 12:53:02 -2.6 C 2.51 g/m*3 -2.6 C 0 km/h
2105 13-12-2010 13:05:01 -2.5 C 2.56 g/m*3 -2.5 C 0 km/h
2106 13-12-2010 13:17:02 -2.5 C 2.52 g/m*3 -2.5 C 0 km/h
2107 13-12-2010 13:29:03 -2.3 C 2.52 g/m*3 -2.3 C 0 km/h
2108 13-12-2010 13:41:01 -2.3 C 2.44 g/m*3 -2.3 C 0 km/h
2109 13-12-2010 13:53:02 -2 C 2.44 g/m*3 -2 C 0 km/h
2110 13-12-2010 14:05:02 -1.9 C 2.38 g/m*3 -1.9 C 0 km/h
2111 13-12-2010 14:17:02 -2 C 2.36 g/m*3 -2 C 0 km/h
2112 13-12-2010 14:29:02 -2.1 C 2.39 g/m*3 -2.1 C 0 km/h
2113 13-12-2010 14:41:03 -2.3 C 2.39 g/m*3 -2.3 C 0 km/h
2114 13-12-2010 14:53:02 -2.7 C 2.45 g/m*3 -2.7 C 0 km/h
2115 13-12-2010 15:05:02 -2.9 C 2.45 g/m*3 -2.9 C 0 km/h
2116 13-12-2010 15:17:01 -3.1 C 2.46 g/m*3 -3.1 C 0 km/h
2117 13-12-2010 15:29:01 -3.4 C 2.48 g/m*3 -3.4 C 0 km/h
2118 13-12-2010 15:41:02 -4.2 C 2.45 g/m*3 -4.2 C 0 km/h
2119 13-12-2010 15:53:02 -4.7 C 2.51 g/m*3 -4.7 C 0 km/h
2120 13-12-2010 16:05:03 -4.7 C 2.57 g/m*3 -4.7 C 0 km/h
2121 13-12-2010 16:17:02 -4.8 C 2.59 g/m*3 -4.8 C 0 km/h
2122 13-12-2010 16:29:02 -5 C 2.59 g/m*3 -5 C 0 km/h
2123 13-12-2010 16:41:02 -5.3 C 2.53 g/m*3 -5.3 C 0 km/h
2124 13-12-2010 16:53:02 -5.1 C 2.6 g/m*3 -5.1 C 0 km/h
2125 13-12-2010 17:05:02 -5.6 C 2.54 g/m*3 -5.6 C 0 km/h
Sensor: Nr:Datum:Temp:Abs-Feuchte:Windchill:Wind:
Aussen-T/F 2126 13-12-2010 17:17:01 -5.5 C 2.56 g/m*3 -5.5 C 0 km/h
2127 13-12-2010 17:29:01 -6 C 2.47 g/m*3 -6 C 0 km/h
2128 13-12-2010 17:41:02 -6.1 C 2.48 g/m*3 -6.1 C 0 km/h
2129 13-12-2010 17:53:02 -6.2 C 2.43 g/m*3 -6.2 C 0 km/h
2130 13-12-2010 18:05:02 -6 C 2.5 g/m*3 -6 C 0 km/h
2131 13-12-2010 18:17:02 -6.2 C 2.47 g/m*3 -6.2 C 0 km/h
2132 13-12-2010 18:29:02 -6.5 C 2.41 g/m*3 -6.5 C 0 km/h
2133 13-12-2010 18:41:02 -6.1 C 2.52 g/m*3 -6.1 C 0 km/h
2134 13-12-2010 18:53:02 -6.2 C 2.53 g/m*3 -6.2 C 0 km/h
2135 13-12-2010 19:05:02 -6.2 C 2.53 g/m*3 -6.2 C 0 km/h
2136 13-12-2010 19:17:02 -5.6 C 2.67 g/m*3 -5.6 C 0 km/h
2137 13-12-2010 19:29:02 -5.3 C 2.77 g/m*3 -5.3 C 0 km/h
2138 13-12-2010 19:41:02 -5.1 C 2.81 g/m*3 -5.1 C 0 km/h
2139 13-12-2010 19:53:02 -5 C 2.83 g/m*3 -5 C 0 km/h
2140 13-12-2010 20:05:02 -4.9 C 2.85 g/m*3 -4.9 C 0 km/h
2141 13-12-2010 20:17:02 -5.3 C 2.7 g/m*3 -5.3 C 0 km/h
2142 13-12-2010 20:29:02 -5.1 C 2.74 g/m*3 -5.1 C 0 km/h
2143 13-12-2010 20:41:02 -4.6 C 2.84 g/m*3 -4.6 C 0 km/h
2144 13-12-2010 20:53:02 -4.4 C 2.88 g/m*3 -4.4 C 0 km/h
2145 13-12-2010 21:05:02 -4.4 C 2.84 g/m*3 -4.4 C 0 km/h
2146 13-12-2010 21:17:02 -4.3 C 2.83 g/m*3 -4.3 C 0 km/h
2147 13-12-2010 21:29:03 -4.2 C 2.81 g/m*3 -4.2 C 0 km/h
2148 13-12-2010 21:41:02 -4.1 C 2.8 g/m*3 -4.1 C 0 km/h
2149 13-12-2010 21:53:02 -4.1 C 2.8 g/m*3 -4.1 C 0 km/h
2150 13-12-2010 22:05:01 -3.9 C 2.84 g/m*3 -3.9 C 0 km/h
Sensor: Nr:Datum:Temp:Abs-Feuchte:Windchill:Wind:
Aussen-T/F 2151 13-12-2010 22:17:02 -3.9 C 2.84 g/m*3 -3.9 C 0 km/h
2152 13-12-2010 22:29:02 -3.7 C 2.84 g/m*3 -3.7 C 0 km/h
2153 13-12-2010 22:41:02 -4 C 2.85 g/m*3 -4 C 0 km/h
2154 13-12-2010 22:53:02 -4.1 C 2.91 g/m*3 -4.1 C 0 km/h
2155 13-12-2010 23:05:02 -4.1 C 2.94 g/m*3 -4.1 C 0 km/h
2156 13-12-2010 23:17:02 -4.1 C 2.98 g/m*3 -4.1 C 0 km/h
2157 13-12-2010 23:29:02 -4.1 C 3.01 g/m*3 -4.1 C 0 km/h
2158 13-12-2010 23:41:02 -4.1 C 3.01 g/m*3 -4.1 C 0 km/h
2159 13-12-2010 23:53:02 -4.1 C 3.05 g/m*3 -4.1 C 0 km/h
2160 14-12-2010 00:05:02 -4.1 C 3.05 g/m*3 -4.1 C 0 km/h
2161 14-12-2010 00:17:02 -4.1 C 3.01 g/m*3 -4.1 C 0 km/h
2162 14-12-2010 00:29:02 -4.1 C 3.01 g/m*3 -4.1 C 0 km/h
2163 14-12-2010 00:41:02 -4.1 C 3.01 g/m*3 -4.1 C 0 km/h
2164 14-12-2010 00:53:03 -4.1 C 3.01 g/m*3 -4.1 C 0 km/h
2165 14-12-2010 01:05:03 -4.1 C 3.01 g/m*3 -4.1 C 0 km/h
2166 14-12-2010 01:17:03 -4.1 C 3.01 g/m*3 -4.1 C 0 km/h
2167 14-12-2010 01:29:03 -4.1 C 3.01 g/m*3 -4.1 C 0 km/h
2168 14-12-2010 01:41:03 -4 C 3.07 g/m*3 -4 C 0 km/h
2169 14-12-2010 01:53:03 -4 C 3.04 g/m*3 -4 C 0 km/h
2170 14-12-2010 02:05:03 -3.9 C 3.06 g/m*3 -3.9 C 0 km/h
2171 14-12-2010 02:17:03 -3.9 C 3.06 g/m*3 -3.9 C 0 km/h
2172 14-12-2010 02:29:03 -3.9 C 3.06 g/m*3 -3.9 C 0 km/h
2173 14-12-2010 02:41:03 -3.8 C 3.08 g/m*3 -3.8 C 0 km/h
2174 14-12-2010 02:53:03 -3.7 C 3.1 g/m*3 -3.7 C 0 km/h
2175 14-12-2010 03:05:03 -3.7 C 3.1 g/m*3 -3.7 C 0 km/h
Sensor: Nr:Datum:Temp:Abs-Feuchte:Windchill:Wind:
Aussen-T/F 2176 14-12-2010 03:17:03 -3.7 C 3.1 g/m*3 -3.7 C 0 km/h
2177 14-12-2010 03:29:03 -3.7 C 3.1 g/m*3 -3.7 C 0 km/h
2178 14-12-2010 03:41:03 -3.7 C 3.1 g/m*3 -3.7 C 0 km/h
2179 14-12-2010 03:53:03 -3.5 C 3.15 g/m*3 -3.5 C 0 km/h
2180 14-12-2010 04:05:03 -3.7 C 3.1 g/m*3 -3.7 C 0 km/h
2181 14-12-2010 04:17:03 -3.5 C 3.11 g/m*3 -3.5 C 0 km/h
2182 14-12-2010 04:29:03 -3.5 C 3.11 g/m*3 -3.5 C 0 km/h
2183 14-12-2010 04:41:03 -3.7 C 3.06 g/m*3 -3.7 C 0 km/h
2184 14-12-2010 04:53:04 -3.7 C 3.06 g/m*3 -3.7 C 0 km/h
2185 14-12-2010 05:05:04 -3.7 C 3.06 g/m*3 -3.7 C 0 km/h
2186 14-12-2010 05:17:04 -3.7 C 3.06 g/m*3 -3.7 C 0 km/h
2187 14-12-2010 05:29:04 -3.8 C 3.04 g/m*3 -3.8 C 0 km/h
2188 14-12-2010 05:41:04 -3.8 C 3.04 g/m*3 -3.8 C 0 km/h
2189 14-12-2010 05:53:04 -4 C 3 g/m*3 -4 C 0 km/h
2190 14-12-2010 06:05:04 -4.3 C 2.94 g/m*3 -4.3 C 0 km/h
2191 14-12-2010 06:17:04 -4.9 C 2.81 g/m*3 -4.9 C 0 km/h
2192 14-12-2010 06:29:04 -5 C 2.79 g/m*3 -5 C 0 km/h
2193 14-12-2010 06:41:04 -4.7 C 2.89 g/m*3 -4.7 C 0 km/h
2194 14-12-2010 06:53:04 -4.6 C 2.94 g/m*3 -4.6 C 0 km/h
2195 14-12-2010 07:05:04 -5.3 C 2.77 g/m*3 -5.3 C 0 km/h
2196 14-12-2010 07:17:04 -6 C 2.63 g/m*3 -6 C 0 km/h
2197 14-12-2010 07:29:04 -6.4 C 2.55 g/m*3 -6.4 C 0 km/h
2198 14-12-2010 07:41:04 -6.6 C 2.52 g/m*3 -6.6 C 0 km/h
2199 14-12-2010 07:53:01 -6.8 C 2.51 g/m*3 -6.8 C 0 km/h
2200 14-12-2010 08:05:01 -6.8 C 2.51 g/m*3 -6.8 C 0 km/h
Sensor: Nr:Datum:Temp:Abs-Feuchte:Windchill:Wind:
Aussen-T/F 2201 14-12-2010 08:17:01 -6.8 C 2.54 g/m*3 -6.8 C 0 km/h
2202 14-12-2010 08:29:01 -6 C 2.72 g/m*3 -6 C 0 km/h
2203 14-12-2010 08:41:01 -5.9 C 2.74 g/m*3 -5.9 C 0 km/h
2204 14-12-2010 08:53:02 -6.4 C 2.61 g/m*3 -6.4 C 0 km/h
2205 14-12-2010 09:05:01 -6.4 C 2.61 g/m*3 -6.4 C 0 km/h
2206 14-12-2010 09:17:01 -6.1 C 2.67 g/m*3 -6.1 C 0 km/h
2207 14-12-2010 09:29:02 -5.7 C 2.75 g/m*3 -5.7 C 0 km/h
2208 14-12-2010 09:41:01 -6 C 2.69 g/m*3 -6 C 0 km/h
2209 14-12-2010 09:53:02 -5.8 C 2.73 g/m*3 -5.8 C 0 km/h
2210 14-12-2010 10:05:01 -4.9 C 2.92 g/m*3 -4.9 C 0 km/h
2211 14-12-2010 10:17:01 -4.3 C 3.04 g/m*3 -4.3 C 0 km/h
2212 14-12-2010 10:29:01 -4 C 3.04 g/m*3 -4 C 0 km/h
2213 14-12-2010 10:41:02 -3.7 C 3.03 g/m*3 -3.7 C 0 km/h
2214 14-12-2010 10:53:01 -3.4 C 2.98 g/m*3 -3.4 C 0 km/h
2215 14-12-2010 11:05:02 -3.3 C 2.85 g/m*3 -3.3 C 0 km/h
2216 14-12-2010 11:17:01 -3.2 C 2.75 g/m*3 -3.2 C 0 km/h
2217 14-12-2010 11:29:01 -3.6 C 2.63 g/m*3 -3.6 C 0 km/h
2218 14-12-2010 11:41:02 -3.2 C 2.79 g/m*3 -3.2 C 0 km/h
2219 14-12-2010 11:53:01 -2.9 C 2.73 g/m*3 -2.9 C 0 km/h
2220 14-12-2010 12:05:02 -2.8 C 2.67 g/m*3 -2.8 C 0 km/h
2221 14-12-2010 12:17:01 -2.4 C 2.66 g/m*3 -2.4 C 0 km/h
2222 14-12-2010 12:29:01 -2.5 C 2.6 g/m*3 -2.5 C 0 km/h
2223 14-12-2010 12:41:01 -2.3 C 2.68 g/m*3 -2.3 C 0 km/h
2224 14-12-2010 12:53:01 -2.1 C 2.68 g/m*3 -2.1 C 0 km/h
2225 14-12-2010 13:05:01 -2.3 C 2.68 g/m*3 -2.3 C 0 km/h
Sensor: Nr:Datum:Temp:Abs-Feuchte:Windchill:Wind:
Aussen-T/F 2226 14-12-2010 13:17:02 -2.3 C 2.64 g/m*3 -2.3 C 0 km/h
2227 14-12-2010 13:29:02 -2.2 C 2.62 g/m*3 -2.2 C 0 km/h
2228 14-12-2010 13:41:01 -2.1 C 2.6 g/m*3 -2.1 C 0 km/h
2229 14-12-2010 13:53:02 -2.1 C 2.64 g/m*3 -2.1 C 0 km/h
2230 14-12-2010 14:05:01 -2.3 C 2.64 g/m*3 -2.3 C 0 km/h
2231 14-12-2010 14:17:02 -2.5 C 2.65 g/m*3 -2.5 C 0 km/h
2232 14-12-2010 14:29:02 -2.4 C 2.7 g/m*3 -2.4 C 0 km/h
2233 14-12-2010 14:41:01 -2.4 C 2.66 g/m*3 -2.4 C 0 km/h
2234 14-12-2010 14:53:02 -2.6 C 2.63 g/m*3 -2.6 C 0 km/h
2235 14-12-2010 15:05:01 -2.7 C 2.65 g/m*3 -2.7 C 0 km/h
2236 14-12-2010 15:17:01 -2.7 C 2.69 g/m*3 -2.7 C 0 km/h
2237 14-12-2010 15:29:01 -2.8 C 2.71 g/m*3 -2.8 C 0 km/h
2238 14-12-2010 15:41:02 -2.8 C 2.71 g/m*3 -2.8 C 0 km/h
2239 14-12-2010 15:53:01 -2.8 C 2.75 g/m*3 -2.8 C 0 km/h
2240 14-12-2010 16:05:02 -2.8 C 2.75 g/m*3 -2.8 C 0 km/h
2241 14-12-2010 16:17:01 -2.8 C 2.79 g/m*3 -2.8 C 0 km/h
2242 14-12-2010 16:29:01 -2.9 C 2.81 g/m*3 -2.9 C 0 km/h
2243 14-12-2010 16:41:02 -3 C 2.83 g/m*3 -3 C 0 km/h
2244 14-12-2010 16:53:01 -3 C 2.83 g/m*3 -3 C 0 km/h
2245 14-12-2010 17:05:02 -3 C 2.87 g/m*3 -3 C 0 km/h
2246 14-12-2010 17:17:01 -3 C 2.87 g/m*3 -3 C 0 km/h
2247 14-12-2010 17:29:01 -3 C 2.95 g/m*3 -3 C 0 km/h
2248 14-12-2010 17:41:01 -3 C 2.95 g/m*3 -3 C 0 km/h
2249 14-12-2010 17:53:01 -2.9 C 2.93 g/m*3 -2.9 C 0 km/h
2250 14-12-2010 18:05:01 -3.1 C 2.85 g/m*3 -3.1 C 0 km/h
Sensor: Nr:Datum:Temp:Abs-Feuchte:Windchill:Wind:
Aussen-T/F 2251 14-12-2010 18:17:02 -3 C 2.79 g/m*3 -3 C 0 km/h
2252 14-12-2010 18:29:02 -3.2 C 2.71 g/m*3 -3.2 C 0 km/h
2253 14-12-2010 18:41:01 -3 C 2.79 g/m*3 -3 C 0 km/h
2254 14-12-2010 18:53:02 -3 C 2.79 g/m*3 -3 C 0 km/h
2255 14-12-2010 19:05:01 -2.8 C 2.83 g/m*3 -2.8 C 0 km/h
2256 14-12-2010 19:17:02 -2.8 C 2.83 g/m*3 -2.8 C 0 km/h
2257 14-12-2010 19:29:02 -2.8 C 2.87 g/m*3 -2.8 C 0 km/h
2258 14-12-2010 19:41:01 -2.8 C 2.87 g/m*3 -2.8 C 0 km/h
2259 14-12-2010 19:53:02 -2.9 C 2.81 g/m*3 -2.9 C 0 km/h
2260 14-12-2010 20:05:01 -3 C 2.79 g/m*3 -3 C 0 km/h
2261 14-12-2010 20:17:01 -3 C 2.79 g/m*3 -3 C 0 km/h
2262 14-12-2010 20:29:01 -3 C 2.75 g/m*3 -3 C 0 km/h
2263 14-12-2010 20:41:02 -3.1 C 2.69 g/m*3 -3.1 C 0 km/h
2264 14-12-2010 20:53:01 -3.1 C 2.69 g/m*3 -3.1 C 0 km/h
2265 14-12-2010 21:05:02 -3.1 C 2.65 g/m*3 -3.1 C 0 km/h
2266 14-12-2010 21:17:01 -3.1 C 2.65 g/m*3 -3.1 C 0 km/h
2267 14-12-2010 21:29:01 -3.1 C 2.65 g/m*3 -3.1 C 0 km/h
2268 14-12-2010 21:41:02 -3.1 C 2.65 g/m*3 -3.1 C 0 km/h
2269 14-12-2010 21:53:02 -3.2 C 2.59 g/m*3 -3.2 C 0 km/h
2270 14-12-2010 22:05:02 -3.2 C 2.59 g/m*3 -3.2 C 0 km/h
2271 14-12-2010 22:17:02 -3.2 C 2.56 g/m*3 -3.2 C 0 km/h
2272 14-12-2010 22:29:02 -3.2 C 2.59 g/m*3 -3.2 C 0 km/h
2273 14-12-2010 22:42:04 -3.1 C 2.57 g/m*3 -3.1 C 0 km/h
2274 14-12-2010 22:54:04 -3.1 C 2.57 g/m*3 -3.1 C 0 km/h
2275 14-12-2010 23:06:04 -3.2 C 2.52 g/m*3 -3.2 C 0 km/h
Sensor: Nr:Datum:Temp:Abs-Feuchte:Windchill:Wind:
Aussen-T/F 2276 14-12-2010 23:18:04 -3.2 C 2.52 g/m*3 -3.2 C 0 km/h
2277 14-12-2010 23:30:05 -3.2 C 2.48 g/m*3 -3.2 C 0 km/h
2278 14-12-2010 23:42:05 -3.2 C 2.52 g/m*3 -3.2 C 0 km/h
2279 14-12-2010 23:54:05 -3.3 C 2.5 g/m*3 -3.3 C 0 km/h
2280 15-12-2010 00:06:05 -3.3 C 2.5 g/m*3 -3.3 C 0 km/h
2281 15-12-2010 00:18:05 -3.3 C 2.5 g/m*3 -3.3 C 0 km/h
2282 15-12-2010 00:30:05 -3.3 C 2.5 g/m*3 -3.3 C 0 km/h
2283 15-12-2010 00:42:05 -3.3 C 2.5 g/m*3 -3.3 C 0 km/h
2284 15-12-2010 00:54:05 -3.3 C 2.5 g/m*3 -3.3 C 0 km/h
2285 15-12-2010 01:06:05 -3.3 C 2.54 g/m*3 -3.3 C 0 km/h
2286 15-12-2010 01:18:05 -3.2 C 2.56 g/m*3 -3.2 C 0 km/h
2287 15-12-2010 01:30:05 -3.2 C 2.59 g/m*3 -3.2 C 0 km/h
2288 15-12-2010 01:42:05 -3.3 C 2.58 g/m*3 -3.3 C 0 km/h
2289 15-12-2010 01:54:05 -3.3 C 2.58 g/m*3 -3.3 C 0 km/h
2290 15-12-2010 02:06:05 -3.7 C 2.54 g/m*3 -3.7 C 0 km/h
2291 15-12-2010 02:18:05 -4 C 2.56 g/m*3 -4 C 0 km/h
2292 15-12-2010 02:30:05 -3.9 C 2.58 g/m*3 -3.9 C 0 km/h
2293 15-12-2010 02:42:05 -4.5 C 2.51 g/m*3 -4.5 C 0 km/h
2294 15-12-2010 02:54:05 -4.7 C 2.51 g/m*3 -4.7 C 0 km/h
2295 15-12-2010 03:06:05 -4.7 C 2.54 g/m*3 -4.7 C 0 km/h
2296 15-12-2010 03:18:05 -5 C 2.45 g/m*3 -5 C 0 km/h
2297 15-12-2010 03:30:05 -4.8 C 2.52 g/m*3 -4.8 C 0 km/h
2298 15-12-2010 03:42:05 -5.2 C 2.45 g/m*3 -5.2 C 0 km/h
2299 15-12-2010 03:54:05 -4.8 C 2.56 g/m*3 -4.8 C 0 km/h
2300 15-12-2010 04:06:06 -4.7 C 2.57 g/m*3 -4.7 C 0 km/h
Sensor: Nr:Datum:Temp:Abs-Feuchte:Windchill:Wind:
Aussen-T/F 2301 15-12-2010 04:18:06 -4.3 C 2.65 g/m*3 -4.3 C 0 km/h
2302 15-12-2010 04:30:06 -4.5 C 2.58 g/m*3 -4.5 C 0 km/h
2303 15-12-2010 04:42:06 -5.4 C 2.41 g/m*3 -5.4 C 0 km/h
2304 15-12-2010 04:54:06 -5.4 C 2.48 g/m*3 -5.4 C 0 km/h
2305 15-12-2010 05:06:06 -4.9 C 2.61 g/m*3 -4.9 C 0 km/h
2306 15-12-2010 05:18:06 -4.9 C 2.61 g/m*3 -4.9 C 0 km/h
2307 15-12-2010 05:30:06 -4.8 C 2.63 g/m*3 -4.8 C 0 km/h
2308 15-12-2010 05:42:06 -4.6 C 2.66 g/m*3 -4.6 C 0 km/h
2309 15-12-2010 05:54:06 -4.4 C 2.67 g/m*3 -4.4 C 0 km/h
2310 15-12-2010 06:06:06 -4 C 2.71 g/m*3 -4 C 0 km/h
2311 15-12-2010 06:18:06 -3.8 C 2.71 g/m*3 -3.8 C 0 km/h
2312 15-12-2010 06:30:06 -3.8 C 2.67 g/m*3 -3.8 C 0 km/h
2313 15-12-2010 06:42:06 -3.8 C 2.71 g/m*3 -3.8 C 0 km/h
2314 15-12-2010 06:54:06 -3.5 C 2.77 g/m*3 -3.5 C 0 km/h
2315 15-12-2010 07:06:06 -3.5 C 2.81 g/m*3 -3.5 C 0 km/h
2316 15-12-2010 07:18:06 -3.5 C 2.81 g/m*3 -3.5 C 0 km/h
2317 15-12-2010 07:30:06 -3.4 C 2.83 g/m*3 -3.4 C 0 km/h
2318 15-12-2010 07:42:06 -3.4 C 2.79 g/m*3 -3.4 C 0 km/h
2319 15-12-2010 07:54:02 -3.3 C 2.85 g/m*3 -3.3 C 0 km/h
2320 15-12-2010 08:06:03 -3.3 C 2.85 g/m*3 -3.3 C 0 km/h
2321 15-12-2010 08:18:02 -3.4 C 2.83 g/m*3 -3.4 C 0 km/h
2322 15-12-2010 08:30:02 -3.4 C 2.86 g/m*3 -3.4 C 0 km/h
2323 15-12-2010 08:42:02 -3.3 C 2.92 g/m*3 -3.3 C 0 km/h
2324 15-12-2010 08:54:02 -3.1 C 2.96 g/m*3 -3.1 C 0 km/h
2325 15-12-2010 09:06:01 -2.9 C 3.01 g/m*3 -2.9 C 0 km/h
Sensor: Nr:Datum:Temp:Abs-Feuchte:Windchill:Wind:
Aussen-T/F 2326 15-12-2010 09:18:02 -2.6 C 3.03 g/m*3 -2.6 C 0 km/h
2327 15-12-2010 09:30:02 -2.6 C 2.99 g/m*3 -2.6 C 0 km/h
2328 15-12-2010 09:42:02 -2.4 C 3.03 g/m*3 -2.4 C 0 km/h
2329 15-12-2010 09:54:01 -2.3 C 3.05 g/m*3 -2.3 C 0 km/h
2330 15-12-2010 10:06:02 -2.1 C 3.1 g/m*3 -2.1 C 0 km/h
2331 15-12-2010 10:18:01 -2 C 3.12 g/m*3 -2 C 0 km/h
2332 15-12-2010 10:30:01 -1.8 C 3.21 g/m*3 -1.8 C 0 km/h
2333 15-12-2010 10:42:01 -1.5 C 3.32 g/m*3 -1.5 C 0 km/h
2334 15-12-2010 10:54:01 -1.4 C 3.39 g/m*3 -1.4 C 0 km/h
2335 15-12-2010 11:06:02 -1.2 C 3.43 g/m*3 -1.2 C 0 km/h
2336 15-12-2010 11:18:01 -0.8 C 3.53 g/m*3 -0.8 C 0 km/h
2337 15-12-2010 11:30:01 -0.5 C 3.56 g/m*3 -0.5 C 0 km/h
2338 15-12-2010 11:42:01 -0.5 C 3.51 g/m*3 -0.5 C 0 km/h
2339 15-12-2010 11:54:01 -0.4 C 3.53 g/m*3 -0.4 C 0 km/h
2340 15-12-2010 12:06:01 -0.4 C 3.53 g/m*3 -0.4 C 0 km/h
2341 15-12-2010 12:18:02 -0.4 C 3.49 g/m*3 -0.4 C 0 km/h
2342 15-12-2010 12:30:02 -0.4 C 3.49 g/m*3 -0.4 C 0 km/h
2343 15-12-2010 12:42:01 -0.5 C 3.46 g/m*3 -0.5 C 0 km/h
2344 15-12-2010 12:54:58 -0.7 C 3.37 g/m*3 -0.7 C 0 km/h
2345 15-12-2010 13:06:58 -0.8 C 3.44 g/m*3 -0.8 C 0 km/h
2346 15-12-2010 13:18:58 -0.5 C 3.56 g/m*3 -0.5 C 0 km/h
2347 15-12-2010 13:30:01 -0.4 C 3.53 g/m*3 -0.4 C 0 km/h
2348 15-12-2010 13:42:01 0.1 C 3.71 g/m*3 0.1 C 0 km/h
2349 15-12-2010 13:54:02 -0.3 C 3.56 g/m*3 -0.3 C 0 km/h
2350 15-12-2010 14:06:01 0 C 3.63 g/m*3 0 C 0 km/h
Sensor: Nr:Datum:Temp:Abs-Feuchte:Windchill:Wind:
Aussen-T/F 2351 15-12-2010 14:18:01 -0.1 C 3.42 g/m*3 -0.1 C 0 km/h
2352 15-12-2010 14:30:01 -0.2 C 3.35 g/m*3 -0.2 C 0 km/h
2353 15-12-2010 14:42:02 0 C 3.34 g/m*3 0 C 0 km/h
2354 15-12-2010 14:54:02 -0.3 C 3.08 g/m*3 -0.3 C 0 km/h
2355 15-12-2010 15:06:02 -0.8 C 2.84 g/m*3 -0.8 C 0 km/h
2356 15-12-2010 15:18:02 -1.2 C 2.76 g/m*3 -1.2 C 0 km/h
2357 15-12-2010 15:30:02 -1.5 C 2.75 g/m*3 -1.5 C 0 km/h
2358 15-12-2010 15:42:02 -1.8 C 2.78 g/m*3 -1.8 C 0 km/h
2359 15-12-2010 15:54:01 -1.9 C 2.84 g/m*3 -1.9 C 0 km/h
2360 15-12-2010 16:06:01 -2.4 C 2.83 g/m*3 -2.4 C 0 km/h
2361 15-12-2010 16:18:01 -2.2 C 2.91 g/m*3 -2.2 C 0 km/h
2362 15-12-2010 16:30:01 -2.7 C 2.73 g/m*3 -2.7 C 0 km/h
2363 15-12-2010 16:42:01 -4.2 C 2.49 g/m*3 -4.2 C 0 km/h
2364 15-12-2010 16:54:01 -4.5 C 2.58 g/m*3 -4.5 C 0 km/h
2365 15-12-2010 17:06:01 -4.5 C 2.68 g/m*3 -4.5 C 0 km/h
2366 15-12-2010 17:18:02 -4.3 C 2.76 g/m*3 -4.3 C 0 km/h
2367 15-12-2010 17:30:02 -4.3 C 2.76 g/m*3 -4.3 C 0 km/h
2368 15-12-2010 17:42:01 -4.3 C 2.76 g/m*3 -4.3 C 0 km/h
2369 15-12-2010 17:54:01 -4.3 C 2.76 g/m*3 -4.3 C 0 km/h
2370 15-12-2010 18:06:01 -4.8 C 2.76 g/m*3 -4.8 C 0 km/h
2371 15-12-2010 18:18:02 -4.8 C 2.76 g/m*3 -4.8 C 0 km/h
2372 15-12-2010 18:30:02 -5.3 C 2.67 g/m*3 -5.3 C 0 km/h
2373 15-12-2010 18:42:01 -4.9 C 2.78 g/m*3 -4.9 C 0 km/h
2374 15-12-2010 18:54:03 -4.5 C 2.89 g/m*3 -4.5 C 0 km/h
2375 15-12-2010 19:06:02 -4.5 C 2.89 g/m*3 -4.5 C 0 km/h
Sensor: Nr:Datum:Temp:Abs-Feuchte:Windchill:Wind:
Aussen-T/F 2376 15-12-2010 19:18:02 -4.5 C 2.86 g/m*3 -4.5 C 0 km/h
2377 15-12-2010 19:30:03 -4.2 C 2.92 g/m*3 -4.2 C 0 km/h
2378 15-12-2010 19:42:02 -4.2 C 2.89 g/m*3 -4.2 C 0 km/h
2379 15-12-2010 19:54:02 -4.7 C 2.75 g/m*3 -4.7 C 0 km/h
2380 15-12-2010 20:06:01 -4.6 C 2.73 g/m*3 -4.6 C 0 km/h
2381 15-12-2010 20:18:02 -3.4 C 2.98 g/m*3 -3.4 C 0 km/h
2382 15-12-2010 20:30:02 -3.5 C 2.84 g/m*3 -3.5 C 0 km/h
2383 15-12-2010 20:42:02 -3.3 C 2.81 g/m*3 -3.3 C 0 km/h
2384 15-12-2010 20:54:01 -3.3 C 2.77 g/m*3 -3.3 C 0 km/h
2385 15-12-2010 21:06:02 -3.2 C 2.79 g/m*3 -3.2 C 0 km/h
2386 15-12-2010 21:19:03 -3.1 C 2.77 g/m*3 -3.1 C 0 km/h
2387 15-12-2010 21:31:03 -3.1 C 2.77 g/m*3 -3.1 C 0 km/h
2388 15-12-2010 21:43:03 -3.2 C 2.75 g/m*3 -3.2 C 0 km/h
2389 15-12-2010 21:55:03 -3.3 C 2.77 g/m*3 -3.3 C 0 km/h
2390 15-12-2010 22:07:03 -3.3 C 2.81 g/m*3 -3.3 C 0 km/h
2391 15-12-2010 22:19:03 -3.3 C 2.81 g/m*3 -3.3 C 0 km/h
2392 15-12-2010 22:31:03 -3.8 C 2.75 g/m*3 -3.8 C 0 km/h
2393 15-12-2010 22:43:03 -4.5 C 2.65 g/m*3 -4.5 C 0 km/h
2394 15-12-2010 22:55:03 -4 C 2.82 g/m*3 -4 C 0 km/h
2395 15-12-2010 23:07:03 -4.2 C 2.78 g/m*3 -4.2 C 0 km/h
2396 15-12-2010 23:19:03 -4.5 C 2.75 g/m*3 -4.5 C 0 km/h
2397 15-12-2010 23:31:03 -4.2 C 2.85 g/m*3 -4.2 C 0 km/h
2398 15-12-2010 23:43:03 -5 C 2.66 g/m*3 -5 C 0 km/h
2399 15-12-2010 23:55:03 -4.8 C 2.76 g/m*3 -4.8 C 0 km/h
2400 16-12-2010 00:07:04 -4.8 C 2.8 g/m*3 -4.8 C 0 km/h
Sensor: Nr:Datum:Temp:Abs-Feuchte:Windchill:Wind:
Aussen-T/F 2401 16-12-2010 00:19:04 -4.3 C 2.94 g/m*3 -4.3 C 0 km/h
2402 16-12-2010 00:31:04 -4.3 C 2.94 g/m*3 -4.3 C 0 km/h
2403 16-12-2010 00:43:04 -4.8 C 2.83 g/m*3 -4.8 C 0 km/h
2404 16-12-2010 00:55:04 -5.2 C 2.75 g/m*3 -5.2 C 0 km/h
2405 16-12-2010 01:07:04 -5.1 C 2.81 g/m*3 -5.1 C 0 km/h
2406 16-12-2010 01:19:04 -5 C 2.83 g/m*3 -5 C 0 km/h
2407 16-12-2010 01:31:04 -4.6 C 2.94 g/m*3 -4.6 C 0 km/h
2408 16-12-2010 01:43:04 -4.7 C 2.89 g/m*3 -4.7 C 0 km/h
2409 16-12-2010 01:55:04 -4.8 C 2.87 g/m*3 -4.8 C 0 km/h
2410 16-12-2010 02:07:04 -4.8 C 2.87 g/m*3 -4.8 C 0 km/h
2411 16-12-2010 02:19:04 -4.9 C 2.81 g/m*3 -4.9 C 0 km/h
2412 16-12-2010 02:31:04 -5.5 C 2.66 g/m*3 -5.5 C 0 km/h
2413 16-12-2010 02:43:04 -5.8 C 2.64 g/m*3 -5.8 C 0 km/h
2414 16-12-2010 02:55:04 -5.5 C 2.69 g/m*3 -5.5 C 0 km/h
2415 16-12-2010 03:07:04 -5.6 C 2.71 g/m*3 -5.6 C 0 km/h
2416 16-12-2010 03:19:04 -5.3 C 2.77 g/m*3 -5.3 C 0 km/h
2417 16-12-2010 03:31:04 -5.4 C 2.75 g/m*3 -5.4 C 0 km/h
2418 16-12-2010 03:43:04 -5.3 C 2.77 g/m*3 -5.3 C 0 km/h
2419 16-12-2010 03:55:04 -5.2 C 2.79 g/m*3 -5.2 C 0 km/h
2420 16-12-2010 04:07:05 -5.2 C 2.79 g/m*3 -5.2 C 0 km/h
2421 16-12-2010 04:19:05 -5.3 C 2.73 g/m*3 -5.3 C 0 km/h
2422 16-12-2010 04:31:05 -5.6 C 2.64 g/m*3 -5.6 C 0 km/h
2423 16-12-2010 04:43:05 -5.8 C 2.6 g/m*3 -5.8 C 0 km/h
2424 16-12-2010 04:55:05 -6 C 2.53 g/m*3 -6 C 0 km/h
2425 16-12-2010 05:07:05 -6.1 C 2.48 g/m*3 -6.1 C 0 km/h
Sensor: Nr:Datum:Temp:Abs-Feuchte:Windchill:Wind:
Aussen-T/F 2426 16-12-2010 05:19:05 -6.2 C 2.47 g/m*3 -6.2 C 0 km/h
2427 16-12-2010 05:31:05 -6.3 C 2.42 g/m*3 -6.3 C 0 km/h
2428 16-12-2010 05:43:05 -6.5 C 2.38 g/m*3 -6.5 C 0 km/h
2429 16-12-2010 05:55:05 -6.9 C 2.31 g/m*3 -6.9 C 0 km/h
2430 16-12-2010 06:07:05 -7.3 C 2.28 g/m*3 -7.3 C 0 km/h
2431 16-12-2010 06:19:05 -7.4 C 2.29 g/m*3 -7.4 C 0 km/h
2432 16-12-2010 06:31:05 -7.6 C 2.25 g/m*3 -7.6 C 0 km/h
2433 16-12-2010 06:43:05 -7.6 C 2.23 g/m*3 -7.6 C 0 km/h
2434 16-12-2010 06:55:05 -7.8 C 2.19 g/m*3 -7.8 C 0 km/h
2435 16-12-2010 07:07:05 -8.1 C 2.14 g/m*3 -8.1 C 0 km/h
2436 16-12-2010 07:19:05 -7.9 C 2.18 g/m*3 -7.9 C 0 km/h
2437 16-12-2010 07:31:05 -8.1 C 2.14 g/m*3 -8.1 C 0 km/h
2438 16-12-2010 07:43:05 -8.6 C 2.04 g/m*3 -8.6 C 0 km/h
2439 16-12-2010 07:55:02 -8.7 C 2.03 g/m*3 -8.7 C 0 km/h
2440 16-12-2010 08:07:01 -8.8 C 2.04 g/m*3 -8.8 C 0 km/h
2441 16-12-2010 08:19:01 -8.2 C 2.13 g/m*3 -8.2 C 0 km/h
2442 16-12-2010 08:31:02 -7.8 C 2.22 g/m*3 -7.8 C 0 km/h
2443 16-12-2010 08:43:02 -7.5 C 2.24 g/m*3 -7.5 C 0 km/h
2444 16-12-2010 08:55:02 -7 C 2.3 g/m*3 -7 C 0 km/h
2445 16-12-2010 09:07:01 -6.9 C 2.28 g/m*3 -6.9 C 0 km/h
2446 16-12-2010 09:19:01 -6.8 C 2.27 g/m*3 -6.8 C 0 km/h
2447 16-12-2010 09:31:01 -6.8 C 2.21 g/m*3 -6.8 C 0 km/h
2448 16-12-2010 09:43:01 -6.6 C 2.24 g/m*3 -6.6 C 0 km/h
2449 16-12-2010 09:55:02 -5.9 C 2.3 g/m*3 -5.9 C 0 km/h
2450 16-12-2010 10:07:01 -5.2 C 2.38 g/m*3 -5.2 C 0 km/h
Sensor: Nr:Datum:Temp:Abs-Feuchte:Windchill:Wind:
Aussen-T/F 2451 16-12-2010 10:19:01 -5.2 C 2.38 g/m*3 -5.2 C 0 km/h
2452 16-12-2010 10:31:01 -5 C 2.45 g/m*3 -5 C 0 km/h
2453 16-12-2010 10:43:01 -4.7 C 2.51 g/m*3 -4.7 C 0 km/h
2454 16-12-2010 10:55:02 -4.1 C 2.62 g/m*3 -4.1 C 0 km/h
2455 16-12-2010 11:07:02 -3.7 C 2.65 g/m*3 -3.7 C 0 km/h
2456 16-12-2010 11:19:02 -3.5 C 2.65 g/m*3 -3.5 C 0 km/h
2457 16-12-2010 11:31:02 -3.3 C 2.69 g/m*3 -3.3 C 0 km/h
2458 16-12-2010 11:43:02 -3.3 C 2.65 g/m*3 -3.3 C 0 km/h
2459 16-12-2010 11:55:02 -3.3 C 2.61 g/m*3 -3.3 C 0 km/h
2460 16-12-2010 12:07:02 -3.1 C 2.69 g/m*3 -3.1 C 0 km/h
2461 16-12-2010 12:19:02 -3.1 C 2.73 g/m*3 -3.1 C 0 km/h
2462 16-12-2010 12:31:01 -3 C 2.75 g/m*3 -3 C 0 km/h
2463 16-12-2010 12:43:01 -2.6 C 2.87 g/m*3 -2.6 C 0 km/h
2464 16-12-2010 12:55:02 -2.4 C 2.95 g/m*3 -2.4 C 0 km/h
2465 16-12-2010 13:07:02 -2.2 C 2.95 g/m*3 -2.2 C 0 km/h
2466 16-12-2010 13:19:02 -2.2 C 2.95 g/m*3 -2.2 C 0 km/h
2467 16-12-2010 13:31:02 -2.1 C 3.01 g/m*3 -2.1 C 0 km/h
2468 16-12-2010 13:43:02 -2.1 C 3.01 g/m*3 -2.1 C 0 km/h
2469 16-12-2010 13:55:02 -2 C 3.03 g/m*3 -2 C 0 km/h
2470 16-12-2010 14:07:02 -1.9 C 3.1 g/m*3 -1.9 C 0 km/h
2471 16-12-2010 14:19:01 -1.9 C 3.14 g/m*3 -1.9 C 0 km/h
2472 16-12-2010 14:31:02 -1.8 C 3.21 g/m*3 -1.8 C 0 km/h
2473 16-12-2010 14:43:02 -1.6 C 3.25 g/m*3 -1.6 C 0 km/h
2474 16-12-2010 14:55:02 -1.4 C 3.3 g/m*3 -1.4 C 0 km/h
2475 16-12-2010 15:07:02 -1.5 C 3.32 g/m*3 -1.5 C 0 km/h
Sensor: Nr:Datum:Temp:Abs-Feuchte:Windchill:Wind:
Aussen-T/F 2476 16-12-2010 15:19:01 -1.5 C 3.45 g/m*3 -1.5 C 0 km/h
2477 16-12-2010 15:31:02 -1.5 C 3.49 g/m*3 -1.5 C 0 km/h
2478 16-12-2010 15:43:02 -1.2 C 3.52 g/m*3 -1.2 C 0 km/h
2479 16-12-2010 15:55:02 -1.3 C 3.45 g/m*3 -1.3 C 0 km/h
2480 16-12-2010 16:07:02 -1.4 C 3.43 g/m*3 -1.4 C 0 km/h
2481 16-12-2010 16:19:02 -1.5 C 3.41 g/m*3 -1.5 C 0 km/h
2482 16-12-2010 16:31:02 -1.4 C 3.39 g/m*3 -1.4 C 0 km/h
2483 16-12-2010 16:43:02 -1.1 C 3.46 g/m*3 -1.1 C 0 km/h
2484 16-12-2010 16:55:01 -1.1 C 3.46 g/m*3 -1.1 C 0 km/h
2485 16-12-2010 17:07:02 -1.4 C 3.43 g/m*3 -1.4 C 0 km/h
2486 16-12-2010 17:19:02 -1.4 C 3.43 g/m*3 -1.4 C 0 km/h
2487 16-12-2010 17:31:02 -1.2 C 3.48 g/m*3 -1.2 C 0 km/h
2488 16-12-2010 17:43:02 -1.2 C 3.48 g/m*3 -1.2 C 0 km/h
2489 16-12-2010 17:55:02 -1.1 C 3.55 g/m*3 -1.1 C 0 km/h
2490 16-12-2010 18:07:01 -0.9 C 3.6 g/m*3 -0.9 C 0 km/h
2491 16-12-2010 18:19:02 -0.7 C 3.65 g/m*3 -0.7 C 0 km/h
2492 16-12-2010 18:31:02 -0.6 C 3.63 g/m*3 -0.6 C 0 km/h
2493 16-12-2010 18:43:02 -0.6 C 3.58 g/m*3 -0.6 C 0 km/h
2494 16-12-2010 18:55:01 -0.7 C 3.6 g/m*3 -0.7 C 0 km/h
2495 16-12-2010 19:07:01 -0.4 C 3.68 g/m*3 -0.4 C 0 km/h
2496 16-12-2010 19:19:01 -0.5 C 3.6 g/m*3 -0.5 C 0 km/h
2497 16-12-2010 19:31:02 -0.2 C 3.73 g/m*3 -0.2 C 0 km/h
2498 16-12-2010 19:43:02 -0.3 C 3.65 g/m*3 -0.3 C 0 km/h
2499 16-12-2010 19:55:02 0 C 3.68 g/m*3 0 C 0 km/h
2500 16-12-2010 20:07:02 0 C 3.68 g/m*3 0 C 0 km/h
Sensor: Nr:Datum:Temp:Abs-Feuchte:Windchill:Wind:
Aussen-T/F 2501 16-12-2010 20:19:01 0 C 3.68 g/m*3 0 C 0 km/h
2502 16-12-2010 20:31:02 0 C 3.68 g/m*3 0 C 0 km/h
2503 16-12-2010 20:43:02 0 C 3.68 g/m*3 0 C 0 km/h
2504 16-12-2010 20:55:02 0.1 C 3.71 g/m*3 0.1 C 0 km/h
2505 16-12-2010 21:08:03 0 C 3.73 g/m*3 0 C 0 km/h
2506 16-12-2010 21:20:03 -0.2 C 3.78 g/m*3 -0.2 C 0 km/h
2507 16-12-2010 21:32:03 -0.2 C 3.78 g/m*3 -0.2 C 0 km/h
2508 16-12-2010 21:44:03 -0.1 C 3.85 g/m*3 -0.1 C 0 km/h
2509 16-12-2010 21:56:03 -0.1 C 3.8 g/m*3 -0.1 C 0 km/h
2510 16-12-2010 22:08:03 -0.1 C 3.85 g/m*3 -0.1 C 0 km/h
2511 16-12-2010 22:20:03 -0.2 C 3.87 g/m*3 -0.2 C 0 km/h
2512 16-12-2010 22:32:03 -0.3 C 3.89 g/m*3 -0.3 C 0 km/h
2513 16-12-2010 22:44:03 -0.5 C 3.88 g/m*3 -0.5 C 0 km/h
2514 16-12-2010 22:56:03 -0.6 C 3.9 g/m*3 -0.6 C 0 km/h
2515 16-12-2010 23:08:03 -0.5 C 3.93 g/m*3 -0.5 C 0 km/h
2516 16-12-2010 23:20:03 -0.4 C 3.86 g/m*3 -0.4 C 0 km/h
2517 16-12-2010 23:32:03 -0.5 C 3.79 g/m*3 -0.5 C 0 km/h
2518 16-12-2010 23:44:03 -0.4 C 3.82 g/m*3 -0.4 C 0 km/h
2519 16-12-2010 23:56:03 -0.5 C 3.79 g/m*3 -0.5 C 0 km/h
2520 17-12-2010 00:08:03 -0.5 C 3.79 g/m*3 -0.5 C 0 km/h
2521 17-12-2010 00:20:03 -0.3 C 3.84 g/m*3 -0.3 C 0 km/h
2522 17-12-2010 00:32:03 -0.3 C 3.84 g/m*3 -0.3 C 0 km/h
2523 17-12-2010 00:44:03 -0.1 C 3.9 g/m*3 -0.1 C 0 km/h
2524 17-12-2010 00:56:04 -0.2 C 3.87 g/m*3 -0.2 C 0 km/h
2525 17-12-2010 01:08:04 -0.2 C 3.87 g/m*3 -0.2 C 0 km/h
Sensor: Nr:Datum:Temp:Abs-Feuchte:Windchill:Wind:
Aussen-T/F 2526 17-12-2010 01:20:04 -0.3 C 3.89 g/m*3 -0.3 C 0 km/h
2527 17-12-2010 01:32:04 -0.4 C 3.86 g/m*3 -0.4 C 0 km/h
2528 17-12-2010 01:44:04 -0.4 C 3.91 g/m*3 -0.4 C 0 km/h
2529 17-12-2010 01:56:04 -0.4 C 3.86 g/m*3 -0.4 C 0 km/h
2530 17-12-2010 02:08:04 -0.5 C 3.79 g/m*3 -0.5 C 0 km/h
2531 17-12-2010 02:20:04 -0.5 C 3.7 g/m*3 -0.5 C 0 km/h
2532 17-12-2010 02:32:04 -0.6 C 3.58 g/m*3 -0.6 C 0 km/h
2533 17-12-2010 02:44:04 -0.6 C 3.53 g/m*3 -0.6 C 0 km/h
2534 17-12-2010 02:56:04 -0.7 C 3.51 g/m*3 -0.7 C 0 km/h
2535 17-12-2010 03:08:04 -1.1 C 3.37 g/m*3 -1.1 C 0 km/h
2536 17-12-2010 03:20:04 -1.3 C 3.36 g/m*3 -1.3 C 0 km/h
2537 17-12-2010 03:32:04 -1.2 C 3.39 g/m*3 -1.2 C 0 km/h
2538 17-12-2010 03:44:04 -1.2 C 3.34 g/m*3 -1.2 C 0 km/h
2539 17-12-2010 03:56:04 -1.2 C 3.34 g/m*3 -1.2 C 0 km/h
2540 17-12-2010 04:08:04 -1.1 C 3.23 g/m*3 -1.1 C 0 km/h
2541 17-12-2010 04:20:04 -1.2 C 3.12 g/m*3 -1.2 C 0 km/h
2542 17-12-2010 04:32:04 -1.3 C 3.14 g/m*3 -1.3 C 0 km/h
2543 17-12-2010 04:44:04 -1.3 C 3.14 g/m*3 -1.3 C 0 km/h
2544 17-12-2010 04:56:04 -1.5 C 3.14 g/m*3 -1.5 C 0 km/h
2545 17-12-2010 05:08:05 -1.3 C 3.28 g/m*3 -1.3 C 0 km/h
2546 17-12-2010 05:20:05 -1.5 C 3.27 g/m*3 -1.5 C 0 km/h
2547 17-12-2010 05:32:05 -1.7 C 3.27 g/m*3 -1.7 C 0 km/h
2548 17-12-2010 05:44:05 -1.8 C 3.25 g/m*3 -1.8 C 0 km/h
2549 17-12-2010 05:56:05 -1.8 C 3.21 g/m*3 -1.8 C 0 km/h
2550 17-12-2010 06:08:05 -1.9 C 3.14 g/m*3 -1.9 C 0 km/h
Sensor: Nr:Datum:Temp:Abs-Feuchte:Windchill:Wind:
Aussen-T/F 2551 17-12-2010 06:20:05 -2.2 C 3.08 g/m*3 -2.2 C 0 km/h
2552 17-12-2010 06:32:05 -2.3 C 3.01 g/m*3 -2.3 C 0 km/h
2553 17-12-2010 06:44:05 -2.6 C 2.83 g/m*3 -2.6 C 0 km/h
2554 17-12-2010 06:56:05 -2.2 C 2.78 g/m*3 -2.2 C 0 km/h
2555 17-12-2010 07:08:05 -2.2 C 2.62 g/m*3 -2.2 C 0 km/h
2556 17-12-2010 07:20:04 -2.1 C 2.64 g/m*3 -2.1 C 0 km/h
2557 17-12-2010 07:32:03 -2.3 C 2.64 g/m*3 -2.3 C 0 km/h
2558 17-12-2010 07:44:03 -2.6 C 2.63 g/m*3 -2.6 C 0 km/h
2559 17-12-2010 07:56:02 -2.2 C 2.74 g/m*3 -2.2 C 0 km/h
2560 17-12-2010 08:08:02 -2.4 C 2.83 g/m*3 -2.4 C 0 km/h
2561 17-12-2010 08:20:02 -2.4 C 2.99 g/m*3 -2.4 C 0 km/h
2562 17-12-2010 08:32:02 -2.1 C 3.1 g/m*3 -2.1 C 0 km/h
2563 17-12-2010 08:44:02 -2.1 C 3.06 g/m*3 -2.1 C 0 km/h
2564 17-12-2010 08:56:02 -2.1 C 3.01 g/m*3 -2.1 C 0 km/h
2565 17-12-2010 09:08:01 -2 C 2.95 g/m*3 -2 C 0 km/h
2566 17-12-2010 09:20:02 -2 C 2.95 g/m*3 -2 C 0 km/h
2567 17-12-2010 09:32:02 -1.9 C 3.01 g/m*3 -1.9 C 0 km/h
2568 17-12-2010 09:44:02 -1.8 C 3.08 g/m*3 -1.8 C 0 km/h
2569 17-12-2010 09:56:02 -1.9 C 3.06 g/m*3 -1.9 C 0 km/h
2570 17-12-2010 10:08:02 -1.9 C 3.01 g/m*3 -1.9 C 0 km/h
2571 17-12-2010 10:20:02 -1.8 C 2.95 g/m*3 -1.8 C 0 km/h
2572 17-12-2010 10:32:02 -1.7 C 2.88 g/m*3 -1.7 C 0 km/h
2573 17-12-2010 10:44:02 -1.8 C 2.86 g/m*3 -1.8 C 0 km/h
2574 17-12-2010 10:56:01 -1.1 C 3.05 g/m*3 -1.1 C 0 km/h
2575 17-12-2010 11:08:01 -1.5 C 2.92 g/m*3 -1.5 C 0 km/h
Sensor: Nr:Datum:Temp:Abs-Feuchte:Windchill:Wind:
Aussen-T/F 2576 17-12-2010 11:20:01 -1.4 C 2.86 g/m*3 -1.4 C 0 km/h
2577 17-12-2010 11:32:01 -1.1 C 2.78 g/m*3 -1.1 C 0 km/h
2578 17-12-2010 11:44:01 -1.1 C 2.56 g/m*3 -1.1 C 0 km/h
2579 17-12-2010 11:56:01 -0.9 C 2.55 g/m*3 -0.9 C 0 km/h
2580 17-12-2010 12:08:01 -0.6 C 2.6 g/m*3 -0.6 C 0 km/h
2581 17-12-2010 12:20:02 -1.2 C 2.54 g/m*3 -1.2 C 0 km/h
2582 17-12-2010 12:32:01 -1.4 C 2.51 g/m*3 -1.4 C 0 km/h
2583 17-12-2010 12:44:01 -1.2 C 2.54 g/m*3 -1.2 C 0 km/h
2584 17-12-2010 12:56:03 -1.3 C 2.43 g/m*3 -1.3 C 0 km/h
2585 17-12-2010 13:08:02 -1.9 C 2.38 g/m*3 -1.9 C 0 km/h
2586 17-12-2010 13:20:02 -1 C 2.44 g/m*3 -1 C 0 km/h
2587 17-12-2010 13:32:02 -1 C 2.44 g/m*3 -1 C 0 km/h
2588 17-12-2010 13:44:02 -1 C 2.44 g/m*3 -1 C 0 km/h
2589 17-12-2010 13:56:02 -1.2 C 2.45 g/m*3 -1.2 C 0 km/h
2590 17-12-2010 14:08:01 -0.6 C 2.56 g/m*3 -0.6 C 0 km/h
2591 17-12-2010 14:20:02 -1.1 C 2.51 g/m*3 -1.1 C 0 km/h
2592 17-12-2010 14:32:02 -1.6 C 2.6 g/m*3 -1.6 C 0 km/h
2593 17-12-2010 14:44:02 -1.8 C 2.74 g/m*3 -1.8 C 0 km/h
2594 17-12-2010 14:56:02 -1.9 C 2.84 g/m*3 -1.9 C 0 km/h
2595 17-12-2010 15:08:03 -1.9 C 2.93 g/m*3 -1.9 C 0 km/h
2596 17-12-2010 15:20:02 -1.8 C 2.99 g/m*3 -1.8 C 0 km/h
2597 17-12-2010 15:32:02 -1.7 C 2.97 g/m*3 -1.7 C 0 km/h
2598 17-12-2010 15:44:03 -1.9 C 2.97 g/m*3 -1.9 C 0 km/h
2599 17-12-2010 15:56:01 -1.8 C 3.04 g/m*3 -1.8 C 0 km/h
2600 17-12-2010 16:08:02 -1.8 C 3.04 g/m*3 -1.8 C 0 km/h
Sensor: Nr:Datum:Temp:Abs-Feuchte:Windchill:Wind:
Aussen-T/F 2601 17-12-2010 16:20:01 -1.9 C 3.01 g/m*3 -1.9 C 0 km/h
2602 17-12-2010 16:32:01 -2.1 C 3.01 g/m*3 -2.1 C 0 km/h
2603 17-12-2010 16:44:01 -2 C 3.03 g/m*3 -2 C 0 km/h
2604 17-12-2010 16:56:01 -2.6 C 2.91 g/m*3 -2.6 C 0 km/h
2605 17-12-2010 17:08:01 -3.4 C 2.83 g/m*3 -3.4 C 0 km/h
2606 17-12-2010 17:20:01 -4.3 C 2.72 g/m*3 -4.3 C 0 km/h
2607 17-12-2010 17:32:01 -4.2 C 2.81 g/m*3 -4.2 C 0 km/h
2608 17-12-2010 17:44:01 -4.1 C 2.83 g/m*3 -4.1 C 0 km/h
2609 17-12-2010 17:56:01 -4.3 C 2.79 g/m*3 -4.3 C 0 km/h
2610 17-12-2010 18:08:02 -4.6 C 2.77 g/m*3 -4.6 C 0 km/h
2611 17-12-2010 18:20:01 -4.8 C 2.76 g/m*3 -4.8 C 0 km/h
2612 17-12-2010 18:32:01 -5.6 C 2.61 g/m*3 -5.6 C 0 km/h
2613 17-12-2010 18:44:01 -5.8 C 2.6 g/m*3 -5.8 C 0 km/h
2614 17-12-2010 18:56:01 -5.3 C 2.73 g/m*3 -5.3 C 0 km/h
2615 17-12-2010 19:08:02 -6.2 C 2.53 g/m*3 -6.2 C 0 km/h
2616 17-12-2010 19:20:02 -6.5 C 2.5 g/m*3 -6.5 C 0 km/h
2617 17-12-2010 19:32:01 -6.1 C 2.61 g/m*3 -6.1 C 0 km/h
2618 17-12-2010 19:44:01 -6.7 C 2.47 g/m*3 -6.7 C 0 km/h
2619 17-12-2010 19:56:01 -6.9 C 2.43 g/m*3 -6.9 C 0 km/h
2620 17-12-2010 20:08:02 -6.6 C 2.52 g/m*3 -6.6 C 0 km/h
2621 17-12-2010 20:20:01 -6.6 C 2.52 g/m*3 -6.6 C 0 km/h
2622 17-12-2010 20:32:02 -6.6 C 2.52 g/m*3 -6.6 C 0 km/h
2623 17-12-2010 20:44:02 -6.5 C 2.53 g/m*3 -6.5 C 0 km/h
2624 17-12-2010 20:56:02 -6.6 C 2.52 g/m*3 -6.6 C 0 km/h
2625 17-12-2010 21:08:02 -6.8 C 2.48 g/m*3 -6.8 C 0 km/h
Sensor: Nr:Datum:Temp:Abs-Feuchte:Windchill:Wind:
Aussen-T/F 2626 17-12-2010 21:20:02 -6.8 C 2.48 g/m*3 -6.8 C 0 km/h
2627 17-12-2010 21:32:02 -7 C 2.41 g/m*3 -7 C 0 km/h
2628 17-12-2010 21:44:02 -7.1 C 2.4 g/m*3 -7.1 C 0 km/h
2629 17-12-2010 21:57:02 -7 C 2.41 g/m*3 -7 C 0 km/h
2630 17-12-2010 22:09:02 -7.3 C 2.36 g/m*3 -7.3 C 0 km/h
2631 17-12-2010 22:21:02 -7.4 C 2.34 g/m*3 -7.4 C 0 km/h
2632 17-12-2010 22:33:02 -7.2 C 2.38 g/m*3 -7.2 C 0 km/h
2633 17-12-2010 22:45:02 -6.6 C 2.52 g/m*3 -6.6 C 0 km/h
2634 17-12-2010 22:57:02 -6.1 C 2.61 g/m*3 -6.1 C 0 km/h
2635 17-12-2010 23:09:02 -6.2 C 2.59 g/m*3 -6.2 C 0 km/h
2636 17-12-2010 23:21:02 -6 C 2.63 g/m*3 -6 C 0 km/h
2637 17-12-2010 23:33:02 -6 C 2.63 g/m*3 -6 C 0 km/h
2638 17-12-2010 23:45:02 -5.8 C 2.7 g/m*3 -5.8 C 0 km/h
2639 17-12-2010 23:57:03 -5.5 C 2.76 g/m*3 -5.5 C 0 km/h
2640 18-12-2010 00:09:03 -5.2 C 2.82 g/m*3 -5.2 C 0 km/h
2641 18-12-2010 00:21:03 -4.9 C 2.92 g/m*3 -4.9 C 0 km/h
2642 18-12-2010 00:33:03 -4.7 C 2.96 g/m*3 -4.7 C 0 km/h
2643 18-12-2010 00:45:03 -4.5 C 3 g/m*3 -4.5 C 0 km/h
2644 18-12-2010 00:57:03 -4.4 C 2.99 g/m*3 -4.4 C 0 km/h
2645 18-12-2010 01:09:03 -4.3 C 2.97 g/m*3 -4.3 C 0 km/h
2646 18-12-2010 01:21:03 -4.3 C 2.94 g/m*3 -4.3 C 0 km/h
2647 18-12-2010 01:33:03 -4.2 C 2.96 g/m*3 -4.2 C 0 km/h
2648 18-12-2010 01:45:03 -4.6 C 2.84 g/m*3 -4.6 C 0 km/h
2649 18-12-2010 01:57:03 -4.8 C 2.8 g/m*3 -4.8 C 0 km/h
2650 18-12-2010 02:09:03 -5.2 C 2.68 g/m*3 -5.2 C 0 km/h
Sensor: Nr:Datum:Temp:Abs-Feuchte:Windchill:Wind:
Aussen-T/F 2651 18-12-2010 02:21:03 -5.9 C 2.55 g/m*3 -5.9 C 0 km/h
2652 18-12-2010 02:33:03 -5.4 C 2.68 g/m*3 -5.4 C 0 km/h
2653 18-12-2010 02:45:03 -5.3 C 2.73 g/m*3 -5.3 C 0 km/h
2654 18-12-2010 02:57:03 -4.6 C 2.84 g/m*3 -4.6 C 0 km/h
2655 18-12-2010 03:09:03 -4.5 C 2.82 g/m*3 -4.5 C 0 km/h
2656 18-12-2010 03:21:03 -4.4 C 2.84 g/m*3 -4.4 C 0 km/h
2657 18-12-2010 03:33:03 -4.3 C 2.86 g/m*3 -4.3 C 0 km/h
2658 18-12-2010 03:45:03 -4.3 C 2.9 g/m*3 -4.3 C 0 km/h
2659 18-12-2010 03:57:03 -4.3 C 2.94 g/m*3 -4.3 C 0 km/h
2660 18-12-2010 04:09:03 -4.4 C 2.92 g/m*3 -4.4 C 0 km/h
2661 18-12-2010 04:21:04 -4.4 C 2.92 g/m*3 -4.4 C 0 km/h
2662 18-12-2010 04:33:04 -4.3 C 2.97 g/m*3 -4.3 C 0 km/h
2663 18-12-2010 04:45:04 -4.4 C 2.95 g/m*3 -4.4 C 0 km/h
2664 18-12-2010 04:57:04 -4.3 C 2.97 g/m*3 -4.3 C 0 km/h
2665 18-12-2010 05:09:04 -4.4 C 2.99 g/m*3 -4.4 C 0 km/h
2666 18-12-2010 05:21:04 -4.4 C 2.99 g/m*3 -4.4 C 0 km/h
2667 18-12-2010 05:33:04 -4.5 C 2.96 g/m*3 -4.5 C 0 km/h
2668 18-12-2010 05:45:04 -4.4 C 2.99 g/m*3 -4.4 C 0 km/h
2669 18-12-2010 05:57:04 -4.5 C 2.96 g/m*3 -4.5 C 0 km/h
2670 18-12-2010 06:09:04 -4.4 C 2.99 g/m*3 -4.4 C 0 km/h
2671 18-12-2010 06:21:04 -4.4 C 2.99 g/m*3 -4.4 C 0 km/h
2672 18-12-2010 06:33:04 -4.4 C 2.99 g/m*3 -4.4 C 0 km/h
2673 18-12-2010 06:45:04 -4.3 C 3.01 g/m*3 -4.3 C 0 km/h
2674 18-12-2010 06:57:04 -4.2 C 3.07 g/m*3 -4.2 C 0 km/h
2675 18-12-2010 07:09:04 -4.2 C 3.07 g/m*3 -4.2 C 0 km/h
Sensor: Nr:Datum:Temp:Abs-Feuchte:Windchill:Wind:
Aussen-T/F 2676 18-12-2010 07:21:04 -4.8 C 2.9 g/m*3 -4.8 C 0 km/h
2677 18-12-2010 07:33:04 -5.4 C 2.78 g/m*3 -5.4 C 0 km/h
2678 18-12-2010 07:45:04 -6.2 C 2.62 g/m*3 -6.2 C 0 km/h
2679 18-12-2010 07:57:04 -5.7 C 2.72 g/m*3 -5.7 C 0 km/h
2680 18-12-2010 08:09:04 -5.3 C 2.83 g/m*3 -5.3 C 0 km/h
2681 18-12-2010 08:21:04 -5.3 C 2.83 g/m*3 -5.3 C 0 km/h
2682 18-12-2010 08:33:04 -5.5 C 2.76 g/m*3 -5.5 C 0 km/h
2683 18-12-2010 08:45:05 -5.4 C 2.78 g/m*3 -5.4 C 0 km/h
2684 18-12-2010 08:57:05 -5.2 C 2.79 g/m*3 -5.2 C 0 km/h
2685 18-12-2010 09:09:02 -5.2 C 2.75 g/m*3 -5.2 C 0 km/h
2686 18-12-2010 09:21:02 -5.1 C 2.74 g/m*3 -5.1 C 0 km/h
2687 18-12-2010 09:33:02 -4.9 C 2.71 g/m*3 -4.9 C 0 km/h
2688 18-12-2010 09:45:02 -4.6 C 2.73 g/m*3 -4.6 C 0 km/h
2689 18-12-2010 09:57:02 -4.4 C 2.7 g/m*3 -4.4 C 0 km/h
2690 18-12-2010 10:09:02 -4.2 C 2.67 g/m*3 -4.2 C 0 km/h
2691 18-12-2010 10:21:02 -4.1 C 2.65 g/m*3 -4.1 C 0 km/h
2692 18-12-2010 10:33:02 -3.8 C 2.71 g/m*3 -3.8 C 0 km/h
2693 18-12-2010 10:45:02 -3.5 C 2.73 g/m*3 -3.5 C 0 km/h
2694 18-12-2010 10:57:02 -3.5 C 2.65 g/m*3 -3.5 C 0 km/h
2695 18-12-2010 11:09:03 -3.5 C 2.62 g/m*3 -3.5 C 0 km/h
2696 18-12-2010 11:21:02 -3.9 C 2.62 g/m*3 -3.9 C 0 km/h
2697 18-12-2010 11:33:02 -3.5 C 2.69 g/m*3 -3.5 C 0 km/h
2698 18-12-2010 11:45:01 -3.2 C 2.59 g/m*3 -3.2 C 0 km/h
2699 18-12-2010 11:57:01 -3.3 C 2.42 g/m*3 -3.3 C 0 km/h
2700 18-12-2010 12:09:02 -3.6 C 2.41 g/m*3 -3.6 C 0 km/h
Sensor: Nr:Datum:Temp:Abs-Feuchte:Windchill:Wind:
Aussen-T/F 2701 18-12-2010 12:21:01 -3.8 C 2.49 g/m*3 -3.8 C 0 km/h
2702 18-12-2010 12:33:01 -3.3 C 2.5 g/m*3 -3.3 C 0 km/h
2703 18-12-2010 12:45:01 -2.9 C 2.49 g/m*3 -2.9 C 0 km/h
2704 18-12-2010 12:57:01 -2.8 C 2.43 g/m*3 -2.8 C 0 km/h
2705 18-12-2010 13:09:01 -3 C 2.36 g/m*3 -3 C 0 km/h
2706 18-12-2010 13:21:02 -3.2 C 2.32 g/m*3 -3.2 C 0 km/h
2707 18-12-2010 13:33:01 -3 C 2.36 g/m*3 -3 C 0 km/h
2708 18-12-2010 13:45:03 -2.8 C 2.39 g/m*3 -2.8 C 0 km/h
2709 18-12-2010 13:57:03 -2.8 C 2.39 g/m*3 -2.8 C 0 km/h
2710 18-12-2010 14:09:02 -3.3 C 2.35 g/m*3 -3.3 C 0 km/h
2711 18-12-2010 14:21:02 -3.2 C 2.32 g/m*3 -3.2 C 0 km/h
2712 18-12-2010 14:33:02 -3.7 C 2.28 g/m*3 -3.7 C 0 km/h
2713 18-12-2010 14:45:02 -4.2 C 2.27 g/m*3 -4.2 C 0 km/h
2714 18-12-2010 14:57:02 -4.8 C 2.25 g/m*3 -4.8 C 0 km/h
2715 18-12-2010 15:09:01 -4.7 C 2.3 g/m*3 -4.7 C 0 km/h
2716 18-12-2010 15:21:02 -5.1 C 2.3 g/m*3 -5.1 C 0 km/h
2717 18-12-2010 15:33:02 -5.6 C 2.28 g/m*3 -5.6 C 0 km/h
2718 18-12-2010 15:45:02 -5.9 C 2.33 g/m*3 -5.9 C 0 km/h
2719 18-12-2010 15:57:02 -6.1 C 2.33 g/m*3 -6.1 C 0 km/h
2720 18-12-2010 16:09:03 -6.6 C 2.3 g/m*3 -6.6 C 0 km/h
2721 18-12-2010 16:21:02 -6.9 C 2.25 g/m*3 -6.9 C 0 km/h
2722 18-12-2010 16:33:02 -7 C 2.3 g/m*3 -7 C 0 km/h
2723 18-12-2010 16:45:01 -7.5 C 2.24 g/m*3 -7.5 C 0 km/h
2724 18-12-2010 16:57:01 -7.3 C 2.28 g/m*3 -7.3 C 0 km/h
2725 18-12-2010 17:09:02 -7.6 C 2.25 g/m*3 -7.6 C 0 km/h
Sensor: Nr:Datum:Temp:Abs-Feuchte:Windchill:Wind:
Aussen-T/F 2726 18-12-2010 17:21:01 -7.7 C 2.24 g/m*3 -7.7 C 0 km/h
2727 18-12-2010 17:33:01 -7.9 C 2.23 g/m*3 -7.9 C 0 km/h
2728 18-12-2010 17:45:01 -7.3 C 2.36 g/m*3 -7.3 C 0 km/h
2729 18-12-2010 17:57:01 -7.3 C 2.36 g/m*3 -7.3 C 0 km/h
2730 18-12-2010 18:09:01 -6.7 C 2.5 g/m*3 -6.7 C 0 km/h
2731 18-12-2010 18:21:02 -6.8 C 2.48 g/m*3 -6.8 C 0 km/h
2732 18-12-2010 18:33:01 -6.9 C 2.43 g/m*3 -6.9 C 0 km/h
2733 18-12-2010 18:45:02 -6.8 C 2.45 g/m*3 -6.8 C 0 km/h
2734 18-12-2010 18:57:02 -6.5 C 2.53 g/m*3 -6.5 C 0 km/h
2735 18-12-2010 19:09:01 -5.8 C 2.7 g/m*3 -5.8 C 0 km/h
2736 18-12-2010 19:21:02 -5.4 C 2.78 g/m*3 -5.4 C 0 km/h
2737 18-12-2010 19:33:01 -5.4 C 2.78 g/m*3 -5.4 C 0 km/h
2738 18-12-2010 19:45:02 -5.2 C 2.82 g/m*3 -5.2 C 0 km/h
2739 18-12-2010 19:57:02 -4.9 C 2.88 g/m*3 -4.9 C 0 km/h
2740 18-12-2010 20:09:02 -4.6 C 2.94 g/m*3 -4.6 C 0 km/h
2741 18-12-2010 20:21:02 -4.4 C 2.99 g/m*3 -4.4 C 0 km/h
2742 18-12-2010 20:33:02 -4.2 C 2.99 g/m*3 -4.2 C 0 km/h
2743 18-12-2010 20:45:01 -4.4 C 2.95 g/m*3 -4.4 C 0 km/h
2744 18-12-2010 20:57:01 -4.2 C 2.99 g/m*3 -4.2 C 0 km/h
2745 18-12-2010 21:09:02 -4.1 C 3.01 g/m*3 -4.1 C 0 km/h
2746 18-12-2010 21:21:01 -4.1 C 3.01 g/m*3 -4.1 C 0 km/h
2747 18-12-2010 21:33:02 -3.9 C 3.06 g/m*3 -3.9 C 0 km/h
2748 18-12-2010 21:46:03 -4 C 3.04 g/m*3 -4 C 0 km/h
2749 18-12-2010 21:58:03 -3.8 C 3.12 g/m*3 -3.8 C 0 km/h
2750 18-12-2010 22:10:03 -3.5 C 3.18 g/m*3 -3.5 C 0 km/h
Sensor: Nr:Datum:Temp:Abs-Feuchte:Windchill:Wind:
Aussen-T/F 2751 18-12-2010 22:22:03 -3.5 C 3.18 g/m*3 -3.5 C 0 km/h
2752 18-12-2010 22:34:03 -3.4 C 3.21 g/m*3 -3.4 C 0 km/h
2753 18-12-2010 22:46:03 -3.4 C 3.21 g/m*3 -3.4 C 0 km/h
2754 18-12-2010 22:58:03 -3.3 C 3.23 g/m*3 -3.3 C 0 km/h
2755 18-12-2010 23:10:03 -3.2 C 3.25 g/m*3 -3.2 C 0 km/h
2756 18-12-2010 23:22:03 -3.1 C 3.28 g/m*3 -3.1 C 0 km/h
2757 18-12-2010 23:34:03 -3.1 C 3.28 g/m*3 -3.1 C 0 km/h
2758 18-12-2010 23:46:03 -3.1 C 3.28 g/m*3 -3.1 C 0 km/h
2759 18-12-2010 23:58:03 -2.9 C 3.32 g/m*3 -2.9 C 0 km/h
2760 19-12-2010 00:10:03 -2.7 C 3.37 g/m*3 -2.7 C 0 km/h
2761 19-12-2010 00:22:03 -2.7 C 3.37 g/m*3 -2.7 C 0 km/h
2762 19-12-2010 00:34:04 -2.6 C 3.39 g/m*3 -2.6 C 0 km/h
2763 19-12-2010 00:46:04 -2.4 C 3.44 g/m*3 -2.4 C 0 km/h
2764 19-12-2010 00:58:04 -2.4 C 3.48 g/m*3 -2.4 C 0 km/h
2765 19-12-2010 01:10:04 -2.4 C 3.52 g/m*3 -2.4 C 0 km/h
2766 19-12-2010 01:22:04 -2.4 C 3.52 g/m*3 -2.4 C 0 km/h
2767 19-12-2010 01:34:04 -2.4 C 3.52 g/m*3 -2.4 C 0 km/h
2768 19-12-2010 01:46:04 -2.5 C 3.54 g/m*3 -2.5 C 0 km/h
2769 19-12-2010 01:58:04 -2.5 C 3.54 g/m*3 -2.5 C 0 km/h
2770 19-12-2010 02:10:04 -2.4 C 3.57 g/m*3 -2.4 C 0 km/h
2771 19-12-2010 02:22:04 -2.5 C 3.54 g/m*3 -2.5 C 0 km/h
2772 19-12-2010 02:34:04 -2.5 C 3.54 g/m*3 -2.5 C 0 km/h
2773 19-12-2010 02:46:04 -2.5 C 3.54 g/m*3 -2.5 C 0 km/h
2774 19-12-2010 02:58:04 -2.6 C 3.52 g/m*3 -2.6 C 0 km/h
2775 19-12-2010 03:10:04 -2.7 C 3.49 g/m*3 -2.7 C 0 km/h
Sensor: Nr:Datum:Temp:Abs-Feuchte:Windchill:Wind:
Aussen-T/F 2776 19-12-2010 03:22:04 -2.7 C 3.49 g/m*3 -2.7 C 0 km/h
2777 19-12-2010 03:34:04 -2.7 C 3.49 g/m*3 -2.7 C 0 km/h
2778 19-12-2010 03:46:04 -2.7 C 3.49 g/m*3 -2.7 C 0 km/h
2779 19-12-2010 03:58:04 -2.7 C 3.49 g/m*3 -2.7 C 0 km/h
2780 19-12-2010 04:10:04 -2.6 C 3.52 g/m*3 -2.6 C 0 km/h
2781 19-12-2010 04:22:04 -2.5 C 3.54 g/m*3 -2.5 C 0 km/h
2782 19-12-2010 04:34:04 -2.5 C 3.54 g/m*3 -2.5 C 0 km/h
2783 19-12-2010 04:46:04 -2.4 C 3.57 g/m*3 -2.4 C 0 km/h
2784 19-12-2010 04:58:05 -2.3 C 3.59 g/m*3 -2.3 C 0 km/h
2785 19-12-2010 05:10:05 -1.6 C 3.77 g/m*3 -1.6 C 0 km/h
2786 19-12-2010 05:22:05 -1.1 C 3.82 g/m*3 -1.1 C 0 km/h
2787 19-12-2010 05:34:05 -0.9 C 3.69 g/m*3 -0.9 C 0 km/h
2788 19-12-2010 05:46:05 -0.6 C 3.58 g/m*3 -0.6 C 0 km/h
2789 19-12-2010 05:58:05 -0.9 C 3.46 g/m*3 -0.9 C 0 km/h
2790 19-12-2010 06:10:05 -1.1 C 3.41 g/m*3 -1.1 C 0 km/h
2791 19-12-2010 06:22:05 -1.4 C 3.3 g/m*3 -1.4 C 0 km/h
2792 19-12-2010 06:34:05 -1.4 C 3.25 g/m*3 -1.4 C 0 km/h
2793 19-12-2010 06:46:05 -1.7 C 3.19 g/m*3 -1.7 C 0 km/h
2794 19-12-2010 06:58:05 -2.6 C 3.07 g/m*3 -2.6 C 0 km/h
2795 19-12-2010 07:10:05 -2.8 C 3.03 g/m*3 -2.8 C 0 km/h
2796 19-12-2010 07:22:05 -3.3 C 3.04 g/m*3 -3.3 C 0 km/h
2797 19-12-2010 07:34:05 -2.7 C 3.21 g/m*3 -2.7 C 0 km/h
2798 19-12-2010 07:46:05 -2 C 3.37 g/m*3 -2 C 0 km/h
2799 19-12-2010 07:58:05 -2.1 C 3.31 g/m*3 -2.1 C 0 km/h
2800 19-12-2010 08:10:05 -1.7 C 3.31 g/m*3 -1.7 C 0 km/h
Sensor: Nr:Datum:Temp:Abs-Feuchte:Windchill:Wind:
Aussen-T/F 2801 19-12-2010 08:22:05 -2.7 C 3.09 g/m*3 -2.7 C 0 km/h
2802 19-12-2010 08:34:05 -2.9 C 3.13 g/m*3 -2.9 C 0 km/h
2803 19-12-2010 08:46:02 -2.9 C 3.16 g/m*3 -2.9 C 0 km/h
2804 19-12-2010 08:58:02 -2.3 C 3.3 g/m*3 -2.3 C 0 km/h
2805 19-12-2010 09:10:02 -2.1 C 3.31 g/m*3 -2.1 C 0 km/h
2806 19-12-2010 09:22:02 -2.5 C 3.26 g/m*3 -2.5 C 0 km/h
2807 19-12-2010 09:34:02 -2.4 C 3.32 g/m*3 -2.4 C 0 km/h
2808 19-12-2010 09:46:02 -2 C 3.41 g/m*3 -2 C 0 km/h
2809 19-12-2010 09:58:02 -1.2 C 3.57 g/m*3 -1.2 C 0 km/h
2810 19-12-2010 10:10:02 -1.1 C 3.5 g/m*3 -1.1 C 0 km/h
2811 19-12-2010 10:22:02 -1.1 C 3.41 g/m*3 -1.1 C 0 km/h
2812 19-12-2010 10:34:02 -0.8 C 3.44 g/m*3 -0.8 C 0 km/h
2813 19-12-2010 10:46:02 -0.9 C 3.37 g/m*3 -0.9 C 0 km/h
2814 19-12-2010 10:58:02 -0.8 C 3.35 g/m*3 -0.8 C 0 km/h
2815 19-12-2010 11:10:01 -0.7 C 3.37 g/m*3 -0.7 C 0 km/h
2816 19-12-2010 11:22:02 -0.6 C 3.44 g/m*3 -0.6 C 0 km/h
2817 19-12-2010 11:34:02 -0.4 C 3.58 g/m*3 -0.4 C 0 km/h
2818 19-12-2010 11:46:02 -0.2 C 3.68 g/m*3 -0.2 C 0 km/h
2819 19-12-2010 11:58:02 0 C 3.73 g/m*3 0 C 0 km/h
2820 19-12-2010 12:10:02 0 C 3.59 g/m*3 0 C 0 km/h
2821 19-12-2010 12:22:02 0.2 C 3.64 g/m*3 0.2 C 0 km/h
2822 19-12-2010 12:34:02 0.6 C 3.69 g/m*3 0.6 C 0 km/h
2823 19-12-2010 12:46:01 0.5 C 3.56 g/m*3 0.5 C 0 km/h
2824 19-12-2010 12:58:01 0.2 C 3.54 g/m*3 0.2 C 0 km/h
2825 19-12-2010 13:10:02 0.2 C 3.59 g/m*3 0.2 C 0 km/h
Sensor: Nr:Datum:Temp:Abs-Feuchte:Windchill:Wind:
Aussen-T/F 2826 19-12-2010 13:22:01 0.2 C 3.68 g/m*3 0.2 C 0 km/h
2827 19-12-2010 13:34:02 0.2 C 3.73 g/m*3 0.2 C 0 km/h
2828 19-12-2010 13:46:01 0.1 C 3.76 g/m*3 0.1 C 0 km/h
2829 19-12-2010 13:58:01 0 C 3.78 g/m*3 0 C 0 km/h
2830 19-12-2010 14:10:02 -0.2 C 3.82 g/m*3 -0.2 C 0 km/h
2831 19-12-2010 14:22:01 -0.2 C 3.92 g/m*3 -0.2 C 0 km/h
2832 19-12-2010 14:34:02 -0.2 C 3.97 g/m*3 -0.2 C 0 km/h
2833 19-12-2010 14:46:01 -0.1 C 3.99 g/m*3 -0.1 C 0 km/h
2834 19-12-2010 14:58:01 -0.2 C 4.01 g/m*3 -0.2 C 0 km/h
2835 19-12-2010 15:10:02 -0.4 C 4.01 g/m*3 -0.4 C 0 km/h
2836 19-12-2010 15:22:02 -0.4 C 4.05 g/m*3 -0.4 C 0 km/h
2837 19-12-2010 15:34:01 -0.4 C 4.1 g/m*3 -0.4 C 0 km/h
2838 19-12-2010 15:46:02 -0.4 C 4.1 g/m*3 -0.4 C 0 km/h
2839 19-12-2010 15:58:02 -0.4 C 4.15 g/m*3 -0.4 C 0 km/h
2840 19-12-2010 16:10:01 -0.4 C 4.19 g/m*3 -0.4 C 0 km/h
2841 19-12-2010 16:22:02 -0.3 C 4.22 g/m*3 -0.3 C 0 km/h
2842 19-12-2010 16:34:01 -0.3 C 4.22 g/m*3 -0.3 C 0 km/h
2843 19-12-2010 16:46:02 -0.2 C 4.25 g/m*3 -0.2 C 0 km/h
2844 19-12-2010 16:58:02 -0.3 C 4.27 g/m*3 -0.3 C 0 km/h
2845 19-12-2010 17:10:02 -0.2 C 4.3 g/m*3 -0.2 C 0 km/h
2846 19-12-2010 17:22:02 -0.2 C 4.3 g/m*3 -0.2 C 0 km/h
2847 19-12-2010 17:34:03 -0.2 C 4.35 g/m*3 -0.2 C 0 km/h
2848 19-12-2010 17:46:02 -0.2 C 4.35 g/m*3 -0.2 C 0 km/h
2849 19-12-2010 17:58:03 -0.2 C 4.35 g/m*3 -0.2 C 0 km/h
2850 19-12-2010 18:10:01 -0.2 C 4.35 g/m*3 -0.2 C 0 km/h
Sensor: Nr:Datum:Temp:Abs-Feuchte:Windchill:Wind:
Aussen-T/F 2851 19-12-2010 18:22:02 -0.2 C 4.35 g/m*3 -0.2 C 0 km/h
2852 19-12-2010 18:34:02 -0.2 C 4.35 g/m*3 -0.2 C 0 km/h
2853 19-12-2010 18:46:02 -0.2 C 4.35 g/m*3 -0.2 C 0 km/h
2854 19-12-2010 18:58:02 -0.1 C 4.43 g/m*3 -0.1 C 0 km/h
2855 19-12-2010 19:10:02 -0.1 C 4.43 g/m*3 -0.1 C 0 km/h
2856 19-12-2010 19:22:02 -0.1 C 4.43 g/m*3 -0.1 C 0 km/h
2857 19-12-2010 19:34:02 0 C 4.46 g/m*3 0 C 0 km/h
2858 19-12-2010 19:46:02 0 C 4.46 g/m*3 0 C 0 km/h
2859 19-12-2010 19:58:02 0 C 4.46 g/m*3 0 C 0 km/h
2860 19-12-2010 20:10:02 0 C 4.46 g/m*3 0 C 0 km/h
2861 19-12-2010 20:22:02 0 C 4.46 g/m*3 0 C 0 km/h
2862 19-12-2010 20:34:02 0.1 C 4.49 g/m*3 0.1 C 0 km/h
2863 19-12-2010 20:46:02 0.1 C 4.49 g/m*3 0.1 C 0 km/h
2864 19-12-2010 20:58:02 0.2 C 4.57 g/m*3 0.2 C 0 km/h
2865 19-12-2010 21:10:02 0.3 C 4.6 g/m*3 0.3 C 0 km/h
2866 19-12-2010 21:22:03 0.4 C 4.63 g/m*3 0.4 C 0 km/h
2867 19-12-2010 21:34:02 1 C 4.78 g/m*3 1 C 0 km/h
2868 19-12-2010 21:46:03 1.8 C 5.1 g/m*3 1.8 C 0 km/h
2869 19-12-2010 21:58:03 2 C 5.11 g/m*3 2 C 0 km/h
2870 19-12-2010 22:10:03 1.9 C 5.08 g/m*3 1.9 C 0 km/h
2871 19-12-2010 22:22:02 1.7 C 5.01 g/m*3 1.7 C 0 km/h
2872 19-12-2010 22:34:02 1.5 C 4.94 g/m*3 1.5 C 0 km/h
2873 19-12-2010 22:46:01 1.6 C 4.92 g/m*3 1.6 C 0 km/h
2874 19-12-2010 22:58:01 2.9 C 5.37 g/m*3 2.9 C 0 km/h
2875 19-12-2010 23:10:02 3.6 C 5.45 g/m*3 3.6 C 0 km/h
Sensor: Nr:Datum:Temp:Abs-Feuchte:Windchill:Wind:
Aussen-T/F 2876 19-12-2010 23:22:01 4.2 C 5.28 g/m*3 4.2 C 0 km/h
2877 19-12-2010 23:34:02 4.5 C 5 g/m*3 4.5 C 0 km/h
2878 19-12-2010 23:46:01 5.1 C 4.79 g/m*3 5.1 C 0 km/h
2879 19-12-2010 23:58:01 4.7 C 4.66 g/m*3 4.7 C 0 km/h
2880 20-12-2010 00:10:02 4.3 C 4.61 g/m*3 4.3 C 0 km/h
2881 20-12-2010 00:22:01 4.2 C 4.64 g/m*3 4.2 C 0 km/h
2882 20-12-2010 00:34:02 4 C 4.64 g/m*3 4 C 0 km/h
2883 20-12-2010 00:46:01 4 C 4.64 g/m*3 4 C 0 km/h
2884 20-12-2010 00:58:01 3.6 C 4.58 g/m*3 3.6 C 0 km/h
2885 20-12-2010 01:10:02 2.9 C 4.67 g/m*3 2.9 C 0 km/h
2886 20-12-2010 01:22:02 2.7 C 4.66 g/m*3 2.7 C 0 km/h
2887 20-12-2010 01:34:01 1.3 C 4.29 g/m*3 1.3 C 0 km/h
2888 20-12-2010 01:46:02 0.7 C 4.27 g/m*3 0.7 C 0 km/h
2889 20-12-2010 01:58:02 0.8 C 4.25 g/m*3 0.8 C 0 km/h
2890 20-12-2010 02:10:01 0.7 C 3.97 g/m*3 0.7 C 0 km/h
2891 20-12-2010 02:22:02 0.6 C 3.64 g/m*3 0.6 C 0 km/h
2892 20-12-2010 02:34:01 0.4 C 3.64 g/m*3 0.4 C 0 km/h
2893 20-12-2010 02:46:02 0.3 C 3.61 g/m*3 0.3 C 0 km/h
2894 20-12-2010 02:58:02 0.1 C 3.66 g/m*3 0.1 C 0 km/h
2895 20-12-2010 03:10:01 0 C 3.73 g/m*3 0 C 0 km/h
2896 20-12-2010 03:22:01 -0.1 C 3.66 g/m*3 -0.1 C 0 km/h
2897 20-12-2010 03:34:02 0 C 3.59 g/m*3 0 C 0 km/h
2898 20-12-2010 03:46:02 -0.3 C 3.56 g/m*3 -0.3 C 0 km/h
2899 20-12-2010 03:58:02 0 C 3.63 g/m*3 0 C 0 km/h
2900 20-12-2010 04:10:01 -0.2 C 3.58 g/m*3 -0.2 C 0 km/h
Sensor: Nr:Datum:Temp:Abs-Feuchte:Windchill:Wind:
Aussen-T/F 2901 20-12-2010 04:22:02 -0.6 C 3.63 g/m*3 -0.6 C 0 km/h
2902 20-12-2010 04:34:01 -0.5 C 3.74 g/m*3 -0.5 C 0 km/h
2903 20-12-2010 04:46:02 -0.4 C 3.72 g/m*3 -0.4 C 0 km/h
2904 20-12-2010 04:58:02 -0.5 C 3.65 g/m*3 -0.5 C 0 km/h
2905 20-12-2010 05:10:01 -0.7 C 3.6 g/m*3 -0.7 C 0 km/h
2906 20-12-2010 05:22:01 -1 C 3.57 g/m*3 -1 C 0 km/h
2907 20-12-2010 05:34:02 -1.1 C 3.55 g/m*3 -1.1 C 0 km/h
2908 20-12-2010 05:46:01 -1.1 C 3.55 g/m*3 -1.1 C 0 km/h
2909 20-12-2010 05:58:01 -1.2 C 3.52 g/m*3 -1.2 C 0 km/h
2910 20-12-2010 06:10:02 -1.3 C 3.54 g/m*3 -1.3 C 0 km/h
2911 20-12-2010 06:22:01 -1.3 C 3.54 g/m*3 -1.3 C 0 km/h
2912 20-12-2010 06:34:02 -1.5 C 3.49 g/m*3 -1.5 C 0 km/h
2913 20-12-2010 06:46:01 -1.9 C 3.4 g/m*3 -1.9 C 0 km/h
2914 20-12-2010 06:58:01 -2.3 C 3.34 g/m*3 -2.3 C 0 km/h
2915 20-12-2010 07:10:02 -2.5 C 3.34 g/m*3 -2.5 C 0 km/h
2916 20-12-2010 07:22:01 -2.7 C 3.33 g/m*3 -2.7 C 0 km/h
2917 20-12-2010 07:34:01 -2.4 C 3.44 g/m*3 -2.4 C 0 km/h
2918 20-12-2010 07:46:01 -2.7 C 3.37 g/m*3 -2.7 C 0 km/h
2919 20-12-2010 07:58:01 -2.7 C 3.41 g/m*3 -2.7 C 0 km/h
2920 20-12-2010 08:10:02 -2.5 C 3.5 g/m*3 -2.5 C 0 km/h
2921 20-12-2010 08:22:01 -2.5 C 3.5 g/m*3 -2.5 C 0 km/h
2922 20-12-2010 08:34:01 -2.5 C 3.54 g/m*3 -2.5 C 0 km/h
2923 20-12-2010 08:46:01 -2.4 C 3.57 g/m*3 -2.4 C 0 km/h
2924 20-12-2010 08:58:01 -2.2 C 3.62 g/m*3 -2.2 C 0 km/h
2925 20-12-2010 09:10:02 -2 C 3.67 g/m*3 -2 C 0 km/h
Sensor: Nr:Datum:Temp:Abs-Feuchte:Windchill:Wind:
Aussen-T/F 2926 20-12-2010 09:22:01 -1.8 C 3.72 g/m*3 -1.8 C 0 km/h
2927 20-12-2010 09:34:01 -1.9 C 3.61 g/m*3 -1.9 C 0 km/h
2928 20-12-2010 09:46:01 -1.7 C 3.53 g/m*3 -1.7 C 0 km/h
2929 20-12-2010 09:58:01 -1.6 C 3.42 g/m*3 -1.6 C 0 km/h
2930 20-12-2010 10:10:01 -1.6 C 3.34 g/m*3 -1.6 C 0 km/h
2931 20-12-2010 10:22:02 -1.3 C 3.36 g/m*3 -1.3 C 0 km/h
2932 20-12-2010 10:34:01 -1.1 C 3.37 g/m*3 -1.1 C 0 km/h
2933 20-12-2010 10:46:02 -1.1 C 3.28 g/m*3 -1.1 C 0 km/h
2934 20-12-2010 10:58:02 -1 C 3.3 g/m*3 -1 C 0 km/h
2935 20-12-2010 11:10:01 -0.9 C 3.28 g/m*3 -0.9 C 0 km/h
2936 20-12-2010 11:22:02 -0.9 C 3.28 g/m*3 -0.9 C 0 km/h
2937 20-12-2010 11:34:01 -0.8 C 3.25 g/m*3 -0.8 C 0 km/h
2938 20-12-2010 11:46:02 -0.7 C 3.32 g/m*3 -0.7 C 0 km/h
2939 20-12-2010 11:58:02 -0.7 C 3.28 g/m*3 -0.7 C 0 km/h
2940 20-12-2010 12:10:01 -1 C 3.21 g/m*3 -1 C 0 km/h
2941 20-12-2010 12:22:01 -1.1 C 3.28 g/m*3 -1.1 C 0 km/h
2942 20-12-2010 12:34:02 -1.1 C 3.28 g/m*3 -1.1 C 0 km/h
2943 20-12-2010 12:46:01 -1.1 C 3.28 g/m*3 -1.1 C 0 km/h
2944 20-12-2010 12:58:01 -1 C 3.3 g/m*3 -1 C 0 km/h
2945 20-12-2010 13:10:02 -0.9 C 3.28 g/m*3 -0.9 C 0 km/h
2946 20-12-2010 13:22:01 -1 C 3.25 g/m*3 -1 C 0 km/h
2947 20-12-2010 13:34:02 -0.9 C 3.28 g/m*3 -0.9 C 0 km/h
2948 20-12-2010 13:46:01 -0.8 C 3.35 g/m*3 -0.8 C 0 km/h
2949 20-12-2010 13:58:01 -1 C 3.25 g/m*3 -1 C 0 km/h
2950 20-12-2010 14:10:02 -1 C 3.25 g/m*3 -1 C 0 km/h
Sensor: Nr:Datum:Temp:Abs-Feuchte:Windchill:Wind:
Aussen-T/F 2951 20-12-2010 14:22:01 -0.9 C 3.28 g/m*3 -0.9 C 0 km/h
2952 20-12-2010 14:34:01 -1 C 3.25 g/m*3 -1 C 0 km/h
2953 20-12-2010 14:46:01 -1 C 3.25 g/m*3 -1 C 0 km/h
2954 20-12-2010 14:58:01 -1 C 3.25 g/m*3 -1 C 0 km/h
2955 20-12-2010 15:10:01 -1.1 C 3.23 g/m*3 -1.1 C 0 km/h
2956 20-12-2010 15:22:01 -1 C 3.25 g/m*3 -1 C 0 km/h
2957 20-12-2010 15:34:01 -1 C 3.25 g/m*3 -1 C 0 km/h
2958 20-12-2010 15:46:01 -1 C 3.3 g/m*3 -1 C 0 km/h
2959 20-12-2010 15:58:01 -1.3 C 3.28 g/m*3 -1.3 C 0 km/h
2960 20-12-2010 16:10:01 -1.6 C 3.25 g/m*3 -1.6 C 0 km/h
2961 20-12-2010 16:22:02 -2.9 C 2.93 g/m*3 -2.9 C 0 km/h
2962 20-12-2010 16:34:01 -3.3 C 3 g/m*3 -3.3 C 0 km/h
2963 20-12-2010 16:46:02 -3.5 C 3.03 g/m*3 -3.5 C 0 km/h
2964 20-12-2010 16:58:02 -3.9 C 3.02 g/m*3 -3.9 C 0 km/h
2965 20-12-2010 17:10:01 -4.2 C 2.99 g/m*3 -4.2 C 0 km/h
2966 20-12-2010 17:22:01 -3.8 C 3.12 g/m*3 -3.8 C 0 km/h
2967 20-12-2010 17:34:01 -3.4 C 3.28 g/m*3 -3.4 C 0 km/h
2968 20-12-2010 17:46:01 -3.2 C 3.33 g/m*3 -3.2 C 0 km/h
2969 20-12-2010 17:58:02 -3 C 3.42 g/m*3 -3 C 0 km/h
2970 20-12-2010 18:10:01 -3 C 3.42 g/m*3 -3 C 0 km/h
2971 20-12-2010 18:22:01 -3.1 C 3.39 g/m*3 -3.1 C 0 km/h
2972 20-12-2010 18:34:02 -3.1 C 3.39 g/m*3 -3.1 C 0 km/h
2973 20-12-2010 18:46:01 -3.1 C 3.39 g/m*3 -3.1 C 0 km/h
2974 20-12-2010 18:58:01 -2.9 C 3.48 g/m*3 -2.9 C 0 km/h
2975 20-12-2010 19:10:02 -2.9 C 3.48 g/m*3 -2.9 C 0 km/h
Sensor: Nr:Datum:Temp:Abs-Feuchte:Windchill:Wind:
Aussen-T/F 2976 20-12-2010 19:22:01 -2.9 C 3.48 g/m*3 -2.9 C 0 km/h
2977 20-12-2010 19:34:01 -3 C 3.46 g/m*3 -3 C 0 km/h
2978 20-12-2010 19:46:01 -3 C 3.46 g/m*3 -3 C 0 km/h
2979 20-12-2010 19:58:01 -3.2 C 3.37 g/m*3 -3.2 C 0 km/h
2980 20-12-2010 20:10:02 -3.1 C 3.43 g/m*3 -3.1 C 0 km/h
2981 20-12-2010 20:22:01 -2.8 C 3.51 g/m*3 -2.8 C 0 km/h
2982 20-12-2010 20:34:01 -2.9 C 3.48 g/m*3 -2.9 C 0 km/h
2983 20-12-2010 20:46:01 -2.9 C 3.48 g/m*3 -2.9 C 0 km/h
2984 20-12-2010 20:58:01 -2.9 C 3.48 g/m*3 -2.9 C 0 km/h
2985 20-12-2010 21:10:01 -3.2 C 3.37 g/m*3 -3.2 C 0 km/h
2986 20-12-2010 21:23:04 -3.3 C 3.35 g/m*3 -3.3 C 0 km/h
2987 20-12-2010 21:35:04 -3.6 C 3.27 g/m*3 -3.6 C 0 km/h
2988 20-12-2010 21:47:05 -3.8 C 3.23 g/m*3 -3.8 C 0 km/h
2989 20-12-2010 21:59:05 -4.3 C 3.08 g/m*3 -4.3 C 0 km/h
2990 20-12-2010 22:11:05 -4.5 C 3.04 g/m*3 -4.5 C 0 km/h
2991 20-12-2010 22:23:05 -4.5 C 3.04 g/m*3 -4.5 C 0 km/h
2992 20-12-2010 22:35:05 -4.4 C 3.09 g/m*3 -4.4 C 0 km/h
2993 20-12-2010 22:47:05 -4.2 C 3.14 g/m*3 -4.2 C 0 km/h
2994 20-12-2010 22:59:05 -3.9 C 3.24 g/m*3 -3.9 C 0 km/h
2995 20-12-2010 23:11:05 -3.6 C 3.31 g/m*3 -3.6 C 0 km/h
2996 20-12-2010 23:23:05 -3.4 C 3.4 g/m*3 -3.4 C 0 km/h
2997 20-12-2010 23:35:05 -3.5 C 3.34 g/m*3 -3.5 C 0 km/h
2998 20-12-2010 23:47:05 -3.4 C 3.4 g/m*3 -3.4 C 0 km/h
2999 20-12-2010 23:59:05 -3.4 C 3.4 g/m*3 -3.4 C 0 km/h
3000 21-12-2010 00:11:05 -3.7 C 3.29 g/m*3 -3.7 C 0 km/h
Sensor: Nr:Datum:Temp:Abs-Feuchte:Windchill:Wind:
Aussen-T/F 3001 21-12-2010 00:23:05 -3.8 C 3.27 g/m*3 -3.8 C 0 km/h
3002 21-12-2010 00:35:05 -3.7 C 3.33 g/m*3 -3.7 C 0 km/h
3003 21-12-2010 00:47:05 -3.6 C 3.35 g/m*3 -3.6 C 0 km/h
3004 21-12-2010 00:59:05 -3.3 C 3.42 g/m*3 -3.3 C 0 km/h
3005 21-12-2010 01:11:05 -3.1 C 3.47 g/m*3 -3.1 C 0 km/h
3006 21-12-2010 01:23:05 -3 C 3.5 g/m*3 -3 C 0 km/h
3007 21-12-2010 01:35:05 -2.8 C 3.55 g/m*3 -2.8 C 0 km/h
3008 21-12-2010 01:47:05 -2.8 C 3.55 g/m*3 -2.8 C 0 km/h
3009 21-12-2010 01:59:06 -2.7 C 3.57 g/m*3 -2.7 C 0 km/h
3010 21-12-2010 02:11:06 -2.7 C 3.57 g/m*3 -2.7 C 0 km/h
3011 21-12-2010 02:23:06 -2.5 C 3.62 g/m*3 -2.5 C 0 km/h
3012 21-12-2010 02:35:06 -2.7 C 3.57 g/m*3 -2.7 C 0 km/h
3013 21-12-2010 02:47:06 -2.6 C 3.6 g/m*3 -2.6 C 0 km/h
3014 21-12-2010 02:59:06 -2.5 C 3.62 g/m*3 -2.5 C 0 km/h
3015 21-12-2010 03:11:06 -2.6 C 3.56 g/m*3 -2.6 C 0 km/h
3016 21-12-2010 03:23:06 -2.6 C 3.56 g/m*3 -2.6 C 0 km/h
3017 21-12-2010 03:35:06 -2.6 C 3.56 g/m*3 -2.6 C 0 km/h
3018 21-12-2010 03:47:06 -2.5 C 3.58 g/m*3 -2.5 C 0 km/h
3019 21-12-2010 03:59:06 -2.4 C 3.61 g/m*3 -2.4 C 0 km/h
3020 21-12-2010 04:11:06 -2.3 C 3.63 g/m*3 -2.3 C 0 km/h
3021 21-12-2010 04:23:06 -2.2 C 3.66 g/m*3 -2.2 C 0 km/h
3022 21-12-2010 04:35:06 -2.1 C 3.68 g/m*3 -2.1 C 0 km/h
3023 21-12-2010 04:47:06 -2.1 C 3.68 g/m*3 -2.1 C 0 km/h
3024 21-12-2010 04:59:06 -2 C 3.71 g/m*3 -2 C 0 km/h
3025 21-12-2010 05:11:06 -2 C 3.71 g/m*3 -2 C 0 km/h
Sensor: Nr:Datum:Temp:Abs-Feuchte:Windchill:Wind:
Aussen-T/F 3026 21-12-2010 05:23:06 -1.9 C 3.74 g/m*3 -1.9 C 0 km/h
3027 21-12-2010 05:35:06 -1.9 C 3.74 g/m*3 -1.9 C 0 km/h
3028 21-12-2010 05:47:06 -1.8 C 3.8 g/m*3 -1.8 C 0 km/h
3029 21-12-2010 05:59:07 -1.8 C 3.8 g/m*3 -1.8 C 0 km/h
3030 21-12-2010 06:11:07 -1.8 C 3.8 g/m*3 -1.8 C 0 km/h
3031 21-12-2010 06:23:07 -1.8 C 3.8 g/m*3 -1.8 C 0 km/h
3032 21-12-2010 06:35:07 -1.8 C 3.8 g/m*3 -1.8 C 0 km/h
3033 21-12-2010 06:47:07 -1.8 C 3.8 g/m*3 -1.8 C 0 km/h
3034 21-12-2010 06:59:07 -1.7 C 3.83 g/m*3 -1.7 C 0 km/h
3035 21-12-2010 07:11:07 -1.7 C 3.83 g/m*3 -1.7 C 0 km/h
3036 21-12-2010 07:23:07 -1.4 C 3.91 g/m*3 -1.4 C 0 km/h
3037 21-12-2010 07:35:05 -1.8 C 3.8 g/m*3 -1.8 C 0 km/h
3038 21-12-2010 07:47:02 -1.8 C 3.8 g/m*3 -1.8 C 0 km/h
3039 21-12-2010 07:59:02 -1.8 C 3.8 g/m*3 -1.8 C 0 km/h
3040 21-12-2010 08:11:02 -1.7 C 3.83 g/m*3 -1.7 C 0 km/h
3041 21-12-2010 08:23:01 -1.6 C 3.86 g/m*3 -1.6 C 0 km/h
3042 21-12-2010 08:35:02 -1.6 C 3.86 g/m*3 -1.6 C 0 km/h
3043 21-12-2010 08:47:02 -1.7 C 3.83 g/m*3 -1.7 C 0 km/h
3044 21-12-2010 08:59:02 -1.6 C 3.86 g/m*3 -1.6 C 0 km/h
3045 21-12-2010 09:11:02 -1.4 C 3.91 g/m*3 -1.4 C 0 km/h
3046 21-12-2010 09:23:02 -1.3 C 3.94 g/m*3 -1.3 C 0 km/h
3047 21-12-2010 09:35:02 -1.2 C 3.92 g/m*3 -1.2 C 0 km/h
3048 21-12-2010 09:47:02 -1.1 C 3.91 g/m*3 -1.1 C 0 km/h
3049 21-12-2010 09:59:02 -1.2 C 3.88 g/m*3 -1.2 C 0 km/h
3050 21-12-2010 10:11:02 -0.7 C 3.97 g/m*3 -0.7 C 0 km/h
Sensor: Nr:Datum:Temp:Abs-Feuchte:Windchill:Wind:
Aussen-T/F 3051 21-12-2010 10:23:02 -0.8 C 3.9 g/m*3 -0.8 C 0 km/h
3052 21-12-2010 10:35:02 -0.9 C 3.82 g/m*3 -0.9 C 0 km/h
3053 21-12-2010 10:47:02 -0.3 C 3.99 g/m*3 -0.3 C 0 km/h
3054 21-12-2010 10:59:02 -0.3 C 3.89 g/m*3 -0.3 C 0 km/h
3055 21-12-2010 11:11:02 0.1 C 3.95 g/m*3 0.1 C 0 km/h
3056 21-12-2010 11:23:02 0.4 C 4.03 g/m*3 0.4 C 0 km/h
3057 21-12-2010 11:35:01 0.6 C 3.99 g/m*3 0.6 C 0 km/h
3058 21-12-2010 11:47:02 0.8 C 4.04 g/m*3 0.8 C 0 km/h
3059 21-12-2010 11:59:02 0.6 C 3.89 g/m*3 0.6 C 0 km/h
3060 21-12-2010 12:11:01 0.9 C 3.92 g/m*3 0.9 C 0 km/h
3061 21-12-2010 12:23:02 1.2 C 3.95 g/m*3 1.2 C 0 km/h
3062 21-12-2010 12:35:02 1.3 C 4.03 g/m*3 1.3 C 0 km/h
3063 21-12-2010 12:47:02 1.4 C 4.05 g/m*3 1.4 C 0 km/h
3064 21-12-2010 12:59:02 0.9 C 3.92 g/m*3 0.9 C 0 km/h
3065 21-12-2010 13:11:02 1.3 C 4.08 g/m*3 1.3 C 0 km/h
3066 21-12-2010 13:23:02 1.4 C 4.11 g/m*3 1.4 C 0 km/h
3067 21-12-2010 13:35:02 1.5 C 4.14 g/m*3 1.5 C 0 km/h
3068 21-12-2010 13:47:01 1.5 C 4.14 g/m*3 1.5 C 0 km/h
3069 21-12-2010 13:59:01 1.5 C 4.14 g/m*3 1.5 C 0 km/h
3070 21-12-2010 14:11:02 1.4 C 4.11 g/m*3 1.4 C 0 km/h
3071 21-12-2010 14:23:01 1.2 C 4.05 g/m*3 1.2 C 0 km/h
3072 21-12-2010 14:35:01 1.2 C 4.05 g/m*3 1.2 C 0 km/h
3073 21-12-2010 14:47:01 1.2 C 4.05 g/m*3 1.2 C 0 km/h
3074 21-12-2010 14:59:01 1.2 C 4.05 g/m*3 1.2 C 0 km/h
3075 21-12-2010 15:11:02 1.2 C 4.05 g/m*3 1.2 C 0 km/h
Sensor: Nr:Datum:Temp:Abs-Feuchte:Windchill:Wind:
Aussen-T/F 3076 21-12-2010 15:23:01 1.3 C 4.19 g/m*3 1.3 C 0 km/h
3077 21-12-2010 15:35:01 1.2 C 4.21 g/m*3 1.2 C 0 km/h
3078 21-12-2010 15:47:01 1.1 C 4.23 g/m*3 1.1 C 0 km/h
3079 21-12-2010 15:59:01 1.1 C 4.23 g/m*3 1.1 C 0 km/h
3080 21-12-2010 16:11:02 1.1 C 4.23 g/m*3 1.1 C 0 km/h
3081 21-12-2010 16:23:02 0.6 C 4.19 g/m*3 0.6 C 0 km/h
3082 21-12-2010 16:35:01 0.6 C 4.19 g/m*3 0.6 C 0 km/h
3083 21-12-2010 16:47:02 0.3 C 4.16 g/m*3 0.3 C 0 km/h
3084 21-12-2010 16:59:02 0.3 C 4.2 g/m*3 0.3 C 0 km/h
3085 21-12-2010 17:11:01 0.3 C 4.25 g/m*3 0.3 C 0 km/h
3086 21-12-2010 17:23:02 0.3 C 4.3 g/m*3 0.3 C 0 km/h
3087 21-12-2010 17:35:01 0.1 C 4.29 g/m*3 0.1 C 0 km/h
3088 21-12-2010 17:47:02 0.1 C 4.29 g/m*3 0.1 C 0 km/h
3089 21-12-2010 17:59:02 0 C 4.26 g/m*3 0 C 0 km/h
3090 21-12-2010 18:11:02 0.1 C 4.34 g/m*3 0.1 C 0 km/h
3091 21-12-2010 18:23:02 0.2 C 4.37 g/m*3 0.2 C 0 km/h
3092 21-12-2010 18:35:02 0.2 C 4.37 g/m*3 0.2 C 0 km/h
3093 21-12-2010 18:47:02 0.2 C 4.37 g/m*3 0.2 C 0 km/h
3094 21-12-2010 18:59:02 0.2 C 4.42 g/m*3 0.2 C 0 km/h
3095 21-12-2010 19:11:02 0.2 C 4.42 g/m*3 0.2 C 0 km/h
3096 21-12-2010 19:23:01 0.1 C 4.39 g/m*3 0.1 C 0 km/h
3097 21-12-2010 19:35:02 0.1 C 4.39 g/m*3 0.1 C 0 km/h
3098 21-12-2010 19:47:02 0.1 C 4.39 g/m*3 0.1 C 0 km/h
3099 21-12-2010 19:59:02 0.1 C 4.39 g/m*3 0.1 C 0 km/h
3100 21-12-2010 20:11:02 0.1 C 4.39 g/m*3 0.1 C 0 km/h
Sensor: Nr:Datum:Temp:Abs-Feuchte:Windchill:Wind:
Aussen-T/F 3101 21-12-2010 20:23:01 0.1 C 4.39 g/m*3 0.1 C 0 km/h
3102 21-12-2010 20:35:02 0.1 C 4.39 g/m*3 0.1 C 0 km/h
3103 21-12-2010 20:47:02 0.1 C 4.39 g/m*3 0.1 C 0 km/h
3104 21-12-2010 20:59:02 0.2 C 4.42 g/m*3 0.2 C 0 km/h
3105 21-12-2010 21:11:02 0.1 C 4.44 g/m*3 0.1 C 0 km/h
3106 21-12-2010 21:23:01 0.1 C 4.44 g/m*3 0.1 C 0 km/h
3107 21-12-2010 21:35:02 0.2 C 4.47 g/m*3 0.2 C 0 km/h
3108 21-12-2010 21:47:01 0.1 C 4.44 g/m*3 0.1 C 0 km/h
3109 21-12-2010 21:59:01 0.1 C 4.44 g/m*3 0.1 C 0 km/h
3110 21-12-2010 22:11:02 0.1 C 4.44 g/m*3 0.1 C 0 km/h
3111 21-12-2010 22:24:04 0.1 C 4.44 g/m*3 0.1 C 0 km/h
3112 21-12-2010 22:36:04 0.2 C 4.47 g/m*3 0.2 C 0 km/h
3113 21-12-2010 22:48:04 0.2 C 4.47 g/m*3 0.2 C 0 km/h
3114 21-12-2010 23:00:04 0.2 C 4.47 g/m*3 0.2 C 0 km/h
3115 21-12-2010 23:12:04 0.1 C 4.44 g/m*3 0.1 C 0 km/h
3116 21-12-2010 23:24:04 0.1 C 4.44 g/m*3 0.1 C 0 km/h
3117 21-12-2010 23:36:04 0.1 C 4.44 g/m*3 0.1 C 0 km/h
3118 21-12-2010 23:48:04 0.1 C 4.44 g/m*3 0.1 C 0 km/h
3119 22-12-2010 00:00:04 0.1 C 4.44 g/m*3 0.1 C 0 km/h
3120 22-12-2010 00:12:04 0.1 C 4.49 g/m*3 0.1 C 0 km/h
3121 22-12-2010 00:24:04 0.1 C 4.49 g/m*3 0.1 C 0 km/h
3122 22-12-2010 00:36:04 0.1 C 4.49 g/m*3 0.1 C 0 km/h
3123 22-12-2010 00:48:04 0.1 C 4.49 g/m*3 0.1 C 0 km/h
3124 22-12-2010 01:00:04 0.1 C 4.49 g/m*3 0.1 C 0 km/h
3125 22-12-2010 01:12:04 0.1 C 4.49 g/m*3 0.1 C 0 km/h
Sensor: Nr:Datum:Temp:Abs-Feuchte:Windchill:Wind:
Aussen-T/F 3126 22-12-2010 01:24:04 0.2 C 4.52 g/m*3 0.2 C 0 km/h
3127 22-12-2010 01:36:04 0.2 C 4.52 g/m*3 0.2 C 0 km/h
3128 22-12-2010 01:48:04 0.2 C 4.52 g/m*3 0.2 C 0 km/h
3129 22-12-2010 02:00:04 0.2 C 4.52 g/m*3 0.2 C 0 km/h
3130 22-12-2010 02:12:05 0.2 C 4.52 g/m*3 0.2 C 0 km/h
3131 22-12-2010 02:24:05 0.2 C 4.52 g/m*3 0.2 C 0 km/h
3132 22-12-2010 02:36:05 0.2 C 4.52 g/m*3 0.2 C 0 km/h
3133 22-12-2010 02:48:05 0.2 C 4.52 g/m*3 0.2 C 0 km/h
3134 22-12-2010 03:00:05 0.2 C 4.52 g/m*3 0.2 C 0 km/h
3135 22-12-2010 03:12:05 0.2 C 4.52 g/m*3 0.2 C 0 km/h
3136 22-12-2010 03:24:05 0.1 C 4.49 g/m*3 0.1 C 0 km/h
3137 22-12-2010 03:36:05 0.1 C 4.49 g/m*3 0.1 C 0 km/h
3138 22-12-2010 03:48:05 0.2 C 4.52 g/m*3 0.2 C 0 km/h
3139 22-12-2010 04:00:05 0.2 C 4.52 g/m*3 0.2 C 0 km/h
3140 22-12-2010 04:12:05 0.3 C 4.55 g/m*3 0.3 C 0 km/h
3141 22-12-2010 04:24:05 0.3 C 4.55 g/m*3 0.3 C 0 km/h
3142 22-12-2010 04:36:05 0.3 C 4.55 g/m*3 0.3 C 0 km/h
3143 22-12-2010 04:48:05 0.3 C 4.55 g/m*3 0.3 C 0 km/h
3144 22-12-2010 05:00:05 0.3 C 4.55 g/m*3 0.3 C 0 km/h
3145 22-12-2010 05:12:05 0.3 C 4.55 g/m*3 0.3 C 0 km/h
3146 22-12-2010 05:24:05 0.3 C 4.55 g/m*3 0.3 C 0 km/h
3147 22-12-2010 05:36:05 0.3 C 4.55 g/m*3 0.3 C 0 km/h
3148 22-12-2010 05:48:05 0.3 C 4.55 g/m*3 0.3 C 0 km/h
3149 22-12-2010 06:00:05 0.3 C 4.55 g/m*3 0.3 C 0 km/h
3150 22-12-2010 06:12:06 0.3 C 4.55 g/m*3 0.3 C 0 km/h
Sensor: Nr:Datum:Temp:Abs-Feuchte:Windchill:Wind:
Aussen-T/F 3151 22-12-2010 06:24:06 0.3 C 4.55 g/m*3 0.3 C 0 km/h
3152 22-12-2010 06:36:06 0.3 C 4.55 g/m*3 0.3 C 0 km/h
3153 22-12-2010 06:48:06 0.3 C 4.55 g/m*3 0.3 C 0 km/h
3154 22-12-2010 07:00:06 0.3 C 4.55 g/m*3 0.3 C 0 km/h
3155 22-12-2010 07:12:06 0.3 C 4.55 g/m*3 0.3 C 0 km/h
3156 22-12-2010 07:24:06 0.3 C 4.55 g/m*3 0.3 C 0 km/h
3157 22-12-2010 07:36:03 0.3 C 4.6 g/m*3 0.3 C 0 km/h
3158 22-12-2010 07:48:02 0.3 C 4.6 g/m*3 0.3 C 0 km/h
3159 22-12-2010 08:00:02 0.3 C 4.6 g/m*3 0.3 C 0 km/h
3160 22-12-2010 08:12:02 0.3 C 4.6 g/m*3 0.3 C 0 km/h
3161 22-12-2010 08:24:01 0.3 C 4.6 g/m*3 0.3 C 0 km/h
3162 22-12-2010 08:36:02 0.4 C 4.63 g/m*3 0.4 C 0 km/h
3163 22-12-2010 08:48:02 0.4 C 4.63 g/m*3 0.4 C 0 km/h
3164 22-12-2010 09:00:02 0.4 C 4.63 g/m*3 0.4 C 0 km/h
3165 22-12-2010 09:12:02 0.6 C 4.7 g/m*3 0.6 C 0 km/h
3166 22-12-2010 09:24:01 0.7 C 4.73 g/m*3 0.7 C 0 km/h
3167 22-12-2010 09:36:02 0.9 C 4.79 g/m*3 0.9 C 0 km/h
3168 22-12-2010 09:48:01 0.9 C 4.79 g/m*3 0.9 C 0 km/h
3169 22-12-2010 10:00:01 1.1 C 4.81 g/m*3 1.1 C 0 km/h
3170 22-12-2010 10:12:02 1.2 C 4.84 g/m*3 1.2 C 0 km/h
3171 22-12-2010 10:24:02 1.2 C 4.84 g/m*3 1.2 C 0 km/h
3172 22-12-2010 10:36:02 1.7 C 5.01 g/m*3 1.7 C 0 km/h
3173 22-12-2010 10:48:02 1.7 C 5.01 g/m*3 1.7 C 0 km/h
3174 22-12-2010 11:00:02 2 C 5 g/m*3 2 C 0 km/h
3175 22-12-2010 11:12:02 1.9 C 4.97 g/m*3 1.9 C 0 km/h
Sensor: Nr:Datum:Temp:Abs-Feuchte:Windchill:Wind:
Aussen-T/F 3176 22-12-2010 11:24:02 2.3 C 5.05 g/m*3 2.3 C 0 km/h
3177 22-12-2010 11:36:01 2.7 C 5.13 g/m*3 2.7 C 0 km/h
3178 22-12-2010 11:48:02 2.6 C 4.98 g/m*3 2.6 C 0 km/h
3179 22-12-2010 12:00:02 2.7 C 4.95 g/m*3 2.7 C 0 km/h
3180 22-12-2010 12:12:01 2.7 C 4.89 g/m*3 2.7 C 0 km/h
3181 22-12-2010 12:24:01 2.9 C 4.9 g/m*3 2.9 C 0 km/h
3182 22-12-2010 12:36:02 2.9 C 4.9 g/m*3 2.9 C 0 km/h
3183 22-12-2010 12:48:02 2.6 C 4.8 g/m*3 2.6 C 0 km/h
3184 22-12-2010 13:00:02 2.6 C 4.8 g/m*3 2.6 C 0 km/h
3185 22-12-2010 13:12:02 2.3 C 4.71 g/m*3 2.3 C 0 km/h
3186 22-12-2010 13:24:02 2.6 C 4.8 g/m*3 2.6 C 0 km/h
3187 22-12-2010 13:36:02 2.3 C 4.71 g/m*3 2.3 C 0 km/h
3188 22-12-2010 13:48:02 2.1 C 4.64 g/m*3 2.1 C 0 km/h
3189 22-12-2010 14:00:02 2.1 C 4.7 g/m*3 2.1 C 0 km/h
3190 22-12-2010 14:12:02 2.3 C 4.76 g/m*3 2.3 C 0 km/h
3191 22-12-2010 14:24:02 2.6 C 4.86 g/m*3 2.6 C 0 km/h
3192 22-12-2010 14:36:02 2.6 C 4.8 g/m*3 2.6 C 0 km/h
3193 22-12-2010 14:48:02 2.4 C 4.68 g/m*3 2.4 C 0 km/h
3194 22-12-2010 15:00:02 2 C 4.61 g/m*3 2 C 0 km/h
3195 22-12-2010 15:12:02 1.7 C 4.57 g/m*3 1.7 C 0 km/h
3196 22-12-2010 15:24:02 1.6 C 4.6 g/m*3 1.6 C 0 km/h
3197 22-12-2010 15:36:02 1.6 C 4.6 g/m*3 1.6 C 0 km/h
3198 22-12-2010 15:48:02 1.4 C 4.59 g/m*3 1.4 C 0 km/h
3199 22-12-2010 16:00:02 1.4 C 4.64 g/m*3 1.4 C 0 km/h
3200 22-12-2010 16:12:02 1.2 C 4.58 g/m*3 1.2 C 0 km/h
Sensor: Nr:Datum:Temp:Abs-Feuchte:Windchill:Wind:
Aussen-T/F 3201 22-12-2010 16:24:02 1.2 C 4.63 g/m*3 1.2 C 0 km/h
3202 22-12-2010 16:36:02 1 C 4.57 g/m*3 1 C 0 km/h
3203 22-12-2010 16:48:02 1 C 4.57 g/m*3 1 C 0 km/h
3204 22-12-2010 17:00:02 0.9 C 4.59 g/m*3 0.9 C 0 km/h
3205 22-12-2010 17:12:02 0.8 C 4.56 g/m*3 0.8 C 0 km/h
3206 22-12-2010 17:24:02 0.7 C 4.58 g/m*3 0.7 C 0 km/h
3207 22-12-2010 17:36:01 0.8 C 4.61 g/m*3 0.8 C 0 km/h
3208 22-12-2010 17:48:02 0.8 C 4.66 g/m*3 0.8 C 0 km/h
3209 22-12-2010 18:00:02 0.7 C 4.63 g/m*3 0.7 C 0 km/h
3210 22-12-2010 18:12:01 0.7 C 4.63 g/m*3 0.7 C 0 km/h
3211 22-12-2010 18:24:01 0.6 C 4.6 g/m*3 0.6 C 0 km/h
3212 22-12-2010 18:36:02 0.8 C 4.66 g/m*3 0.8 C 0 km/h
3213 22-12-2010 18:48:02 0.7 C 4.63 g/m*3 0.7 C 0 km/h
3214 22-12-2010 19:00:02 0.7 C 4.68 g/m*3 0.7 C 0 km/h
3215 22-12-2010 19:12:02 0.8 C 4.71 g/m*3 0.8 C 0 km/h
3216 22-12-2010 19:24:02 0.8 C 4.71 g/m*3 0.8 C 0 km/h
3217 22-12-2010 19:36:02 0.8 C 4.71 g/m*3 0.8 C 0 km/h
3218 22-12-2010 19:48:02 0.8 C 4.71 g/m*3 0.8 C 0 km/h
3219 22-12-2010 20:00:02 0.7 C 4.68 g/m*3 0.7 C 0 km/h
3220 22-12-2010 20:12:03 0.8 C 4.71 g/m*3 0.8 C 0 km/h
3221 22-12-2010 20:24:02 0.8 C 4.71 g/m*3 0.8 C 0 km/h
3222 22-12-2010 20:36:02 0.8 C 4.71 g/m*3 0.8 C 0 km/h
3223 22-12-2010 20:48:01 0.8 C 4.71 g/m*3 0.8 C 0 km/h
3224 22-12-2010 21:00:01 0.8 C 4.71 g/m*3 0.8 C 0 km/h
3225 22-12-2010 21:12:01 0.8 C 4.71 g/m*3 0.8 C 0 km/h
Sensor: Nr:Datum:Temp:Abs-Feuchte:Windchill:Wind:
Aussen-T/F 3226 22-12-2010 21:24:01 0.8 C 4.71 g/m*3 0.8 C 0 km/h
3227 22-12-2010 21:36:01 0.8 C 4.71 g/m*3 0.8 C 0 km/h
3228 22-12-2010 21:48:01 0.8 C 4.71 g/m*3 0.8 C 0 km/h
3229 22-12-2010 22:00:01 0.7 C 4.68 g/m*3 0.7 C 0 km/h
3230 22-12-2010 22:13:03 0.7 C 4.68 g/m*3 0.7 C 0 km/h
3231 22-12-2010 22:25:03 0.7 C 4.68 g/m*3 0.7 C 0 km/h
3232 22-12-2010 22:37:03 0.7 C 4.68 g/m*3 0.7 C 0 km/h
3233 22-12-2010 22:49:03 0.7 C 4.68 g/m*3 0.7 C 0 km/h
3234 22-12-2010 23:01:03 0.7 C 4.68 g/m*3 0.7 C 0 km/h
3235 22-12-2010 23:13:03 0.7 C 4.68 g/m*3 0.7 C 0 km/h
3236 22-12-2010 23:25:03 0.7 C 4.68 g/m*3 0.7 C 0 km/h
3237 22-12-2010 23:37:03 0.7 C 4.68 g/m*3 0.7 C 0 km/h
3238 22-12-2010 23:49:03 0.7 C 4.68 g/m*3 0.7 C 0 km/h